<?xml version="1.0" encoding="UTF-8" standalone="no" ?>
<gpx xmlns="http://www.topografix.com/GPX/1/1" xmlns:xsi="http://www.w3.org/2001/XMLSchema-instance" xsi:schemaLocation="http://www.topografix.com/GPX/1/1 http://www.topografix.com/GPX/1/1/gpx.xsd" version="1.1" creator="VisuGPX - https://www.visugpx.com">
  <metadata>
    <name>Lancieux</name>
  </metadata>
  <trk>
    <name><![CDATA[Sequence 1]]></name>
    <trkseg>
      <trkpt lat="48.60471" lon="-2.1564">
        <ele>9</ele>
        <time>2017-06-18T07:39:33Z</time>
      </trkpt>
      <trkpt lat="48.60491" lon="-2.15657">
        <ele>10</ele>
        <time>2017-06-18T07:39:38Z</time>
      </trkpt>
      <trkpt lat="48.60511" lon="-2.15678">
        <ele>10</ele>
        <time>2017-06-18T07:39:43Z</time>
      </trkpt>
      <trkpt lat="48.6053" lon="-2.15697">
        <ele>11</ele>
        <time>2017-06-18T07:39:48Z</time>
      </trkpt>
      <trkpt lat="48.60547" lon="-2.15716">
        <ele>12</ele>
        <time>2017-06-18T07:39:52Z</time>
      </trkpt>
      <trkpt lat="48.60564" lon="-2.15731">
        <ele>12</ele>
        <time>2017-06-18T07:39:57Z</time>
      </trkpt>
      <trkpt lat="48.6058" lon="-2.15716">
        <ele>12</ele>
        <time>2017-06-18T07:40:02Z</time>
      </trkpt>
      <trkpt lat="48.60591" lon="-2.15691">
        <ele>12</ele>
        <time>2017-06-18T07:40:08Z</time>
      </trkpt>
      <trkpt lat="48.60602" lon="-2.15667">
        <ele>13</ele>
        <time>2017-06-18T07:40:12Z</time>
      </trkpt>
      <trkpt lat="48.60612" lon="-2.15644">
        <ele>13</ele>
        <time>2017-06-18T07:40:18Z</time>
      </trkpt>
      <trkpt lat="48.60623" lon="-2.15625">
        <ele>13</ele>
        <time>2017-06-18T07:40:22Z</time>
      </trkpt>
      <trkpt lat="48.60635" lon="-2.15604">
        <ele>14</ele>
        <time>2017-06-18T07:40:28Z</time>
      </trkpt>
      <trkpt lat="48.60647" lon="-2.15585">
        <ele>14</ele>
        <time>2017-06-18T07:40:33Z</time>
      </trkpt>
      <trkpt lat="48.60659" lon="-2.15567">
        <ele>13</ele>
        <time>2017-06-18T07:40:38Z</time>
      </trkpt>
      <trkpt lat="48.6067" lon="-2.15547">
        <ele>15</ele>
        <time>2017-06-18T07:40:43Z</time>
      </trkpt>
      <trkpt lat="48.60681" lon="-2.15526">
        <ele>14</ele>
        <time>2017-06-18T07:40:48Z</time>
      </trkpt>
      <trkpt lat="48.60692" lon="-2.15506">
        <ele>13</ele>
        <time>2017-06-18T07:40:52Z</time>
      </trkpt>
      <trkpt lat="48.60702" lon="-2.15484">
        <ele>13</ele>
        <time>2017-06-18T07:40:57Z</time>
      </trkpt>
      <trkpt lat="48.6071" lon="-2.15461">
        <ele>14</ele>
        <time>2017-06-18T07:41:03Z</time>
      </trkpt>
      <trkpt lat="48.60718" lon="-2.15435">
        <ele>14</ele>
        <time>2017-06-18T07:41:08Z</time>
      </trkpt>
      <trkpt lat="48.60724" lon="-2.15408">
        <ele>15</ele>
        <time>2017-06-18T07:41:13Z</time>
      </trkpt>
      <trkpt lat="48.60731" lon="-2.15381">
        <ele>15</ele>
        <time>2017-06-18T07:41:18Z</time>
      </trkpt>
      <trkpt lat="48.60738" lon="-2.1535">
        <ele>15</ele>
        <time>2017-06-18T07:41:23Z</time>
      </trkpt>
      <trkpt lat="48.60746" lon="-2.1532">
        <ele>16</ele>
        <time>2017-06-18T07:41:27Z</time>
      </trkpt>
      <trkpt lat="48.60754" lon="-2.1529">
        <ele>16</ele>
        <time>2017-06-18T07:41:33Z</time>
      </trkpt>
      <trkpt lat="48.60762" lon="-2.15263">
        <ele>15</ele>
        <time>2017-06-18T07:41:38Z</time>
      </trkpt>
      <trkpt lat="48.60769" lon="-2.1524">
        <ele>15</ele>
        <time>2017-06-18T07:41:42Z</time>
      </trkpt>
      <trkpt lat="48.60774" lon="-2.15226">
        <ele>16</ele>
        <time>2017-06-18T07:41:48Z</time>
      </trkpt>
      <trkpt lat="48.60779" lon="-2.1521">
        <ele>17</ele>
        <time>2017-06-18T07:41:53Z</time>
      </trkpt>
      <trkpt lat="48.60788" lon="-2.15195">
        <ele>17</ele>
        <time>2017-06-18T07:41:58Z</time>
      </trkpt>
      <trkpt lat="48.608" lon="-2.15183">
        <ele>17</ele>
        <time>2017-06-18T07:42:02Z</time>
      </trkpt>
      <trkpt lat="48.60812" lon="-2.15172">
        <ele>16</ele>
        <time>2017-06-18T07:42:08Z</time>
      </trkpt>
      <trkpt lat="48.60831" lon="-2.15152">
        <ele>17</ele>
        <time>2017-06-18T07:42:16Z</time>
      </trkpt>
      <trkpt lat="48.60836" lon="-2.15147">
        <ele>18</ele>
        <time>2017-06-18T07:42:18Z</time>
      </trkpt>
      <trkpt lat="48.60852" lon="-2.15128">
        <ele>19</ele>
        <time>2017-06-18T07:42:24Z</time>
      </trkpt>
      <trkpt lat="48.60859" lon="-2.15121">
        <ele>20</ele>
        <time>2017-06-18T07:42:28Z</time>
      </trkpt>
      <trkpt lat="48.6087" lon="-2.15104">
        <ele>20</ele>
        <time>2017-06-18T07:42:34Z</time>
      </trkpt>
      <trkpt lat="48.60877" lon="-2.15092">
        <ele>20</ele>
        <time>2017-06-18T07:42:37Z</time>
      </trkpt>
      <trkpt lat="48.60886" lon="-2.15078">
        <ele>20</ele>
        <time>2017-06-18T07:42:43Z</time>
      </trkpt>
      <trkpt lat="48.60896" lon="-2.15063">
        <ele>21</ele>
        <time>2017-06-18T07:42:48Z</time>
      </trkpt>
      <trkpt lat="48.60917" lon="-2.15056">
        <ele>23</ele>
        <time>2017-06-18T07:42:56Z</time>
      </trkpt>
      <trkpt lat="48.60923" lon="-2.15058">
        <ele>23</ele>
        <time>2017-06-18T07:42:58Z</time>
      </trkpt>
      <trkpt lat="48.60939" lon="-2.15058">
        <ele>26</ele>
        <time>2017-06-18T07:43:03Z</time>
      </trkpt>
      <trkpt lat="48.60949" lon="-2.15058">
        <ele>29</ele>
        <time>2017-06-18T07:43:07Z</time>
      </trkpt>
      <trkpt lat="48.60956" lon="-2.15059">
        <ele>30</ele>
        <time>2017-06-18T07:43:12Z</time>
      </trkpt>
      <trkpt lat="48.60973" lon="-2.15059">
        <ele>31</ele>
        <time>2017-06-18T07:43:16Z</time>
      </trkpt>
      <trkpt lat="48.6099" lon="-2.15065">
        <ele>31</ele>
        <time>2017-06-18T07:43:22Z</time>
      </trkpt>
      <trkpt lat="48.61009" lon="-2.15071">
        <ele>31</ele>
        <time>2017-06-18T07:43:27Z</time>
      </trkpt>
      <trkpt lat="48.6103" lon="-2.15078">
        <ele>31</ele>
        <time>2017-06-18T07:43:32Z</time>
      </trkpt>
      <trkpt lat="48.61053" lon="-2.1508">
        <ele>32</ele>
        <time>2017-06-18T07:43:37Z</time>
      </trkpt>
      <trkpt lat="48.61078" lon="-2.1508">
        <ele>31</ele>
        <time>2017-06-18T07:43:42Z</time>
      </trkpt>
      <trkpt lat="48.61101" lon="-2.15076">
        <ele>32</ele>
        <time>2017-06-18T07:43:47Z</time>
      </trkpt>
      <trkpt lat="48.61128" lon="-2.15067">
        <ele>33</ele>
        <time>2017-06-18T07:43:53Z</time>
      </trkpt>
      <trkpt lat="48.61146" lon="-2.15061">
        <ele>32</ele>
        <time>2017-06-18T07:43:57Z</time>
      </trkpt>
      <trkpt lat="48.61176" lon="-2.15056">
        <ele>30</ele>
        <time>2017-06-18T07:44:03Z</time>
      </trkpt>
      <trkpt lat="48.61199" lon="-2.15049">
        <ele>30</ele>
        <time>2017-06-18T07:44:07Z</time>
      </trkpt>
      <trkpt lat="48.61232" lon="-2.15046">
        <ele>27</ele>
        <time>2017-06-18T07:44:12Z</time>
      </trkpt>
      <trkpt lat="48.61292" lon="-2.15058">
        <ele>26</ele>
        <time>2017-06-18T07:44:19Z</time>
      </trkpt>
      <trkpt lat="48.61315" lon="-2.15064">
        <ele>25</ele>
        <time>2017-06-18T07:44:22Z</time>
      </trkpt>
      <trkpt lat="48.61371" lon="-2.15074">
        <ele>27</ele>
        <time>2017-06-18T07:44:29Z</time>
      </trkpt>
      <trkpt lat="48.61391" lon="-2.15072">
        <ele>27</ele>
        <time>2017-06-18T07:44:32Z</time>
      </trkpt>
      <trkpt lat="48.61423" lon="-2.15063">
        <ele>28</ele>
        <time>2017-06-18T07:44:36Z</time>
      </trkpt>
      <trkpt lat="48.61459" lon="-2.15045">
        <ele>27</ele>
        <time>2017-06-18T07:44:43Z</time>
      </trkpt>
      <trkpt lat="48.61484" lon="-2.15034">
        <ele>25</ele>
        <time>2017-06-18T07:44:47Z</time>
      </trkpt>
      <trkpt lat="48.61531" lon="-2.15004">
        <ele>23</ele>
        <time>2017-06-18T07:44:54Z</time>
      </trkpt>
      <trkpt lat="48.61544" lon="-2.14996">
        <ele>24</ele>
        <time>2017-06-18T07:44:57Z</time>
      </trkpt>
      <trkpt lat="48.61593" lon="-2.14996">
        <ele>23</ele>
        <time>2017-06-18T07:45:05Z</time>
      </trkpt>
      <trkpt lat="48.61604" lon="-2.15005">
        <ele>27</ele>
        <time>2017-06-18T07:45:06Z</time>
      </trkpt>
      <trkpt lat="48.61626" lon="-2.15">
        <ele>23</ele>
        <time>2017-06-18T07:45:12Z</time>
      </trkpt>
      <trkpt lat="48.61639" lon="-2.14967">
        <ele>23</ele>
        <time>2017-06-18T07:45:17Z</time>
      </trkpt>
      <trkpt lat="48.6166" lon="-2.14915">
        <ele>22</ele>
        <time>2017-06-18T07:45:23Z</time>
      </trkpt>
      <trkpt lat="48.61677" lon="-2.14876">
        <ele>23</ele>
        <time>2017-06-18T07:45:28Z</time>
      </trkpt>
      <trkpt lat="48.61687" lon="-2.14853">
        <ele>23</ele>
        <time>2017-06-18T07:45:32Z</time>
      </trkpt>
      <trkpt lat="48.61703" lon="-2.14822">
        <ele>25</ele>
        <time>2017-06-18T07:45:37Z</time>
      </trkpt>
      <trkpt lat="48.61716" lon="-2.14795">
        <ele>26</ele>
        <time>2017-06-18T07:45:41Z</time>
      </trkpt>
      <trkpt lat="48.61728" lon="-2.1477">
        <ele>26</ele>
        <time>2017-06-18T07:45:46Z</time>
      </trkpt>
      <trkpt lat="48.6174" lon="-2.1474">
        <ele>24</ele>
        <time>2017-06-18T07:45:52Z</time>
      </trkpt>
      <trkpt lat="48.61757" lon="-2.14702">
        <ele>22</ele>
        <time>2017-06-18T07:45:57Z</time>
      </trkpt>
      <trkpt lat="48.61773" lon="-2.14664">
        <ele>24</ele>
        <time>2017-06-18T07:46:02Z</time>
      </trkpt>
      <trkpt lat="48.61767" lon="-2.1462">
        <ele>24</ele>
        <time>2017-06-18T07:46:10Z</time>
      </trkpt>
      <trkpt lat="48.61763" lon="-2.14619">
        <ele>23</ele>
        <time>2017-06-18T07:46:11Z</time>
      </trkpt>
      <trkpt lat="48.61728" lon="-2.14606">
        <ele>21</ele>
        <time>2017-06-18T07:46:20Z</time>
      </trkpt>
      <trkpt lat="48.6171" lon="-2.14596">
        <ele>24</ele>
        <time>2017-06-18T07:46:25Z</time>
      </trkpt>
      <trkpt lat="48.61688" lon="-2.14584">
        <ele>26</ele>
        <time>2017-06-18T07:46:29Z</time>
      </trkpt>
      <trkpt lat="48.6168" lon="-2.14578">
        <ele>25</ele>
        <time>2017-06-18T07:46:32Z</time>
      </trkpt>
      <trkpt lat="48.61656" lon="-2.14563">
        <ele>27</ele>
        <time>2017-06-18T07:46:39Z</time>
      </trkpt>
      <trkpt lat="48.61645" lon="-2.14554">
        <ele>28</ele>
        <time>2017-06-18T07:46:42Z</time>
      </trkpt>
      <trkpt lat="48.61624" lon="-2.14538">
        <ele>27</ele>
        <time>2017-06-18T07:46:47Z</time>
      </trkpt>
      <trkpt lat="48.6161" lon="-2.14517">
        <ele>29</ele>
        <time>2017-06-18T07:46:51Z</time>
      </trkpt>
      <trkpt lat="48.61613" lon="-2.14487">
        <ele>29</ele>
        <time>2017-06-18T07:46:56Z</time>
      </trkpt>
      <trkpt lat="48.61628" lon="-2.14455">
        <ele>27</ele>
        <time>2017-06-18T07:47:02Z</time>
      </trkpt>
      <trkpt lat="48.61647" lon="-2.14416">
        <ele>25</ele>
        <time>2017-06-18T07:47:06Z</time>
      </trkpt>
      <trkpt lat="48.61666" lon="-2.14363">
        <ele>20</ele>
        <time>2017-06-18T07:47:12Z</time>
      </trkpt>
      <trkpt lat="48.61679" lon="-2.14299">
        <ele>19</ele>
        <time>2017-06-18T07:47:17Z</time>
      </trkpt>
      <trkpt lat="48.61686" lon="-2.14232">
        <ele>17</ele>
        <time>2017-06-18T07:47:21Z</time>
      </trkpt>
      <trkpt lat="48.61684" lon="-2.14183">
        <ele>15</ele>
        <time>2017-06-18T07:47:27Z</time>
      </trkpt>
      <trkpt lat="48.61681" lon="-2.14178">
        <ele>15</ele>
        <time>2017-06-18T07:47:32Z</time>
      </trkpt>
      <trkpt lat="48.61681" lon="-2.14178">
        <ele>14</ele>
        <time>2017-06-18T07:47:37Z</time>
      </trkpt>
      <trkpt lat="48.61677" lon="-2.14175">
        <ele>14</ele>
        <time>2017-06-18T07:47:39Z</time>
      </trkpt>
      <trkpt lat="48.61671" lon="-2.14131">
        <ele>14</ele>
        <time>2017-06-18T07:47:46Z</time>
      </trkpt>
      <trkpt lat="48.61662" lon="-2.14093">
        <ele>15</ele>
        <time>2017-06-18T07:47:50Z</time>
      </trkpt>
      <trkpt lat="48.61651" lon="-2.14047">
        <ele>17</ele>
        <time>2017-06-18T07:47:55Z</time>
      </trkpt>
      <trkpt lat="48.6164" lon="-2.14002">
        <ele>16</ele>
        <time>2017-06-18T07:48:00Z</time>
      </trkpt>
      <trkpt lat="48.6163" lon="-2.13959">
        <ele>17</ele>
        <time>2017-06-18T07:48:05Z</time>
      </trkpt>
      <trkpt lat="48.61619" lon="-2.13913">
        <ele>18</ele>
        <time>2017-06-18T07:48:09Z</time>
      </trkpt>
      <trkpt lat="48.61608" lon="-2.13865">
        <ele>17</ele>
        <time>2017-06-18T07:48:14Z</time>
      </trkpt>
      <trkpt lat="48.61596" lon="-2.13812">
        <ele>15</ele>
        <time>2017-06-18T07:48:19Z</time>
      </trkpt>
      <trkpt lat="48.61584" lon="-2.13758">
        <ele>14</ele>
        <time>2017-06-18T07:48:24Z</time>
      </trkpt>
      <trkpt lat="48.61573" lon="-2.13711">
        <ele>14</ele>
        <time>2017-06-18T07:48:29Z</time>
      </trkpt>
      <trkpt lat="48.6158" lon="-2.1368">
        <ele>14</ele>
        <time>2017-06-18T07:48:35Z</time>
      </trkpt>
      <trkpt lat="48.61615" lon="-2.13634">
        <ele>12</ele>
        <time>2017-06-18T07:48:41Z</time>
      </trkpt>
      <trkpt lat="48.61632" lon="-2.13613">
        <ele>12</ele>
        <time>2017-06-18T07:48:44Z</time>
      </trkpt>
      <trkpt lat="48.61661" lon="-2.13579">
        <ele>12</ele>
        <time>2017-06-18T07:48:50Z</time>
      </trkpt>
      <trkpt lat="48.61692" lon="-2.13553">
        <ele>12</ele>
        <time>2017-06-18T07:48:54Z</time>
      </trkpt>
      <trkpt lat="48.61744" lon="-2.13548">
        <ele>14</ele>
        <time>2017-06-18T07:49:03Z</time>
      </trkpt>
      <trkpt lat="48.61757" lon="-2.13555">
        <ele>14</ele>
        <time>2017-06-18T07:49:05Z</time>
      </trkpt>
      <trkpt lat="48.61775" lon="-2.13581">
        <ele>12</ele>
        <time>2017-06-18T07:49:09Z</time>
      </trkpt>
      <trkpt lat="48.61789" lon="-2.13629">
        <ele>10</ele>
        <time>2017-06-18T07:49:14Z</time>
      </trkpt>
      <trkpt lat="48.61809" lon="-2.13678">
        <ele>9</ele>
        <time>2017-06-18T07:49:20Z</time>
      </trkpt>
      <trkpt lat="48.61843" lon="-2.13701">
        <ele>10</ele>
        <time>2017-06-18T07:49:24Z</time>
      </trkpt>
      <trkpt lat="48.61916" lon="-2.13721">
        <ele>12</ele>
        <time>2017-06-18T07:49:33Z</time>
      </trkpt>
      <trkpt lat="48.61936" lon="-2.13729">
        <ele>11</ele>
        <time>2017-06-18T07:49:37Z</time>
      </trkpt>
      <trkpt lat="48.61955" lon="-2.13745">
        <ele>13</ele>
        <time>2017-06-18T07:49:39Z</time>
      </trkpt>
      <trkpt lat="48.61995" lon="-2.13785">
        <ele>14</ele>
        <time>2017-06-18T07:49:47Z</time>
      </trkpt>
      <trkpt lat="48.62013" lon="-2.138">
        <ele>15</ele>
        <time>2017-06-18T07:49:49Z</time>
      </trkpt>
      <trkpt lat="48.6207" lon="-2.13814">
        <ele>10</ele>
        <time>2017-06-18T07:49:59Z</time>
      </trkpt>
      <trkpt lat="48.62084" lon="-2.13816">
        <ele>11</ele>
        <time>2017-06-18T07:50:01Z</time>
      </trkpt>
      <trkpt lat="48.62132" lon="-2.13822">
        <ele>9</ele>
        <time>2017-06-18T07:50:09Z</time>
      </trkpt>
      <trkpt lat="48.62149" lon="-2.13824">
        <ele>9</ele>
        <time>2017-06-18T07:50:11Z</time>
      </trkpt>
      <trkpt lat="48.62166" lon="-2.13828">
        <ele>9</ele>
        <time>2017-06-18T07:50:14Z</time>
      </trkpt>
      <trkpt lat="48.62191" lon="-2.13833">
        <ele>9</ele>
        <time>2017-06-18T07:50:19Z</time>
      </trkpt>
      <trkpt lat="48.62228" lon="-2.13846">
        <ele>11</ele>
        <time>2017-06-18T07:50:27Z</time>
      </trkpt>
      <trkpt lat="48.62264" lon="-2.13858">
        <ele>10</ele>
        <time>2017-06-18T07:50:34Z</time>
      </trkpt>
      <trkpt lat="48.62268" lon="-2.13859">
        <ele>10</ele>
        <time>2017-06-18T07:50:35Z</time>
      </trkpt>
      <trkpt lat="48.62292" lon="-2.13864">
        <ele>11</ele>
        <time>2017-06-18T07:50:41Z</time>
      </trkpt>
      <trkpt lat="48.62307" lon="-2.13861">
        <ele>14</ele>
        <time>2017-06-18T07:50:45Z</time>
      </trkpt>
      <trkpt lat="48.62324" lon="-2.13853">
        <ele>16</ele>
        <time>2017-06-18T07:50:50Z</time>
      </trkpt>
      <trkpt lat="48.6234" lon="-2.1384">
        <ele>16</ele>
        <time>2017-06-18T07:50:55Z</time>
      </trkpt>
      <trkpt lat="48.62351" lon="-2.13823">
        <ele>15</ele>
        <time>2017-06-18T07:51:00Z</time>
      </trkpt>
      <trkpt lat="48.6237" lon="-2.13798">
        <ele>17</ele>
        <time>2017-06-18T07:51:09Z</time>
      </trkpt>
      <trkpt lat="48.62372" lon="-2.13795">
        <ele>17</ele>
        <time>2017-06-18T07:51:09Z</time>
      </trkpt>
      <trkpt lat="48.62384" lon="-2.13781">
        <ele>17</ele>
        <time>2017-06-18T07:51:14Z</time>
      </trkpt>
      <trkpt lat="48.62395" lon="-2.13768">
        <ele>18</ele>
        <time>2017-06-18T07:51:19Z</time>
      </trkpt>
      <trkpt lat="48.62406" lon="-2.13755">
        <ele>18</ele>
        <time>2017-06-18T07:51:25Z</time>
      </trkpt>
      <trkpt lat="48.62417" lon="-2.13743">
        <ele>19</ele>
        <time>2017-06-18T07:51:30Z</time>
      </trkpt>
      <trkpt lat="48.62426" lon="-2.13733">
        <ele>19</ele>
        <time>2017-06-18T07:51:35Z</time>
      </trkpt>
      <trkpt lat="48.62436" lon="-2.13722">
        <ele>20</ele>
        <time>2017-06-18T07:51:40Z</time>
      </trkpt>
      <trkpt lat="48.62448" lon="-2.13707">
        <ele>22</ele>
        <time>2017-06-18T07:51:46Z</time>
      </trkpt>
      <trkpt lat="48.62453" lon="-2.13695">
        <ele>23</ele>
        <time>2017-06-18T07:51:50Z</time>
      </trkpt>
      <trkpt lat="48.62442" lon="-2.13686">
        <ele>21</ele>
        <time>2017-06-18T07:51:55Z</time>
      </trkpt>
      <trkpt lat="48.62431" lon="-2.13686">
        <ele>24</ele>
        <time>2017-06-18T07:51:59Z</time>
      </trkpt>
      <trkpt lat="48.62425" lon="-2.1369">
        <ele>25</ele>
        <time>2017-06-18T07:52:04Z</time>
      </trkpt>
      <trkpt lat="48.62422" lon="-2.13686">
        <ele>26</ele>
        <time>2017-06-18T07:52:10Z</time>
      </trkpt>
      <trkpt lat="48.62432" lon="-2.1368">
        <ele>25</ele>
        <time>2017-06-18T07:52:15Z</time>
      </trkpt>
      <trkpt lat="48.62457" lon="-2.13686">
        <ele>23</ele>
        <time>2017-06-18T07:52:21Z</time>
      </trkpt>
      <trkpt lat="48.62458" lon="-2.13687">
        <ele>23</ele>
        <time>2017-06-18T07:52:24Z</time>
      </trkpt>
      <trkpt lat="48.62457" lon="-2.13686">
        <ele>22</ele>
        <time>2017-06-18T07:52:28Z</time>
      </trkpt>
      <trkpt lat="48.62456" lon="-2.13685">
        <ele>20</ele>
        <time>2017-06-18T07:52:33Z</time>
      </trkpt>
      <trkpt lat="48.62456" lon="-2.13685">
        <ele>20</ele>
        <time>2017-06-18T07:52:36Z</time>
      </trkpt>
      <trkpt lat="48.62456" lon="-2.13685">
        <ele>20</ele>
        <time>2017-06-18T07:52:38Z</time>
      </trkpt>
      <trkpt lat="48.62456" lon="-2.13685">
        <ele>20</ele>
        <time>2017-06-18T07:52:42Z</time>
      </trkpt>
      <trkpt lat="48.62456" lon="-2.13685">
        <ele>20</ele>
        <time>2017-06-18T07:52:45Z</time>
      </trkpt>
      <trkpt lat="48.62456" lon="-2.13685">
        <ele>20</ele>
        <time>2017-06-18T07:52:48Z</time>
      </trkpt>
      <trkpt lat="48.62456" lon="-2.13685">
        <ele>20</ele>
        <time>2017-06-18T07:52:51Z</time>
      </trkpt>
      <trkpt lat="48.62456" lon="-2.13685">
        <ele>20</ele>
        <time>2017-06-18T07:52:54Z</time>
      </trkpt>
      <trkpt lat="48.62456" lon="-2.13685">
        <ele>20</ele>
        <time>2017-06-18T07:52:56Z</time>
      </trkpt>
      <trkpt lat="48.62457" lon="-2.13686">
        <ele>20</ele>
        <time>2017-06-18T07:52:59Z</time>
      </trkpt>
      <trkpt lat="48.62469" lon="-2.13687">
        <ele>18</ele>
        <time>2017-06-18T07:53:04Z</time>
      </trkpt>
      <trkpt lat="48.62492" lon="-2.13684">
        <ele>19</ele>
        <time>2017-06-18T07:53:10Z</time>
      </trkpt>
      <trkpt lat="48.62529" lon="-2.13677">
        <ele>20</ele>
        <time>2017-06-18T07:53:17Z</time>
      </trkpt>
      <trkpt lat="48.62538" lon="-2.13675">
        <ele>21</ele>
        <time>2017-06-18T07:53:20Z</time>
      </trkpt>
      <trkpt lat="48.62559" lon="-2.13669">
        <ele>19</ele>
        <time>2017-06-18T07:53:25Z</time>
      </trkpt>
      <trkpt lat="48.62583" lon="-2.13657">
        <ele>16</ele>
        <time>2017-06-18T07:53:31Z</time>
      </trkpt>
      <trkpt lat="48.62603" lon="-2.13654">
        <ele>17</ele>
        <time>2017-06-18T07:53:35Z</time>
      </trkpt>
      <trkpt lat="48.62629" lon="-2.13649">
        <ele>18</ele>
        <time>2017-06-18T07:53:39Z</time>
      </trkpt>
      <trkpt lat="48.62652" lon="-2.13645">
        <ele>19</ele>
        <time>2017-06-18T07:53:45Z</time>
      </trkpt>
      <trkpt lat="48.62675" lon="-2.13638">
        <ele>18</ele>
        <time>2017-06-18T07:53:49Z</time>
      </trkpt>
      <trkpt lat="48.62698" lon="-2.13633">
        <ele>18</ele>
        <time>2017-06-18T07:53:55Z</time>
      </trkpt>
      <trkpt lat="48.62719" lon="-2.13629">
        <ele>18</ele>
        <time>2017-06-18T07:53:59Z</time>
      </trkpt>
      <trkpt lat="48.62726" lon="-2.13614">
        <ele>19</ele>
        <time>2017-06-18T07:54:06Z</time>
      </trkpt>
      <trkpt lat="48.62724" lon="-2.13598">
        <ele>19</ele>
        <time>2017-06-18T07:54:09Z</time>
      </trkpt>
      <trkpt lat="48.62716" lon="-2.13572">
        <ele>19</ele>
        <time>2017-06-18T07:54:14Z</time>
      </trkpt>
      <trkpt lat="48.62706" lon="-2.13543">
        <ele>21</ele>
        <time>2017-06-18T07:54:19Z</time>
      </trkpt>
      <trkpt lat="48.62692" lon="-2.13501">
        <ele>22</ele>
        <time>2017-06-18T07:54:26Z</time>
      </trkpt>
      <trkpt lat="48.62687" lon="-2.13484">
        <ele>23</ele>
        <time>2017-06-18T07:54:30Z</time>
      </trkpt>
      <trkpt lat="48.62681" lon="-2.13456">
        <ele>23</ele>
        <time>2017-06-18T07:54:35Z</time>
      </trkpt>
      <trkpt lat="48.62675" lon="-2.13428">
        <ele>22</ele>
        <time>2017-06-18T07:54:40Z</time>
      </trkpt>
      <trkpt lat="48.62667" lon="-2.13385">
        <ele>21</ele>
        <time>2017-06-18T07:54:47Z</time>
      </trkpt>
      <trkpt lat="48.62665" lon="-2.13374">
        <ele>21</ele>
        <time>2017-06-18T07:54:49Z</time>
      </trkpt>
      <trkpt lat="48.62661" lon="-2.13337">
        <ele>22</ele>
        <time>2017-06-18T07:54:57Z</time>
      </trkpt>
      <trkpt lat="48.62661" lon="-2.13322">
        <ele>20</ele>
        <time>2017-06-18T07:55:00Z</time>
      </trkpt>
      <trkpt lat="48.6266" lon="-2.13292">
        <ele>22</ele>
        <time>2017-06-18T07:55:06Z</time>
      </trkpt>
      <trkpt lat="48.62658" lon="-2.13271">
        <ele>22</ele>
        <time>2017-06-18T07:55:10Z</time>
      </trkpt>
      <trkpt lat="48.62657" lon="-2.13244">
        <ele>23</ele>
        <time>2017-06-18T07:55:14Z</time>
      </trkpt>
      <trkpt lat="48.62655" lon="-2.13217">
        <ele>25</ele>
        <time>2017-06-18T07:55:19Z</time>
      </trkpt>
      <trkpt lat="48.62654" lon="-2.13179">
        <ele>27</ele>
        <time>2017-06-18T07:55:26Z</time>
      </trkpt>
      <trkpt lat="48.62651" lon="-2.13163">
        <ele>27</ele>
        <time>2017-06-18T07:55:29Z</time>
      </trkpt>
      <trkpt lat="48.62645" lon="-2.13137">
        <ele>26</ele>
        <time>2017-06-18T07:55:34Z</time>
      </trkpt>
      <trkpt lat="48.62637" lon="-2.1311">
        <ele>27</ele>
        <time>2017-06-18T07:55:40Z</time>
      </trkpt>
      <trkpt lat="48.62627" lon="-2.13086">
        <ele>26</ele>
        <time>2017-06-18T07:55:45Z</time>
      </trkpt>
      <trkpt lat="48.62616" lon="-2.13066">
        <ele>27</ele>
        <time>2017-06-18T07:55:50Z</time>
      </trkpt>
      <trkpt lat="48.62603" lon="-2.13048">
        <ele>28</ele>
        <time>2017-06-18T07:55:54Z</time>
      </trkpt>
      <trkpt lat="48.62591" lon="-2.13029">
        <ele>28</ele>
        <time>2017-06-18T07:56:00Z</time>
      </trkpt>
      <trkpt lat="48.62579" lon="-2.13014">
        <ele>28</ele>
        <time>2017-06-18T07:56:04Z</time>
      </trkpt>
      <trkpt lat="48.62568" lon="-2.13002">
        <ele>28</ele>
        <time>2017-06-18T07:56:09Z</time>
      </trkpt>
      <trkpt lat="48.62545" lon="-2.13005">
        <ele>29</ele>
        <time>2017-06-18T07:56:19Z</time>
      </trkpt>
      <trkpt lat="48.62542" lon="-2.13005">
        <ele>30</ele>
        <time>2017-06-18T07:56:20Z</time>
      </trkpt>
      <trkpt lat="48.62525" lon="-2.13004">
        <ele>31</ele>
        <time>2017-06-18T07:56:25Z</time>
      </trkpt>
      <trkpt lat="48.62521" lon="-2.13028">
        <ele>31</ele>
        <time>2017-06-18T07:56:29Z</time>
      </trkpt>
      <trkpt lat="48.62518" lon="-2.13068">
        <ele>32</ele>
        <time>2017-06-18T07:56:36Z</time>
      </trkpt>
      <trkpt lat="48.62515" lon="-2.13085">
        <ele>32</ele>
        <time>2017-06-18T07:56:39Z</time>
      </trkpt>
      <trkpt lat="48.62508" lon="-2.13111">
        <ele>32</ele>
        <time>2017-06-18T07:56:44Z</time>
      </trkpt>
      <trkpt lat="48.62509" lon="-2.1314">
        <ele>33</ele>
        <time>2017-06-18T07:56:51Z</time>
      </trkpt>
      <trkpt lat="48.6252" lon="-2.13179">
        <ele>35</ele>
        <time>2017-06-18T07:56:57Z</time>
      </trkpt>
      <trkpt lat="48.62528" lon="-2.13223">
        <ele>34</ele>
        <time>2017-06-18T07:57:01Z</time>
      </trkpt>
      <trkpt lat="48.62534" lon="-2.13247">
        <ele>33</ele>
        <time>2017-06-18T07:57:05Z</time>
      </trkpt>
      <trkpt lat="48.62546" lon="-2.13292">
        <ele>33</ele>
        <time>2017-06-18T07:57:10Z</time>
      </trkpt>
      <trkpt lat="48.62553" lon="-2.13351">
        <ele>30</ele>
        <time>2017-06-18T07:57:17Z</time>
      </trkpt>
      <trkpt lat="48.62545" lon="-2.13375">
        <ele>29</ele>
        <time>2017-06-18T07:57:20Z</time>
      </trkpt>
      <trkpt lat="48.62534" lon="-2.13407">
        <ele>29</ele>
        <time>2017-06-18T07:57:24Z</time>
      </trkpt>
      <trkpt lat="48.62538" lon="-2.13428">
        <ele>27</ele>
        <time>2017-06-18T07:57:30Z</time>
      </trkpt>
      <trkpt lat="48.6251" lon="-2.13443">
        <ele>27</ele>
        <time>2017-06-18T07:57:37Z</time>
      </trkpt>
      <trkpt lat="48.62502" lon="-2.13446">
        <ele>28</ele>
        <time>2017-06-18T07:57:40Z</time>
      </trkpt>
      <trkpt lat="48.62477" lon="-2.1345">
        <ele>26</ele>
        <time>2017-06-18T07:57:46Z</time>
      </trkpt>
      <trkpt lat="48.62454" lon="-2.13455">
        <ele>27</ele>
        <time>2017-06-18T07:57:51Z</time>
      </trkpt>
      <trkpt lat="48.62436" lon="-2.13459">
        <ele>28</ele>
        <time>2017-06-18T07:57:55Z</time>
      </trkpt>
      <trkpt lat="48.62406" lon="-2.13465">
        <ele>29</ele>
        <time>2017-06-18T07:58:01Z</time>
      </trkpt>
      <trkpt lat="48.62379" lon="-2.13472">
        <ele>30</ele>
        <time>2017-06-18T07:58:08Z</time>
      </trkpt>
      <trkpt lat="48.62381" lon="-2.13504">
        <ele>31</ele>
        <time>2017-06-18T07:58:14Z</time>
      </trkpt>
      <trkpt lat="48.62381" lon="-2.13511">
        <ele>31</ele>
        <time>2017-06-18T07:58:14Z</time>
      </trkpt>
      <trkpt lat="48.62381" lon="-2.13546">
        <ele>30</ele>
        <time>2017-06-18T07:58:20Z</time>
      </trkpt>
      <trkpt lat="48.62381" lon="-2.13589">
        <ele>29</ele>
        <time>2017-06-18T07:58:26Z</time>
      </trkpt>
      <trkpt lat="48.62381" lon="-2.13618">
        <ele>29</ele>
        <time>2017-06-18T07:58:30Z</time>
      </trkpt>
      <trkpt lat="48.62378" lon="-2.13666">
        <ele>29</ele>
        <time>2017-06-18T07:58:37Z</time>
      </trkpt>
      <trkpt lat="48.62378" lon="-2.1367">
        <ele>29</ele>
        <time>2017-06-18T07:58:40Z</time>
      </trkpt>
      <trkpt lat="48.62373" lon="-2.13677">
        <ele>27</ele>
        <time>2017-06-18T07:58:45Z</time>
      </trkpt>
      <trkpt lat="48.62364" lon="-2.13676">
        <ele>29</ele>
        <time>2017-06-18T07:58:49Z</time>
      </trkpt>
      <trkpt lat="48.62352" lon="-2.13673">
        <ele>29</ele>
        <time>2017-06-18T07:58:54Z</time>
      </trkpt>
      <trkpt lat="48.62339" lon="-2.13665">
        <ele>31</ele>
        <time>2017-06-18T07:59:00Z</time>
      </trkpt>
      <trkpt lat="48.62327" lon="-2.13654">
        <ele>32</ele>
        <time>2017-06-18T07:59:05Z</time>
      </trkpt>
      <trkpt lat="48.62314" lon="-2.13646">
        <ele>34</ele>
        <time>2017-06-18T07:59:09Z</time>
      </trkpt>
      <trkpt lat="48.62302" lon="-2.13637">
        <ele>33</ele>
        <time>2017-06-18T07:59:15Z</time>
      </trkpt>
      <trkpt lat="48.62289" lon="-2.13629">
        <ele>33</ele>
        <time>2017-06-18T07:59:20Z</time>
      </trkpt>
      <trkpt lat="48.62278" lon="-2.13621">
        <ele>32</ele>
        <time>2017-06-18T07:59:24Z</time>
      </trkpt>
      <trkpt lat="48.62268" lon="-2.13614">
        <ele>31</ele>
        <time>2017-06-18T07:59:29Z</time>
      </trkpt>
      <trkpt lat="48.62257" lon="-2.13604">
        <ele>33</ele>
        <time>2017-06-18T07:59:35Z</time>
      </trkpt>
      <trkpt lat="48.62243" lon="-2.13592">
        <ele>33</ele>
        <time>2017-06-18T07:59:41Z</time>
      </trkpt>
      <trkpt lat="48.62232" lon="-2.13582">
        <ele>35</ele>
        <time>2017-06-18T07:59:46Z</time>
      </trkpt>
      <trkpt lat="48.62224" lon="-2.13573">
        <ele>35</ele>
        <time>2017-06-18T07:59:50Z</time>
      </trkpt>
      <trkpt lat="48.62204" lon="-2.13548">
        <ele>33</ele>
        <time>2017-06-18T07:59:58Z</time>
      </trkpt>
      <trkpt lat="48.62202" lon="-2.13545">
        <ele>34</ele>
        <time>2017-06-18T07:59:59Z</time>
      </trkpt>
      <trkpt lat="48.62188" lon="-2.13527">
        <ele>34</ele>
        <time>2017-06-18T08:00:05Z</time>
      </trkpt>
      <trkpt lat="48.62179" lon="-2.13516">
        <ele>33</ele>
        <time>2017-06-18T08:00:10Z</time>
      </trkpt>
      <trkpt lat="48.62155" lon="-2.13481">
        <ele>32</ele>
        <time>2017-06-18T08:00:16Z</time>
      </trkpt>
      <trkpt lat="48.62126" lon="-2.1344">
        <ele>31</ele>
        <time>2017-06-18T08:00:22Z</time>
      </trkpt>
      <trkpt lat="48.62113" lon="-2.1342">
        <ele>31</ele>
        <time>2017-06-18T08:00:25Z</time>
      </trkpt>
      <trkpt lat="48.62088" lon="-2.13388">
        <ele>30</ele>
        <time>2017-06-18T08:00:30Z</time>
      </trkpt>
      <trkpt lat="48.62056" lon="-2.13356">
        <ele>29</ele>
        <time>2017-06-18T08:00:34Z</time>
      </trkpt>
      <trkpt lat="48.62022" lon="-2.13323">
        <ele>27</ele>
        <time>2017-06-18T08:00:40Z</time>
      </trkpt>
      <trkpt lat="48.61992" lon="-2.13292">
        <ele>25</ele>
        <time>2017-06-18T08:00:48Z</time>
      </trkpt>
      <trkpt lat="48.61987" lon="-2.13288">
        <ele>24</ele>
        <time>2017-06-18T08:00:49Z</time>
      </trkpt>
      <trkpt lat="48.61971" lon="-2.13271">
        <ele>24</ele>
        <time>2017-06-18T08:00:54Z</time>
      </trkpt>
      <trkpt lat="48.61963" lon="-2.13264">
        <ele>25</ele>
        <time>2017-06-18T08:00:59Z</time>
      </trkpt>
      <trkpt lat="48.61962" lon="-2.13265">
        <ele>26</ele>
        <time>2017-06-18T08:01:04Z</time>
      </trkpt>
      <trkpt lat="48.61961" lon="-2.13262">
        <ele>27</ele>
        <time>2017-06-18T08:01:08Z</time>
      </trkpt>
      <trkpt lat="48.61955" lon="-2.13273">
        <ele>21</ele>
        <time>2017-06-18T08:01:15Z</time>
      </trkpt>
      <trkpt lat="48.61953" lon="-2.13277">
        <ele>20</ele>
        <time>2017-06-18T08:01:17Z</time>
      </trkpt>
      <trkpt lat="48.61944" lon="-2.13296">
        <ele>19</ele>
        <time>2017-06-18T08:01:24Z</time>
      </trkpt>
      <trkpt lat="48.61937" lon="-2.1331">
        <ele>18</ele>
        <time>2017-06-18T08:01:29Z</time>
      </trkpt>
      <trkpt lat="48.61924" lon="-2.13325">
        <ele>17</ele>
        <time>2017-06-18T08:01:32Z</time>
      </trkpt>
      <trkpt lat="48.61895" lon="-2.13337">
        <ele>16</ele>
        <time>2017-06-18T08:01:41Z</time>
      </trkpt>
      <trkpt lat="48.61882" lon="-2.13345">
        <ele>19</ele>
        <time>2017-06-18T08:01:47Z</time>
      </trkpt>
      <trkpt lat="48.61882" lon="-2.13346">
        <ele>19</ele>
        <time>2017-06-18T08:01:48Z</time>
      </trkpt>
      <trkpt lat="48.61876" lon="-2.13348">
        <ele>19</ele>
        <time>2017-06-18T08:01:53Z</time>
      </trkpt>
      <trkpt lat="48.61874" lon="-2.1335">
        <ele>19</ele>
        <time>2017-06-18T08:01:57Z</time>
      </trkpt>
      <trkpt lat="48.61875" lon="-2.13352">
        <ele>21</ele>
        <time>2017-06-18T08:02:04Z</time>
      </trkpt>
      <trkpt lat="48.61875" lon="-2.13351">
        <ele>20</ele>
        <time>2017-06-18T08:02:06Z</time>
      </trkpt>
      <trkpt lat="48.61868" lon="-2.13347">
        <ele>17</ele>
        <time>2017-06-18T08:02:08Z</time>
      </trkpt>
      <trkpt lat="48.61845" lon="-2.13323">
        <ele>17</ele>
        <time>2017-06-18T08:02:15Z</time>
      </trkpt>
      <trkpt lat="48.61836" lon="-2.1331">
        <ele>19</ele>
        <time>2017-06-18T08:02:20Z</time>
      </trkpt>
      <trkpt lat="48.61829" lon="-2.133">
        <ele>19</ele>
        <time>2017-06-18T08:02:24Z</time>
      </trkpt>
      <trkpt lat="48.61825" lon="-2.13286">
        <ele>16</ele>
        <time>2017-06-18T08:02:30Z</time>
      </trkpt>
      <trkpt lat="48.61821" lon="-2.13279">
        <ele>15</ele>
        <time>2017-06-18T08:02:33Z</time>
      </trkpt>
      <trkpt lat="48.61816" lon="-2.13265">
        <ele>15</ele>
        <time>2017-06-18T08:02:42Z</time>
      </trkpt>
      <trkpt lat="48.61811" lon="-2.1326">
        <ele>15</ele>
        <time>2017-06-18T08:02:45Z</time>
      </trkpt>
      <trkpt lat="48.61802" lon="-2.1325">
        <ele>14</ele>
        <time>2017-06-18T08:02:49Z</time>
      </trkpt>
      <trkpt lat="48.61796" lon="-2.13236">
        <ele>15</ele>
        <time>2017-06-18T08:02:53Z</time>
      </trkpt>
      <trkpt lat="48.61786" lon="-2.13205">
        <ele>19</ele>
        <time>2017-06-18T08:02:59Z</time>
      </trkpt>
      <trkpt lat="48.61771" lon="-2.13171">
        <ele>14</ele>
        <time>2017-06-18T08:03:08Z</time>
      </trkpt>
      <trkpt lat="48.61757" lon="-2.13146">
        <ele>14</ele>
        <time>2017-06-18T08:03:13Z</time>
      </trkpt>
      <trkpt lat="48.61754" lon="-2.13141">
        <ele>14</ele>
        <time>2017-06-18T08:03:14Z</time>
      </trkpt>
      <trkpt lat="48.61738" lon="-2.13116">
        <ele>18</ele>
        <time>2017-06-18T08:03:18Z</time>
      </trkpt>
      <trkpt lat="48.61725" lon="-2.13095">
        <ele>20</ele>
        <time>2017-06-18T08:03:23Z</time>
      </trkpt>
      <trkpt lat="48.61715" lon="-2.1308">
        <ele>22</ele>
        <time>2017-06-18T08:03:29Z</time>
      </trkpt>
      <trkpt lat="48.61705" lon="-2.13064">
        <ele>20</ele>
        <time>2017-06-18T08:03:33Z</time>
      </trkpt>
      <trkpt lat="48.61685" lon="-2.13032">
        <ele>20</ele>
        <time>2017-06-18T08:03:39Z</time>
      </trkpt>
      <trkpt lat="48.61663" lon="-2.13">
        <ele>18</ele>
        <time>2017-06-18T08:03:43Z</time>
      </trkpt>
      <trkpt lat="48.61634" lon="-2.12943">
        <ele>12</ele>
        <time>2017-06-18T08:03:52Z</time>
      </trkpt>
      <trkpt lat="48.61629" lon="-2.12929">
        <ele>12</ele>
        <time>2017-06-18T08:03:55Z</time>
      </trkpt>
      <trkpt lat="48.61621" lon="-2.12909">
        <ele>12</ele>
        <time>2017-06-18T08:04:03Z</time>
      </trkpt>
      <trkpt lat="48.6162" lon="-2.12906">
        <ele>12</ele>
        <time>2017-06-18T08:04:04Z</time>
      </trkpt>
      <trkpt lat="48.61609" lon="-2.12864">
        <ele>11</ele>
        <time>2017-06-18T08:04:09Z</time>
      </trkpt>
      <trkpt lat="48.61594" lon="-2.12835">
        <ele>10</ele>
        <time>2017-06-18T08:04:13Z</time>
      </trkpt>
      <trkpt lat="48.61557" lon="-2.12813">
        <ele>7</ele>
        <time>2017-06-18T08:04:19Z</time>
      </trkpt>
      <trkpt lat="48.61506" lon="-2.12782">
        <ele>6</ele>
        <time>2017-06-18T08:04:27Z</time>
      </trkpt>
      <trkpt lat="48.61492" lon="-2.12769">
        <ele>7</ele>
        <time>2017-06-18T08:04:29Z</time>
      </trkpt>
      <trkpt lat="48.61449" lon="-2.1273">
        <ele>8</ele>
        <time>2017-06-18T08:04:35Z</time>
      </trkpt>
      <trkpt lat="48.61424" lon="-2.12692">
        <ele>8</ele>
        <time>2017-06-18T08:04:41Z</time>
      </trkpt>
      <trkpt lat="48.61419" lon="-2.12683">
        <ele>6</ele>
        <time>2017-06-18T08:04:44Z</time>
      </trkpt>
      <trkpt lat="48.61404" lon="-2.1266">
        <ele>7</ele>
        <time>2017-06-18T08:04:48Z</time>
      </trkpt>
      <trkpt lat="48.61388" lon="-2.12632">
        <ele>9</ele>
        <time>2017-06-18T08:04:54Z</time>
      </trkpt>
      <trkpt lat="48.61378" lon="-2.12617">
        <ele>9</ele>
        <time>2017-06-18T08:04:58Z</time>
      </trkpt>
      <trkpt lat="48.61362" lon="-2.12589">
        <ele>11</ele>
        <time>2017-06-18T08:05:07Z</time>
      </trkpt>
      <trkpt lat="48.61355" lon="-2.12578">
        <ele>10</ele>
        <time>2017-06-18T08:05:11Z</time>
      </trkpt>
      <trkpt lat="48.61348" lon="-2.12568">
        <ele>10</ele>
        <time>2017-06-18T08:05:13Z</time>
      </trkpt>
      <trkpt lat="48.61337" lon="-2.1255">
        <ele>11</ele>
        <time>2017-06-18T08:05:18Z</time>
      </trkpt>
      <trkpt lat="48.61322" lon="-2.12525">
        <ele>13</ele>
        <time>2017-06-18T08:05:26Z</time>
      </trkpt>
      <trkpt lat="48.61314" lon="-2.1251">
        <ele>13</ele>
        <time>2017-06-18T08:05:30Z</time>
      </trkpt>
      <trkpt lat="48.61308" lon="-2.12499">
        <ele>13</ele>
        <time>2017-06-18T08:05:33Z</time>
      </trkpt>
      <trkpt lat="48.61298" lon="-2.1248">
        <ele>17</ele>
        <time>2017-06-18T08:05:42Z</time>
      </trkpt>
      <trkpt lat="48.61296" lon="-2.12477">
        <ele>17</ele>
        <time>2017-06-18T08:05:43Z</time>
      </trkpt>
      <trkpt lat="48.6129" lon="-2.12467">
        <ele>18</ele>
        <time>2017-06-18T08:05:48Z</time>
      </trkpt>
      <trkpt lat="48.61284" lon="-2.12457">
        <ele>17</ele>
        <time>2017-06-18T08:05:53Z</time>
      </trkpt>
      <trkpt lat="48.61271" lon="-2.12436">
        <ele>19</ele>
        <time>2017-06-18T08:06:03Z</time>
      </trkpt>
      <trkpt lat="48.61266" lon="-2.12425">
        <ele>19</ele>
        <time>2017-06-18T08:06:06Z</time>
      </trkpt>
      <trkpt lat="48.61263" lon="-2.1242">
        <ele>20</ele>
        <time>2017-06-18T08:06:08Z</time>
      </trkpt>
      <trkpt lat="48.61256" lon="-2.12411">
        <ele>18</ele>
        <time>2017-06-18T08:06:14Z</time>
      </trkpt>
      <trkpt lat="48.61248" lon="-2.12401">
        <ele>20</ele>
        <time>2017-06-18T08:06:20Z</time>
      </trkpt>
      <trkpt lat="48.61242" lon="-2.12392">
        <ele>19</ele>
        <time>2017-06-18T08:06:23Z</time>
      </trkpt>
      <trkpt lat="48.61229" lon="-2.12369">
        <ele>20</ele>
        <time>2017-06-18T08:06:32Z</time>
      </trkpt>
      <trkpt lat="48.61226" lon="-2.12363">
        <ele>21</ele>
        <time>2017-06-18T08:06:34Z</time>
      </trkpt>
      <trkpt lat="48.61216" lon="-2.12339">
        <ele>26</ele>
        <time>2017-06-18T08:06:41Z</time>
      </trkpt>
      <trkpt lat="48.61212" lon="-2.12335">
        <ele>26</ele>
        <time>2017-06-18T08:06:43Z</time>
      </trkpt>
      <trkpt lat="48.61201" lon="-2.12322">
        <ele>29</ele>
        <time>2017-06-18T08:06:50Z</time>
      </trkpt>
      <trkpt lat="48.61194" lon="-2.1232">
        <ele>29</ele>
        <time>2017-06-18T08:06:53Z</time>
      </trkpt>
      <trkpt lat="48.61182" lon="-2.12321">
        <ele>29</ele>
        <time>2017-06-18T08:06:58Z</time>
      </trkpt>
      <trkpt lat="48.61169" lon="-2.12326">
        <ele>27</ele>
        <time>2017-06-18T08:07:04Z</time>
      </trkpt>
      <trkpt lat="48.61157" lon="-2.12331">
        <ele>27</ele>
        <time>2017-06-18T08:07:09Z</time>
      </trkpt>
      <trkpt lat="48.61133" lon="-2.12345">
        <ele>25</ele>
        <time>2017-06-18T08:07:18Z</time>
      </trkpt>
      <trkpt lat="48.61129" lon="-2.12347">
        <ele>25</ele>
        <time>2017-06-18T08:07:18Z</time>
      </trkpt>
      <trkpt lat="48.61105" lon="-2.1235">
        <ele>24</ele>
        <time>2017-06-18T08:07:23Z</time>
      </trkpt>
      <trkpt lat="48.61083" lon="-2.12324">
        <ele>24</ele>
        <time>2017-06-18T08:07:33Z</time>
      </trkpt>
      <trkpt lat="48.61076" lon="-2.12317">
        <ele>25</ele>
        <time>2017-06-18T08:07:34Z</time>
      </trkpt>
      <trkpt lat="48.61064" lon="-2.12306">
        <ele>25</ele>
        <time>2017-06-18T08:07:37Z</time>
      </trkpt>
      <trkpt lat="48.61034" lon="-2.12281">
        <ele>24</ele>
        <time>2017-06-18T08:07:43Z</time>
      </trkpt>
      <trkpt lat="48.61016" lon="-2.12259">
        <ele>24</ele>
        <time>2017-06-18T08:07:48Z</time>
      </trkpt>
      <trkpt lat="48.60997" lon="-2.12233">
        <ele>25</ele>
        <time>2017-06-18T08:07:53Z</time>
      </trkpt>
      <trkpt lat="48.60978" lon="-2.12208">
        <ele>27</ele>
        <time>2017-06-18T08:07:57Z</time>
      </trkpt>
      <trkpt lat="48.60955" lon="-2.12186">
        <ele>28</ele>
        <time>2017-06-18T08:08:02Z</time>
      </trkpt>
      <trkpt lat="48.60928" lon="-2.12163">
        <ele>29</ele>
        <time>2017-06-18T08:08:08Z</time>
      </trkpt>
      <trkpt lat="48.60901" lon="-2.12129">
        <ele>27</ele>
        <time>2017-06-18T08:08:12Z</time>
      </trkpt>
      <trkpt lat="48.60887" lon="-2.12078">
        <ele>26</ele>
        <time>2017-06-18T08:08:19Z</time>
      </trkpt>
      <trkpt lat="48.60875" lon="-2.12038">
        <ele>24</ele>
        <time>2017-06-18T08:08:24Z</time>
      </trkpt>
      <trkpt lat="48.60853" lon="-2.12024">
        <ele>22</ele>
        <time>2017-06-18T08:08:28Z</time>
      </trkpt>
      <trkpt lat="48.60825" lon="-2.12027">
        <ele>22</ele>
        <time>2017-06-18T08:08:32Z</time>
      </trkpt>
      <trkpt lat="48.60811" lon="-2.12006">
        <ele>22</ele>
        <time>2017-06-18T08:08:41Z</time>
      </trkpt>
      <trkpt lat="48.60812" lon="-2.12001">
        <ele>21</ele>
        <time>2017-06-18T08:08:43Z</time>
      </trkpt>
      <trkpt lat="48.60798" lon="-2.11964">
        <ele>24</ele>
        <time>2017-06-18T08:08:50Z</time>
      </trkpt>
      <trkpt lat="48.60793" lon="-2.11953">
        <ele>23</ele>
        <time>2017-06-18T08:08:52Z</time>
      </trkpt>
      <trkpt lat="48.60777" lon="-2.11915">
        <ele>24</ele>
        <time>2017-06-18T08:08:58Z</time>
      </trkpt>
      <trkpt lat="48.60767" lon="-2.11893">
        <ele>25</ele>
        <time>2017-06-18T08:09:02Z</time>
      </trkpt>
      <trkpt lat="48.60752" lon="-2.11867">
        <ele>27</ele>
        <time>2017-06-18T08:09:07Z</time>
      </trkpt>
      <trkpt lat="48.60736" lon="-2.11849">
        <ele>27</ele>
        <time>2017-06-18T08:09:12Z</time>
      </trkpt>
      <trkpt lat="48.60717" lon="-2.11836">
        <ele>29</ele>
        <time>2017-06-18T08:09:17Z</time>
      </trkpt>
      <trkpt lat="48.60697" lon="-2.11824">
        <ele>30</ele>
        <time>2017-06-18T08:09:22Z</time>
      </trkpt>
      <trkpt lat="48.6068" lon="-2.11813">
        <ele>31</ele>
        <time>2017-06-18T08:09:27Z</time>
      </trkpt>
      <trkpt lat="48.60667" lon="-2.11804">
        <ele>31</ele>
        <time>2017-06-18T08:09:33Z</time>
      </trkpt>
      <trkpt lat="48.60655" lon="-2.11794">
        <ele>32</ele>
        <time>2017-06-18T08:09:37Z</time>
      </trkpt>
      <trkpt lat="48.60643" lon="-2.11782">
        <ele>34</ele>
        <time>2017-06-18T08:09:43Z</time>
      </trkpt>
      <trkpt lat="48.60631" lon="-2.11769">
        <ele>34</ele>
        <time>2017-06-18T08:09:48Z</time>
      </trkpt>
      <trkpt lat="48.6062" lon="-2.11756">
        <ele>35</ele>
        <time>2017-06-18T08:09:52Z</time>
      </trkpt>
      <trkpt lat="48.60608" lon="-2.11742">
        <ele>35</ele>
        <time>2017-06-18T08:09:57Z</time>
      </trkpt>
      <trkpt lat="48.60593" lon="-2.11724">
        <ele>35</ele>
        <time>2017-06-18T08:10:04Z</time>
      </trkpt>
      <trkpt lat="48.60582" lon="-2.11708">
        <ele>35</ele>
        <time>2017-06-18T08:10:07Z</time>
      </trkpt>
      <trkpt lat="48.60563" lon="-2.11682">
        <ele>33</ele>
        <time>2017-06-18T08:10:12Z</time>
      </trkpt>
      <trkpt lat="48.60542" lon="-2.11647">
        <ele>33</ele>
        <time>2017-06-18T08:10:18Z</time>
      </trkpt>
      <trkpt lat="48.60517" lon="-2.11609">
        <ele>32</ele>
        <time>2017-06-18T08:10:23Z</time>
      </trkpt>
      <trkpt lat="48.60476" lon="-2.11547">
        <ele>30</ele>
        <time>2017-06-18T08:10:30Z</time>
      </trkpt>
      <trkpt lat="48.6045" lon="-2.11508">
        <ele>27</ele>
        <time>2017-06-18T08:10:34Z</time>
      </trkpt>
      <trkpt lat="48.6043" lon="-2.11471">
        <ele>27</ele>
        <time>2017-06-18T08:10:38Z</time>
      </trkpt>
      <trkpt lat="48.60412" lon="-2.11359">
        <ele>26</ele>
        <time>2017-06-18T08:10:46Z</time>
      </trkpt>
      <trkpt lat="48.60411" lon="-2.11349">
        <ele>27</ele>
        <time>2017-06-18T08:10:47Z</time>
      </trkpt>
      <trkpt lat="48.60396" lon="-2.11307">
        <ele>27</ele>
        <time>2017-06-18T08:10:52Z</time>
      </trkpt>
      <trkpt lat="48.60383" lon="-2.11272">
        <ele>24</ele>
        <time>2017-06-18T08:10:57Z</time>
      </trkpt>
      <trkpt lat="48.60362" lon="-2.11211">
        <ele>29</ele>
        <time>2017-06-18T08:11:05Z</time>
      </trkpt>
      <trkpt lat="48.60354" lon="-2.11187">
        <ele>27</ele>
        <time>2017-06-18T08:11:08Z</time>
      </trkpt>
      <trkpt lat="48.60347" lon="-2.11162">
        <ele>27</ele>
        <time>2017-06-18T08:11:14Z</time>
      </trkpt>
      <trkpt lat="48.60347" lon="-2.11145">
        <ele>28</ele>
        <time>2017-06-18T08:11:18Z</time>
      </trkpt>
      <trkpt lat="48.60344" lon="-2.11109">
        <ele>29</ele>
        <time>2017-06-18T08:11:24Z</time>
      </trkpt>
      <trkpt lat="48.60337" lon="-2.11091">
        <ele>28</ele>
        <time>2017-06-18T08:11:31Z</time>
      </trkpt>
      <trkpt lat="48.60332" lon="-2.11092">
        <ele>28</ele>
        <time>2017-06-18T08:11:33Z</time>
      </trkpt>
      <trkpt lat="48.60309" lon="-2.11104">
        <ele>30</ele>
        <time>2017-06-18T08:11:39Z</time>
      </trkpt>
      <trkpt lat="48.60292" lon="-2.11112">
        <ele>31</ele>
        <time>2017-06-18T08:11:42Z</time>
      </trkpt>
      <trkpt lat="48.6027" lon="-2.11124">
        <ele>32</ele>
        <time>2017-06-18T08:11:47Z</time>
      </trkpt>
      <trkpt lat="48.60246" lon="-2.11134">
        <ele>33</ele>
        <time>2017-06-18T08:11:52Z</time>
      </trkpt>
      <trkpt lat="48.60219" lon="-2.11144">
        <ele>32</ele>
        <time>2017-06-18T08:11:57Z</time>
      </trkpt>
      <trkpt lat="48.60184" lon="-2.11157">
        <ele>32</ele>
        <time>2017-06-18T08:12:04Z</time>
      </trkpt>
      <trkpt lat="48.60164" lon="-2.1116">
        <ele>35</ele>
        <time>2017-06-18T08:12:08Z</time>
      </trkpt>
      <trkpt lat="48.60132" lon="-2.11165">
        <ele>37</ele>
        <time>2017-06-18T08:12:14Z</time>
      </trkpt>
      <trkpt lat="48.60116" lon="-2.11166">
        <ele>37</ele>
        <time>2017-06-18T08:12:17Z</time>
      </trkpt>
      <trkpt lat="48.60071" lon="-2.11174">
        <ele>36</ele>
        <time>2017-06-18T08:12:26Z</time>
      </trkpt>
      <trkpt lat="48.6006" lon="-2.11176">
        <ele>36</ele>
        <time>2017-06-18T08:12:28Z</time>
      </trkpt>
      <trkpt lat="48.60035" lon="-2.11182">
        <ele>35</ele>
        <time>2017-06-18T08:12:32Z</time>
      </trkpt>
      <trkpt lat="48.60024" lon="-2.11152">
        <ele>37</ele>
        <time>2017-06-18T08:12:39Z</time>
      </trkpt>
      <trkpt lat="48.60024" lon="-2.11137">
        <ele>37</ele>
        <time>2017-06-18T08:12:42Z</time>
      </trkpt>
      <trkpt lat="48.60021" lon="-2.11107">
        <ele>37</ele>
        <time>2017-06-18T08:12:49Z</time>
      </trkpt>
      <trkpt lat="48.60021" lon="-2.11088">
        <ele>39</ele>
        <time>2017-06-18T08:12:52Z</time>
      </trkpt>
      <trkpt lat="48.60018" lon="-2.11055">
        <ele>40</ele>
        <time>2017-06-18T08:13:00Z</time>
      </trkpt>
      <trkpt lat="48.60018" lon="-2.1104">
        <ele>39</ele>
        <time>2017-06-18T08:13:03Z</time>
      </trkpt>
      <trkpt lat="48.6002" lon="-2.11024">
        <ele>40</ele>
        <time>2017-06-18T08:13:08Z</time>
      </trkpt>
      <trkpt lat="48.60021" lon="-2.11006">
        <ele>41</ele>
        <time>2017-06-18T08:13:13Z</time>
      </trkpt>
      <trkpt lat="48.60021" lon="-2.10979">
        <ele>43</ele>
        <time>2017-06-18T08:13:19Z</time>
      </trkpt>
      <trkpt lat="48.60022" lon="-2.1095">
        <ele>43</ele>
        <time>2017-06-18T08:13:27Z</time>
      </trkpt>
      <trkpt lat="48.60022" lon="-2.10945">
        <ele>43</ele>
        <time>2017-06-18T08:13:28Z</time>
      </trkpt>
      <trkpt lat="48.60023" lon="-2.10924">
        <ele>43</ele>
        <time>2017-06-18T08:13:33Z</time>
      </trkpt>
      <trkpt lat="48.60022" lon="-2.109">
        <ele>43</ele>
        <time>2017-06-18T08:13:39Z</time>
      </trkpt>
      <trkpt lat="48.60013" lon="-2.10873">
        <ele>43</ele>
        <time>2017-06-18T08:13:45Z</time>
      </trkpt>
      <trkpt lat="48.60009" lon="-2.10868">
        <ele>41</ele>
        <time>2017-06-18T08:13:47Z</time>
      </trkpt>
      <trkpt lat="48.59995" lon="-2.10857">
        <ele>44</ele>
        <time>2017-06-18T08:13:53Z</time>
      </trkpt>
      <trkpt lat="48.59971" lon="-2.10846">
        <ele>43</ele>
        <time>2017-06-18T08:13:59Z</time>
      </trkpt>
      <trkpt lat="48.59941" lon="-2.10825">
        <ele>42</ele>
        <time>2017-06-18T08:14:04Z</time>
      </trkpt>
      <trkpt lat="48.59923" lon="-2.10804">
        <ele>45</ele>
        <time>2017-06-18T08:14:08Z</time>
      </trkpt>
      <trkpt lat="48.59908" lon="-2.1079">
        <ele>44</ele>
        <time>2017-06-18T08:14:13Z</time>
      </trkpt>
      <trkpt lat="48.5987" lon="-2.10755">
        <ele>39</ele>
        <time>2017-06-18T08:14:21Z</time>
      </trkpt>
      <trkpt lat="48.59861" lon="-2.10745">
        <ele>39</ele>
        <time>2017-06-18T08:14:22Z</time>
      </trkpt>
      <trkpt lat="48.59841" lon="-2.10719">
        <ele>40</ele>
        <time>2017-06-18T08:14:28Z</time>
      </trkpt>
      <trkpt lat="48.59824" lon="-2.10694">
        <ele>40</ele>
        <time>2017-06-18T08:14:33Z</time>
      </trkpt>
      <trkpt lat="48.59808" lon="-2.10673">
        <ele>40</ele>
        <time>2017-06-18T08:14:37Z</time>
      </trkpt>
      <trkpt lat="48.59786" lon="-2.10646">
        <ele>43</ele>
        <time>2017-06-18T08:14:44Z</time>
      </trkpt>
      <trkpt lat="48.59771" lon="-2.10631">
        <ele>42</ele>
        <time>2017-06-18T08:14:47Z</time>
      </trkpt>
      <trkpt lat="48.59752" lon="-2.10615">
        <ele>42</ele>
        <time>2017-06-18T08:14:53Z</time>
      </trkpt>
      <trkpt lat="48.59734" lon="-2.10599">
        <ele>44</ele>
        <time>2017-06-18T08:14:58Z</time>
      </trkpt>
      <trkpt lat="48.59716" lon="-2.10586">
        <ele>44</ele>
        <time>2017-06-18T08:15:02Z</time>
      </trkpt>
      <trkpt lat="48.59699" lon="-2.10572">
        <ele>43</ele>
        <time>2017-06-18T08:15:08Z</time>
      </trkpt>
      <trkpt lat="48.59675" lon="-2.10552">
        <ele>43</ele>
        <time>2017-06-18T08:15:14Z</time>
      </trkpt>
      <trkpt lat="48.5966" lon="-2.10539">
        <ele>44</ele>
        <time>2017-06-18T08:15:18Z</time>
      </trkpt>
      <trkpt lat="48.59637" lon="-2.10519">
        <ele>44</ele>
        <time>2017-06-18T08:15:22Z</time>
      </trkpt>
      <trkpt lat="48.59613" lon="-2.105">
        <ele>44</ele>
        <time>2017-06-18T08:15:28Z</time>
      </trkpt>
      <trkpt lat="48.59586" lon="-2.10479">
        <ele>42</ele>
        <time>2017-06-18T08:15:32Z</time>
      </trkpt>
      <trkpt lat="48.59556" lon="-2.10452">
        <ele>41</ele>
        <time>2017-06-18T08:15:38Z</time>
      </trkpt>
      <trkpt lat="48.59533" lon="-2.1042">
        <ele>41</ele>
        <time>2017-06-18T08:15:43Z</time>
      </trkpt>
      <trkpt lat="48.59512" lon="-2.10385">
        <ele>41</ele>
        <time>2017-06-18T08:15:47Z</time>
      </trkpt>
      <trkpt lat="48.59494" lon="-2.10354">
        <ele>43</ele>
        <time>2017-06-18T08:15:52Z</time>
      </trkpt>
      <trkpt lat="48.59475" lon="-2.10326">
        <ele>43</ele>
        <time>2017-06-18T08:15:59Z</time>
      </trkpt>
      <trkpt lat="48.59461" lon="-2.1031">
        <ele>45</ele>
        <time>2017-06-18T08:16:03Z</time>
      </trkpt>
      <trkpt lat="48.59443" lon="-2.10291">
        <ele>46</ele>
        <time>2017-06-18T08:16:07Z</time>
      </trkpt>
      <trkpt lat="48.59424" lon="-2.10273">
        <ele>46</ele>
        <time>2017-06-18T08:16:13Z</time>
      </trkpt>
      <trkpt lat="48.59397" lon="-2.10253">
        <ele>48</ele>
        <time>2017-06-18T08:16:19Z</time>
      </trkpt>
      <trkpt lat="48.59379" lon="-2.10243">
        <ele>47</ele>
        <time>2017-06-18T08:16:26Z</time>
      </trkpt>
      <trkpt lat="48.59377" lon="-2.10242">
        <ele>49</ele>
        <time>2017-06-18T08:16:28Z</time>
      </trkpt>
      <trkpt lat="48.59379" lon="-2.10245">
        <ele>52</ele>
        <time>2017-06-18T08:16:33Z</time>
      </trkpt>
      <trkpt lat="48.59369" lon="-2.10242">
        <ele>54</ele>
        <time>2017-06-18T08:16:38Z</time>
      </trkpt>
      <trkpt lat="48.5935" lon="-2.1022">
        <ele>53</ele>
        <time>2017-06-18T08:16:45Z</time>
      </trkpt>
      <trkpt lat="48.5934" lon="-2.10211">
        <ele>53</ele>
        <time>2017-06-18T08:16:48Z</time>
      </trkpt>
      <trkpt lat="48.59323" lon="-2.10198">
        <ele>53</ele>
        <time>2017-06-18T08:16:53Z</time>
      </trkpt>
      <trkpt lat="48.59306" lon="-2.10185">
        <ele>54</ele>
        <time>2017-06-18T08:16:58Z</time>
      </trkpt>
      <trkpt lat="48.5929" lon="-2.10169">
        <ele>53</ele>
        <time>2017-06-18T08:17:02Z</time>
      </trkpt>
      <trkpt lat="48.59277" lon="-2.10149">
        <ele>52</ele>
        <time>2017-06-18T08:17:08Z</time>
      </trkpt>
      <trkpt lat="48.5927" lon="-2.10124">
        <ele>53</ele>
        <time>2017-06-18T08:17:12Z</time>
      </trkpt>
      <trkpt lat="48.59265" lon="-2.101">
        <ele>53</ele>
        <time>2017-06-18T08:17:17Z</time>
      </trkpt>
      <trkpt lat="48.59263" lon="-2.10076">
        <ele>53</ele>
        <time>2017-06-18T08:17:22Z</time>
      </trkpt>
      <trkpt lat="48.59262" lon="-2.10052">
        <ele>54</ele>
        <time>2017-06-18T08:17:28Z</time>
      </trkpt>
      <trkpt lat="48.59259" lon="-2.10028">
        <ele>54</ele>
        <time>2017-06-18T08:17:32Z</time>
      </trkpt>
      <trkpt lat="48.59254" lon="-2.10004">
        <ele>55</ele>
        <time>2017-06-18T08:17:38Z</time>
      </trkpt>
      <trkpt lat="48.59244" lon="-2.09987">
        <ele>55</ele>
        <time>2017-06-18T08:17:43Z</time>
      </trkpt>
      <trkpt lat="48.59225" lon="-2.09977">
        <ele>55</ele>
        <time>2017-06-18T08:17:49Z</time>
      </trkpt>
      <trkpt lat="48.5921" lon="-2.09971">
        <ele>56</ele>
        <time>2017-06-18T08:17:53Z</time>
      </trkpt>
      <trkpt lat="48.5919" lon="-2.0996">
        <ele>57</ele>
        <time>2017-06-18T08:17:58Z</time>
      </trkpt>
      <trkpt lat="48.59157" lon="-2.09945">
        <ele>57</ele>
        <time>2017-06-18T08:18:04Z</time>
      </trkpt>
      <trkpt lat="48.59143" lon="-2.09938">
        <ele>57</ele>
        <time>2017-06-18T08:18:07Z</time>
      </trkpt>
      <trkpt lat="48.59119" lon="-2.09924">
        <ele>56</ele>
        <time>2017-06-18T08:18:12Z</time>
      </trkpt>
      <trkpt lat="48.59095" lon="-2.09912">
        <ele>55</ele>
        <time>2017-06-18T08:18:18Z</time>
      </trkpt>
      <trkpt lat="48.59069" lon="-2.09898">
        <ele>55</ele>
        <time>2017-06-18T08:18:23Z</time>
      </trkpt>
      <trkpt lat="48.59042" lon="-2.09889">
        <ele>55</ele>
        <time>2017-06-18T08:18:28Z</time>
      </trkpt>
      <trkpt lat="48.59017" lon="-2.09886">
        <ele>54</ele>
        <time>2017-06-18T08:18:32Z</time>
      </trkpt>
      <trkpt lat="48.58993" lon="-2.09887">
        <ele>55</ele>
        <time>2017-06-18T08:18:37Z</time>
      </trkpt>
      <trkpt lat="48.58964" lon="-2.09886">
        <ele>56</ele>
        <time>2017-06-18T08:18:43Z</time>
      </trkpt>
      <trkpt lat="48.58932" lon="-2.09889">
        <ele>56</ele>
        <time>2017-06-18T08:18:48Z</time>
      </trkpt>
      <trkpt lat="48.58899" lon="-2.09895">
        <ele>55</ele>
        <time>2017-06-18T08:18:53Z</time>
      </trkpt>
      <trkpt lat="48.58865" lon="-2.09912">
        <ele>53</ele>
        <time>2017-06-18T08:18:58Z</time>
      </trkpt>
      <trkpt lat="48.58824" lon="-2.09941">
        <ele>54</ele>
        <time>2017-06-18T08:19:03Z</time>
      </trkpt>
      <trkpt lat="48.58791" lon="-2.09958">
        <ele>52</ele>
        <time>2017-06-18T08:19:08Z</time>
      </trkpt>
      <trkpt lat="48.58755" lon="-2.09982">
        <ele>51</ele>
        <time>2017-06-18T08:19:12Z</time>
      </trkpt>
      <trkpt lat="48.58721" lon="-2.10005">
        <ele>51</ele>
        <time>2017-06-18T08:19:17Z</time>
      </trkpt>
      <trkpt lat="48.58696" lon="-2.10022">
        <ele>51</ele>
        <time>2017-06-18T08:19:23Z</time>
      </trkpt>
      <trkpt lat="48.58684" lon="-2.10014">
        <ele>49</ele>
        <time>2017-06-18T08:19:27Z</time>
      </trkpt>
      <trkpt lat="48.58682" lon="-2.09991">
        <ele>49</ele>
        <time>2017-06-18T08:19:33Z</time>
      </trkpt>
      <trkpt lat="48.58679" lon="-2.09963">
        <ele>48</ele>
        <time>2017-06-18T08:19:38Z</time>
      </trkpt>
      <trkpt lat="48.58675" lon="-2.09925">
        <ele>46</ele>
        <time>2017-06-18T08:19:43Z</time>
      </trkpt>
      <trkpt lat="48.58671" lon="-2.09885">
        <ele>45</ele>
        <time>2017-06-18T08:19:48Z</time>
      </trkpt>
      <trkpt lat="48.58665" lon="-2.09824">
        <ele>44</ele>
        <time>2017-06-18T08:19:54Z</time>
      </trkpt>
      <trkpt lat="48.58661" lon="-2.09801">
        <ele>43</ele>
        <time>2017-06-18T08:19:57Z</time>
      </trkpt>
      <trkpt lat="48.58658" lon="-2.09772">
        <ele>46</ele>
        <time>2017-06-18T08:20:03Z</time>
      </trkpt>
      <trkpt lat="48.58656" lon="-2.09747">
        <ele>46</ele>
        <time>2017-06-18T08:20:08Z</time>
      </trkpt>
      <trkpt lat="48.58653" lon="-2.09724">
        <ele>47</ele>
        <time>2017-06-18T08:20:13Z</time>
      </trkpt>
      <trkpt lat="48.58651" lon="-2.09702">
        <ele>47</ele>
        <time>2017-06-18T08:20:18Z</time>
      </trkpt>
      <trkpt lat="48.5865" lon="-2.09681">
        <ele>49</ele>
        <time>2017-06-18T08:20:22Z</time>
      </trkpt>
      <trkpt lat="48.58647" lon="-2.0966">
        <ele>49</ele>
        <time>2017-06-18T08:20:28Z</time>
      </trkpt>
      <trkpt lat="48.58645" lon="-2.0964">
        <ele>50</ele>
        <time>2017-06-18T08:20:33Z</time>
      </trkpt>
      <trkpt lat="48.58642" lon="-2.09616">
        <ele>51</ele>
        <time>2017-06-18T08:20:39Z</time>
      </trkpt>
      <trkpt lat="48.58641" lon="-2.096">
        <ele>51</ele>
        <time>2017-06-18T08:20:42Z</time>
      </trkpt>
      <trkpt lat="48.58639" lon="-2.09578">
        <ele>51</ele>
        <time>2017-06-18T08:20:47Z</time>
      </trkpt>
      <trkpt lat="48.58636" lon="-2.09556">
        <ele>50</ele>
        <time>2017-06-18T08:20:52Z</time>
      </trkpt>
      <trkpt lat="48.58634" lon="-2.09531">
        <ele>51</ele>
        <time>2017-06-18T08:20:57Z</time>
      </trkpt>
      <trkpt lat="48.58632" lon="-2.09507">
        <ele>52</ele>
        <time>2017-06-18T08:21:02Z</time>
      </trkpt>
      <trkpt lat="48.58629" lon="-2.09483">
        <ele>53</ele>
        <time>2017-06-18T08:21:07Z</time>
      </trkpt>
      <trkpt lat="48.58626" lon="-2.09461">
        <ele>53</ele>
        <time>2017-06-18T08:21:12Z</time>
      </trkpt>
      <trkpt lat="48.58624" lon="-2.0944">
        <ele>54</ele>
        <time>2017-06-18T08:21:18Z</time>
      </trkpt>
      <trkpt lat="48.58621" lon="-2.09416">
        <ele>54</ele>
        <time>2017-06-18T08:21:23Z</time>
      </trkpt>
      <trkpt lat="48.58618" lon="-2.09391">
        <ele>54</ele>
        <time>2017-06-18T08:21:27Z</time>
      </trkpt>
      <trkpt lat="48.58614" lon="-2.09363">
        <ele>55</ele>
        <time>2017-06-18T08:21:32Z</time>
      </trkpt>
      <trkpt lat="48.5861" lon="-2.09335">
        <ele>56</ele>
        <time>2017-06-18T08:21:37Z</time>
      </trkpt>
      <trkpt lat="48.58605" lon="-2.09311">
        <ele>57</ele>
        <time>2017-06-18T08:21:42Z</time>
      </trkpt>
      <trkpt lat="48.58598" lon="-2.09279">
        <ele>56</ele>
        <time>2017-06-18T08:21:48Z</time>
      </trkpt>
      <trkpt lat="48.58594" lon="-2.09258">
        <ele>56</ele>
        <time>2017-06-18T08:21:53Z</time>
      </trkpt>
      <trkpt lat="48.58586" lon="-2.09229">
        <ele>57</ele>
        <time>2017-06-18T08:21:58Z</time>
      </trkpt>
      <trkpt lat="48.58579" lon="-2.09197">
        <ele>56</ele>
        <time>2017-06-18T08:22:03Z</time>
      </trkpt>
      <trkpt lat="48.58571" lon="-2.09162">
        <ele>56</ele>
        <time>2017-06-18T08:22:08Z</time>
      </trkpt>
      <trkpt lat="48.58562" lon="-2.09125">
        <ele>57</ele>
        <time>2017-06-18T08:22:13Z</time>
      </trkpt>
      <trkpt lat="48.58555" lon="-2.09087">
        <ele>58</ele>
        <time>2017-06-18T08:22:17Z</time>
      </trkpt>
      <trkpt lat="48.58547" lon="-2.09051">
        <ele>56</ele>
        <time>2017-06-18T08:22:22Z</time>
      </trkpt>
      <trkpt lat="48.58535" lon="-2.08999">
        <ele>58</ele>
        <time>2017-06-18T08:22:31Z</time>
      </trkpt>
      <trkpt lat="48.58533" lon="-2.08989">
        <ele>59</ele>
        <time>2017-06-18T08:22:32Z</time>
      </trkpt>
      <trkpt lat="48.5853" lon="-2.08965">
        <ele>61</ele>
        <time>2017-06-18T08:22:37Z</time>
      </trkpt>
      <trkpt lat="48.58526" lon="-2.08944">
        <ele>62</ele>
        <time>2017-06-18T08:22:42Z</time>
      </trkpt>
      <trkpt lat="48.58524" lon="-2.08923">
        <ele>62</ele>
        <time>2017-06-18T08:22:47Z</time>
      </trkpt>
      <trkpt lat="48.58523" lon="-2.08902">
        <ele>63</ele>
        <time>2017-06-18T08:22:53Z</time>
      </trkpt>
      <trkpt lat="48.58521" lon="-2.0888">
        <ele>63</ele>
        <time>2017-06-18T08:22:58Z</time>
      </trkpt>
      <trkpt lat="48.58519" lon="-2.08855">
        <ele>63</ele>
        <time>2017-06-18T08:23:03Z</time>
      </trkpt>
      <trkpt lat="48.58518" lon="-2.08828">
        <ele>63</ele>
        <time>2017-06-18T08:23:07Z</time>
      </trkpt>
      <trkpt lat="48.58516" lon="-2.08802">
        <ele>63</ele>
        <time>2017-06-18T08:23:13Z</time>
      </trkpt>
      <trkpt lat="48.58513" lon="-2.08777">
        <ele>63</ele>
        <time>2017-06-18T08:23:17Z</time>
      </trkpt>
      <trkpt lat="48.5851" lon="-2.08751">
        <ele>64</ele>
        <time>2017-06-18T08:23:23Z</time>
      </trkpt>
      <trkpt lat="48.58504" lon="-2.08725">
        <ele>64</ele>
        <time>2017-06-18T08:23:28Z</time>
      </trkpt>
      <trkpt lat="48.58496" lon="-2.08701">
        <ele>65</ele>
        <time>2017-06-18T08:23:32Z</time>
      </trkpt>
      <trkpt lat="48.58486" lon="-2.08679">
        <ele>67</ele>
        <time>2017-06-18T08:23:37Z</time>
      </trkpt>
      <trkpt lat="48.58475" lon="-2.08657">
        <ele>67</ele>
        <time>2017-06-18T08:23:43Z</time>
      </trkpt>
      <trkpt lat="48.58462" lon="-2.08635">
        <ele>68</ele>
        <time>2017-06-18T08:23:48Z</time>
      </trkpt>
      <trkpt lat="48.58447" lon="-2.08616">
        <ele>69</ele>
        <time>2017-06-18T08:23:52Z</time>
      </trkpt>
      <trkpt lat="48.58431" lon="-2.08599">
        <ele>69</ele>
        <time>2017-06-18T08:23:57Z</time>
      </trkpt>
      <trkpt lat="48.58414" lon="-2.08585">
        <ele>68</ele>
        <time>2017-06-18T08:24:02Z</time>
      </trkpt>
      <trkpt lat="48.58394" lon="-2.08574">
        <ele>69</ele>
        <time>2017-06-18T08:24:08Z</time>
      </trkpt>
      <trkpt lat="48.58371" lon="-2.08567">
        <ele>69</ele>
        <time>2017-06-18T08:24:13Z</time>
      </trkpt>
      <trkpt lat="48.58343" lon="-2.08564">
        <ele>69</ele>
        <time>2017-06-18T08:24:19Z</time>
      </trkpt>
      <trkpt lat="48.58325" lon="-2.08565">
        <ele>68</ele>
        <time>2017-06-18T08:24:22Z</time>
      </trkpt>
      <trkpt lat="48.583" lon="-2.08569">
        <ele>67</ele>
        <time>2017-06-18T08:24:28Z</time>
      </trkpt>
      <trkpt lat="48.58273" lon="-2.08572">
        <ele>67</ele>
        <time>2017-06-18T08:24:32Z</time>
      </trkpt>
      <trkpt lat="48.58244" lon="-2.08576">
        <ele>66</ele>
        <time>2017-06-18T08:24:37Z</time>
      </trkpt>
      <trkpt lat="48.58203" lon="-2.08584">
        <ele>64</ele>
        <time>2017-06-18T08:24:44Z</time>
      </trkpt>
      <trkpt lat="48.58185" lon="-2.08587">
        <ele>64</ele>
        <time>2017-06-18T08:24:47Z</time>
      </trkpt>
      <trkpt lat="48.58154" lon="-2.08588">
        <ele>63</ele>
        <time>2017-06-18T08:24:52Z</time>
      </trkpt>
      <trkpt lat="48.58123" lon="-2.08596">
        <ele>61</ele>
        <time>2017-06-18T08:24:57Z</time>
      </trkpt>
      <trkpt lat="48.58091" lon="-2.08591">
        <ele>65</ele>
        <time>2017-06-18T08:25:02Z</time>
      </trkpt>
      <trkpt lat="48.58029" lon="-2.08597">
        <ele>66</ele>
        <time>2017-06-18T08:25:12Z</time>
      </trkpt>
      <trkpt lat="48.58001" lon="-2.08599">
        <ele>65</ele>
        <time>2017-06-18T08:25:15Z</time>
      </trkpt>
      <trkpt lat="48.57988" lon="-2.086">
        <ele>65</ele>
        <time>2017-06-18T08:25:18Z</time>
      </trkpt>
      <trkpt lat="48.57955" lon="-2.08601">
        <ele>66</ele>
        <time>2017-06-18T08:25:23Z</time>
      </trkpt>
      <trkpt lat="48.57926" lon="-2.08592">
        <ele>66</ele>
        <time>2017-06-18T08:25:28Z</time>
      </trkpt>
      <trkpt lat="48.57892" lon="-2.08573">
        <ele>66</ele>
        <time>2017-06-18T08:25:33Z</time>
      </trkpt>
      <trkpt lat="48.57869" lon="-2.08557">
        <ele>66</ele>
        <time>2017-06-18T08:25:38Z</time>
      </trkpt>
      <trkpt lat="48.57844" lon="-2.08535">
        <ele>65</ele>
        <time>2017-06-18T08:25:43Z</time>
      </trkpt>
      <trkpt lat="48.57821" lon="-2.0851">
        <ele>65</ele>
        <time>2017-06-18T08:25:47Z</time>
      </trkpt>
      <trkpt lat="48.57797" lon="-2.08479">
        <ele>63</ele>
        <time>2017-06-18T08:25:53Z</time>
      </trkpt>
      <trkpt lat="48.57775" lon="-2.08442">
        <ele>62</ele>
        <time>2017-06-18T08:25:58Z</time>
      </trkpt>
      <trkpt lat="48.57755" lon="-2.08398">
        <ele>62</ele>
        <time>2017-06-18T08:26:03Z</time>
      </trkpt>
      <trkpt lat="48.5774" lon="-2.08349">
        <ele>61</ele>
        <time>2017-06-18T08:26:08Z</time>
      </trkpt>
      <trkpt lat="48.57724" lon="-2.08297">
        <ele>60</ele>
        <time>2017-06-18T08:26:13Z</time>
      </trkpt>
      <trkpt lat="48.57705" lon="-2.08234">
        <ele>59</ele>
        <time>2017-06-18T08:26:19Z</time>
      </trkpt>
      <trkpt lat="48.57689" lon="-2.0818">
        <ele>57</ele>
        <time>2017-06-18T08:26:23Z</time>
      </trkpt>
      <trkpt lat="48.57675" lon="-2.08136">
        <ele>56</ele>
        <time>2017-06-18T08:26:28Z</time>
      </trkpt>
      <trkpt lat="48.5766" lon="-2.08082">
        <ele>54</ele>
        <time>2017-06-18T08:26:32Z</time>
      </trkpt>
      <trkpt lat="48.57641" lon="-2.08023">
        <ele>54</ele>
        <time>2017-06-18T08:26:38Z</time>
      </trkpt>
      <trkpt lat="48.57629" lon="-2.07983">
        <ele>55</ele>
        <time>2017-06-18T08:26:44Z</time>
      </trkpt>
      <trkpt lat="48.57619" lon="-2.07946">
        <ele>55</ele>
        <time>2017-06-18T08:26:50Z</time>
      </trkpt>
      <trkpt lat="48.57614" lon="-2.0793">
        <ele>55</ele>
        <time>2017-06-18T08:26:54Z</time>
      </trkpt>
      <trkpt lat="48.57601" lon="-2.07887">
        <ele>56</ele>
        <time>2017-06-18T08:27:01Z</time>
      </trkpt>
      <trkpt lat="48.57599" lon="-2.07882">
        <ele>58</ele>
        <time>2017-06-18T08:27:02Z</time>
      </trkpt>
      <trkpt lat="48.57592" lon="-2.07853">
        <ele>61</ele>
        <time>2017-06-18T08:27:08Z</time>
      </trkpt>
      <trkpt lat="48.57586" lon="-2.0783">
        <ele>62</ele>
        <time>2017-06-18T08:27:13Z</time>
      </trkpt>
      <trkpt lat="48.57579" lon="-2.07809">
        <ele>63</ele>
        <time>2017-06-18T08:27:18Z</time>
      </trkpt>
      <trkpt lat="48.57573" lon="-2.07789">
        <ele>64</ele>
        <time>2017-06-18T08:27:23Z</time>
      </trkpt>
      <trkpt lat="48.57569" lon="-2.07773">
        <ele>65</ele>
        <time>2017-06-18T08:27:28Z</time>
      </trkpt>
      <trkpt lat="48.57577" lon="-2.07768">
        <ele>65</ele>
        <time>2017-06-18T08:27:32Z</time>
      </trkpt>
    </trkseg>
  </trk>
  <trk>
    <name><![CDATA[Sequence 2]]></name>
    <trkseg>
      <trkpt lat="48.57539" lon="-2.07579">
        <ele>62</ele>
        <time>2017-06-18T08:29:12Z</time>
      </trkpt>
      <trkpt lat="48.57544" lon="-2.07526">
        <ele>60</ele>
        <time>2017-06-18T08:29:18Z</time>
      </trkpt>
      <trkpt lat="48.57548" lon="-2.07506">
        <ele>60</ele>
        <time>2017-06-18T08:29:22Z</time>
      </trkpt>
      <trkpt lat="48.57555" lon="-2.07467">
        <ele>61</ele>
        <time>2017-06-18T08:29:26Z</time>
      </trkpt>
      <trkpt lat="48.57565" lon="-2.07426">
        <ele>61</ele>
        <time>2017-06-18T08:29:31Z</time>
      </trkpt>
      <trkpt lat="48.57577" lon="-2.07381">
        <ele>60</ele>
        <time>2017-06-18T08:29:37Z</time>
      </trkpt>
      <trkpt lat="48.57595" lon="-2.07317">
        <ele>59</ele>
        <time>2017-06-18T08:29:44Z</time>
      </trkpt>
      <trkpt lat="48.57599" lon="-2.07304">
        <ele>60</ele>
        <time>2017-06-18T08:29:46Z</time>
      </trkpt>
      <trkpt lat="48.57608" lon="-2.07276">
        <ele>61</ele>
        <time>2017-06-18T08:29:51Z</time>
      </trkpt>
      <trkpt lat="48.57618" lon="-2.0725">
        <ele>63</ele>
        <time>2017-06-18T08:29:57Z</time>
      </trkpt>
      <trkpt lat="48.57625" lon="-2.07225">
        <ele>64</ele>
        <time>2017-06-18T08:30:02Z</time>
      </trkpt>
      <trkpt lat="48.57633" lon="-2.07195">
        <ele>65</ele>
        <time>2017-06-18T08:30:08Z</time>
      </trkpt>
      <trkpt lat="48.57639" lon="-2.07168">
        <ele>66</ele>
        <time>2017-06-18T08:30:12Z</time>
      </trkpt>
      <trkpt lat="48.57646" lon="-2.07146">
        <ele>67</ele>
        <time>2017-06-18T08:30:17Z</time>
      </trkpt>
      <trkpt lat="48.57654" lon="-2.07119">
        <ele>69</ele>
        <time>2017-06-18T08:30:21Z</time>
      </trkpt>
      <trkpt lat="48.57661" lon="-2.07095">
        <ele>70</ele>
        <time>2017-06-18T08:30:26Z</time>
      </trkpt>
      <trkpt lat="48.5767" lon="-2.07073">
        <ele>71</ele>
        <time>2017-06-18T08:30:32Z</time>
      </trkpt>
      <trkpt lat="48.57679" lon="-2.07049">
        <ele>70</ele>
        <time>2017-06-18T08:30:36Z</time>
      </trkpt>
      <trkpt lat="48.5769" lon="-2.07025">
        <ele>71</ele>
        <time>2017-06-18T08:30:42Z</time>
      </trkpt>
      <trkpt lat="48.57703" lon="-2.07002">
        <ele>71</ele>
        <time>2017-06-18T08:30:47Z</time>
      </trkpt>
      <trkpt lat="48.57717" lon="-2.0698">
        <ele>70</ele>
        <time>2017-06-18T08:30:52Z</time>
      </trkpt>
      <trkpt lat="48.57733" lon="-2.06959">
        <ele>70</ele>
        <time>2017-06-18T08:30:57Z</time>
      </trkpt>
      <trkpt lat="48.57749" lon="-2.06939">
        <ele>70</ele>
        <time>2017-06-18T08:31:02Z</time>
      </trkpt>
      <trkpt lat="48.57766" lon="-2.06918">
        <ele>70</ele>
        <time>2017-06-18T08:31:06Z</time>
      </trkpt>
      <trkpt lat="48.57783" lon="-2.06898">
        <ele>70</ele>
        <time>2017-06-18T08:31:12Z</time>
      </trkpt>
      <trkpt lat="48.57802" lon="-2.06877">
        <ele>70</ele>
        <time>2017-06-18T08:31:16Z</time>
      </trkpt>
      <trkpt lat="48.57819" lon="-2.06855">
        <ele>69</ele>
        <time>2017-06-18T08:31:22Z</time>
      </trkpt>
      <trkpt lat="48.57841" lon="-2.06828">
        <ele>69</ele>
        <time>2017-06-18T08:31:28Z</time>
      </trkpt>
      <trkpt lat="48.57853" lon="-2.06809">
        <ele>67</ele>
        <time>2017-06-18T08:31:31Z</time>
      </trkpt>
      <trkpt lat="48.5787" lon="-2.06766">
        <ele>68</ele>
        <time>2017-06-18T08:31:39Z</time>
      </trkpt>
      <trkpt lat="48.57876" lon="-2.06753">
        <ele>70</ele>
        <time>2017-06-18T08:31:41Z</time>
      </trkpt>
      <trkpt lat="48.57893" lon="-2.06704">
        <ele>70</ele>
        <time>2017-06-18T08:31:49Z</time>
      </trkpt>
      <trkpt lat="48.57898" lon="-2.06687">
        <ele>72</ele>
        <time>2017-06-18T08:31:52Z</time>
      </trkpt>
      <trkpt lat="48.57904" lon="-2.06661">
        <ele>71</ele>
        <time>2017-06-18T08:31:56Z</time>
      </trkpt>
      <trkpt lat="48.57913" lon="-2.06628">
        <ele>72</ele>
        <time>2017-06-18T08:32:02Z</time>
      </trkpt>
      <trkpt lat="48.57921" lon="-2.06595">
        <ele>74</ele>
        <time>2017-06-18T08:32:06Z</time>
      </trkpt>
      <trkpt lat="48.57927" lon="-2.06562">
        <ele>74</ele>
        <time>2017-06-18T08:32:11Z</time>
      </trkpt>
      <trkpt lat="48.57934" lon="-2.0652">
        <ele>74</ele>
        <time>2017-06-18T08:32:17Z</time>
      </trkpt>
      <trkpt lat="48.57936" lon="-2.06494">
        <ele>73</ele>
        <time>2017-06-18T08:32:22Z</time>
      </trkpt>
      <trkpt lat="48.57943" lon="-2.0646">
        <ele>74</ele>
        <time>2017-06-18T08:32:27Z</time>
      </trkpt>
      <trkpt lat="48.57946" lon="-2.06424">
        <ele>74</ele>
        <time>2017-06-18T08:32:32Z</time>
      </trkpt>
      <trkpt lat="48.57942" lon="-2.06386">
        <ele>74</ele>
        <time>2017-06-18T08:32:36Z</time>
      </trkpt>
      <trkpt lat="48.57934" lon="-2.0636">
        <ele>73</ele>
        <time>2017-06-18T08:32:41Z</time>
      </trkpt>
      <trkpt lat="48.5792" lon="-2.06335">
        <ele>72</ele>
        <time>2017-06-18T08:32:48Z</time>
      </trkpt>
      <trkpt lat="48.57905" lon="-2.06329">
        <ele>73</ele>
        <time>2017-06-18T08:32:52Z</time>
      </trkpt>
      <trkpt lat="48.57888" lon="-2.0632">
        <ele>73</ele>
        <time>2017-06-18T08:32:56Z</time>
      </trkpt>
      <trkpt lat="48.57855" lon="-2.06303">
        <ele>73</ele>
        <time>2017-06-18T08:33:04Z</time>
      </trkpt>
      <trkpt lat="48.57848" lon="-2.06299">
        <ele>72</ele>
        <time>2017-06-18T08:33:06Z</time>
      </trkpt>
      <trkpt lat="48.57827" lon="-2.06286">
        <ele>69</ele>
        <time>2017-06-18T08:33:12Z</time>
      </trkpt>
      <trkpt lat="48.57792" lon="-2.06268">
        <ele>65</ele>
        <time>2017-06-18T08:33:21Z</time>
      </trkpt>
      <trkpt lat="48.57788" lon="-2.06266">
        <ele>64</ele>
        <time>2017-06-18T08:33:21Z</time>
      </trkpt>
      <trkpt lat="48.57763" lon="-2.06252">
        <ele>66</ele>
        <time>2017-06-18T08:33:27Z</time>
      </trkpt>
      <trkpt lat="48.57733" lon="-2.06236">
        <ele>71</ele>
        <time>2017-06-18T08:33:33Z</time>
      </trkpt>
      <trkpt lat="48.57719" lon="-2.06228">
        <ele>73</ele>
        <time>2017-06-18T08:33:36Z</time>
      </trkpt>
      <trkpt lat="48.57681" lon="-2.06204">
        <ele>74</ele>
        <time>2017-06-18T08:33:45Z</time>
      </trkpt>
      <trkpt lat="48.5767" lon="-2.06199">
        <ele>74</ele>
        <time>2017-06-18T08:33:49Z</time>
      </trkpt>
      <trkpt lat="48.57658" lon="-2.06193">
        <ele>75</ele>
        <time>2017-06-18T08:33:52Z</time>
      </trkpt>
      <trkpt lat="48.5764" lon="-2.06182">
        <ele>74</ele>
        <time>2017-06-18T08:33:57Z</time>
      </trkpt>
      <trkpt lat="48.57607" lon="-2.06166">
        <ele>78</ele>
        <time>2017-06-18T08:34:05Z</time>
      </trkpt>
      <trkpt lat="48.57603" lon="-2.06164">
        <ele>78</ele>
        <time>2017-06-18T08:34:06Z</time>
      </trkpt>
      <trkpt lat="48.57583" lon="-2.06152">
        <ele>78</ele>
        <time>2017-06-18T08:34:11Z</time>
      </trkpt>
      <trkpt lat="48.57569" lon="-2.06144">
        <ele>78</ele>
        <time>2017-06-18T08:34:17Z</time>
      </trkpt>
      <trkpt lat="48.57566" lon="-2.06136">
        <ele>77</ele>
        <time>2017-06-18T08:34:22Z</time>
      </trkpt>
      <trkpt lat="48.57567" lon="-2.06122">
        <ele>76</ele>
        <time>2017-06-18T08:34:27Z</time>
      </trkpt>
      <trkpt lat="48.57576" lon="-2.06092">
        <ele>73</ele>
        <time>2017-06-18T08:34:31Z</time>
      </trkpt>
      <trkpt lat="48.57588" lon="-2.0605">
        <ele>71</ele>
        <time>2017-06-18T08:34:37Z</time>
      </trkpt>
      <trkpt lat="48.57597" lon="-2.06021">
        <ele>70</ele>
        <time>2017-06-18T08:34:41Z</time>
      </trkpt>
      <trkpt lat="48.57611" lon="-2.05978">
        <ele>72</ele>
        <time>2017-06-18T08:34:48Z</time>
      </trkpt>
      <trkpt lat="48.57626" lon="-2.05933">
        <ele>75</ele>
        <time>2017-06-18T08:34:55Z</time>
      </trkpt>
      <trkpt lat="48.57627" lon="-2.05931">
        <ele>74</ele>
        <time>2017-06-18T08:34:56Z</time>
      </trkpt>
      <trkpt lat="48.57627" lon="-2.0593">
        <ele>77</ele>
        <time>2017-06-18T08:35:02Z</time>
      </trkpt>
      <trkpt lat="48.57628" lon="-2.05926">
        <ele>77</ele>
        <time>2017-06-18T08:35:05Z</time>
      </trkpt>
      <trkpt lat="48.57628" lon="-2.05919">
        <ele>77</ele>
        <time>2017-06-18T08:35:09Z</time>
      </trkpt>
      <trkpt lat="48.57629" lon="-2.05911">
        <ele>76</ele>
        <time>2017-06-18T08:35:14Z</time>
      </trkpt>
      <trkpt lat="48.57637" lon="-2.05902">
        <ele>74</ele>
        <time>2017-06-18T08:35:19Z</time>
      </trkpt>
      <trkpt lat="48.57637" lon="-2.05864">
        <ele>74</ele>
        <time>2017-06-18T08:35:27Z</time>
      </trkpt>
      <trkpt lat="48.57627" lon="-2.05848">
        <ele>75</ele>
        <time>2017-06-18T08:35:30Z</time>
      </trkpt>
      <trkpt lat="48.57615" lon="-2.05829">
        <ele>74</ele>
        <time>2017-06-18T08:35:34Z</time>
      </trkpt>
      <trkpt lat="48.57598" lon="-2.058">
        <ele>73</ele>
        <time>2017-06-18T08:35:39Z</time>
      </trkpt>
      <trkpt lat="48.57585" lon="-2.05767">
        <ele>73</ele>
        <time>2017-06-18T08:35:45Z</time>
      </trkpt>
      <trkpt lat="48.57567" lon="-2.0571">
        <ele>71</ele>
        <time>2017-06-18T08:35:53Z</time>
      </trkpt>
      <trkpt lat="48.57565" lon="-2.05702">
        <ele>71</ele>
        <time>2017-06-18T08:35:54Z</time>
      </trkpt>
      <trkpt lat="48.57555" lon="-2.0567">
        <ele>72</ele>
        <time>2017-06-18T08:36:00Z</time>
      </trkpt>
      <trkpt lat="48.57545" lon="-2.05639">
        <ele>73</ele>
        <time>2017-06-18T08:36:04Z</time>
      </trkpt>
      <trkpt lat="48.57534" lon="-2.05609">
        <ele>73</ele>
        <time>2017-06-18T08:36:10Z</time>
      </trkpt>
      <trkpt lat="48.57524" lon="-2.05584">
        <ele>73</ele>
        <time>2017-06-18T08:36:15Z</time>
      </trkpt>
      <trkpt lat="48.57516" lon="-2.05552">
        <ele>74</ele>
        <time>2017-06-18T08:36:20Z</time>
      </trkpt>
      <trkpt lat="48.57505" lon="-2.05519">
        <ele>76</ele>
        <time>2017-06-18T08:36:24Z</time>
      </trkpt>
      <trkpt lat="48.57494" lon="-2.05489">
        <ele>75</ele>
        <time>2017-06-18T08:36:29Z</time>
      </trkpt>
      <trkpt lat="48.57487" lon="-2.05462">
        <ele>75</ele>
        <time>2017-06-18T08:36:34Z</time>
      </trkpt>
      <trkpt lat="48.57474" lon="-2.05405">
        <ele>74</ele>
        <time>2017-06-18T08:36:42Z</time>
      </trkpt>
      <trkpt lat="48.57472" lon="-2.05392">
        <ele>72</ele>
        <time>2017-06-18T08:36:44Z</time>
      </trkpt>
      <trkpt lat="48.57468" lon="-2.05351">
        <ele>74</ele>
        <time>2017-06-18T08:36:49Z</time>
      </trkpt>
      <trkpt lat="48.57466" lon="-2.05301">
        <ele>74</ele>
        <time>2017-06-18T08:36:55Z</time>
      </trkpt>
      <trkpt lat="48.5746" lon="-2.05242">
        <ele>74</ele>
        <time>2017-06-18T08:37:02Z</time>
      </trkpt>
      <trkpt lat="48.57458" lon="-2.05223">
        <ele>73</ele>
        <time>2017-06-18T08:37:04Z</time>
      </trkpt>
      <trkpt lat="48.57455" lon="-2.05177">
        <ele>73</ele>
        <time>2017-06-18T08:37:10Z</time>
      </trkpt>
      <trkpt lat="48.57451" lon="-2.05129">
        <ele>72</ele>
        <time>2017-06-18T08:37:15Z</time>
      </trkpt>
      <trkpt lat="48.57445" lon="-2.0508">
        <ele>73</ele>
        <time>2017-06-18T08:37:21Z</time>
      </trkpt>
      <trkpt lat="48.57441" lon="-2.05059">
        <ele>73</ele>
        <time>2017-06-18T08:37:24Z</time>
      </trkpt>
    </trkseg>
  </trk>
  <trk>
    <name><![CDATA[Sequence 3]]></name>
    <trkseg>
      <trkpt lat="48.57443" lon="-2.05053">
        <ele>71</ele>
        <time>2017-06-18T08:40:27Z</time>
      </trkpt>
      <trkpt lat="48.57443" lon="-2.05053">
        <ele>71</ele>
        <time>2017-06-18T08:40:30Z</time>
      </trkpt>
      <trkpt lat="48.57443" lon="-2.05053">
        <ele>71</ele>
        <time>2017-06-18T08:40:33Z</time>
      </trkpt>
      <trkpt lat="48.57443" lon="-2.05053">
        <ele>71</ele>
        <time>2017-06-18T08:40:37Z</time>
      </trkpt>
      <trkpt lat="48.57444" lon="-2.05047">
        <ele>70</ele>
        <time>2017-06-18T08:40:39Z</time>
      </trkpt>
      <trkpt lat="48.57442" lon="-2.05026">
        <ele>72</ele>
        <time>2017-06-18T08:40:44Z</time>
      </trkpt>
      <trkpt lat="48.57439" lon="-2.04985">
        <ele>71</ele>
        <time>2017-06-18T08:40:51Z</time>
      </trkpt>
      <trkpt lat="48.57437" lon="-2.04955">
        <ele>71</ele>
        <time>2017-06-18T08:40:54Z</time>
      </trkpt>
      <trkpt lat="48.57432" lon="-2.04906">
        <ele>70</ele>
        <time>2017-06-18T08:41:00Z</time>
      </trkpt>
      <trkpt lat="48.5743" lon="-2.04874">
        <ele>69</ele>
        <time>2017-06-18T08:41:04Z</time>
      </trkpt>
      <trkpt lat="48.57426" lon="-2.04831">
        <ele>68</ele>
        <time>2017-06-18T08:41:09Z</time>
      </trkpt>
      <trkpt lat="48.57422" lon="-2.04756">
        <ele>67</ele>
        <time>2017-06-18T08:41:18Z</time>
      </trkpt>
      <trkpt lat="48.57422" lon="-2.04737">
        <ele>68</ele>
        <time>2017-06-18T08:41:20Z</time>
      </trkpt>
      <trkpt lat="48.57421" lon="-2.0469">
        <ele>69</ele>
        <time>2017-06-18T08:41:24Z</time>
      </trkpt>
      <trkpt lat="48.5742" lon="-2.04643">
        <ele>68</ele>
        <time>2017-06-18T08:41:29Z</time>
      </trkpt>
      <trkpt lat="48.57419" lon="-2.04584">
        <ele>68</ele>
        <time>2017-06-18T08:41:34Z</time>
      </trkpt>
      <trkpt lat="48.57416" lon="-2.04528">
        <ele>65</ele>
        <time>2017-06-18T08:41:39Z</time>
      </trkpt>
      <trkpt lat="48.57415" lon="-2.04441">
        <ele>64</ele>
        <time>2017-06-18T08:41:48Z</time>
      </trkpt>
      <trkpt lat="48.57414" lon="-2.04409">
        <ele>64</ele>
        <time>2017-06-18T08:41:50Z</time>
      </trkpt>
      <trkpt lat="48.57412" lon="-2.0436">
        <ele>63</ele>
        <time>2017-06-18T08:41:55Z</time>
      </trkpt>
      <trkpt lat="48.57404" lon="-2.04315">
        <ele>62</ele>
        <time>2017-06-18T08:41:59Z</time>
      </trkpt>
      <trkpt lat="48.57377" lon="-2.04266">
        <ele>61</ele>
        <time>2017-06-18T08:42:04Z</time>
      </trkpt>
      <trkpt lat="48.57341" lon="-2.0422">
        <ele>59</ele>
        <time>2017-06-18T08:42:09Z</time>
      </trkpt>
      <trkpt lat="48.57306" lon="-2.04174">
        <ele>59</ele>
        <time>2017-06-18T08:42:14Z</time>
      </trkpt>
      <trkpt lat="48.57282" lon="-2.04135">
        <ele>59</ele>
        <time>2017-06-18T08:42:20Z</time>
      </trkpt>
      <trkpt lat="48.57257" lon="-2.04068">
        <ele>59</ele>
        <time>2017-06-18T08:42:28Z</time>
      </trkpt>
      <trkpt lat="48.57252" lon="-2.04055">
        <ele>59</ele>
        <time>2017-06-18T08:42:30Z</time>
      </trkpt>
      <trkpt lat="48.57242" lon="-2.04028">
        <ele>59</ele>
        <time>2017-06-18T08:42:35Z</time>
      </trkpt>
      <trkpt lat="48.57227" lon="-2.03986">
        <ele>60</ele>
        <time>2017-06-18T08:42:41Z</time>
      </trkpt>
      <trkpt lat="48.57218" lon="-2.03962">
        <ele>60</ele>
        <time>2017-06-18T08:42:44Z</time>
      </trkpt>
      <trkpt lat="48.57203" lon="-2.03919">
        <ele>61</ele>
        <time>2017-06-18T08:42:52Z</time>
      </trkpt>
      <trkpt lat="48.57189" lon="-2.03871">
        <ele>62</ele>
        <time>2017-06-18T08:42:59Z</time>
      </trkpt>
      <trkpt lat="48.57188" lon="-2.03865">
        <ele>62</ele>
        <time>2017-06-18T08:42:59Z</time>
      </trkpt>
      <trkpt lat="48.57184" lon="-2.03831">
        <ele>63</ele>
        <time>2017-06-18T08:43:05Z</time>
      </trkpt>
      <trkpt lat="48.57182" lon="-2.03797">
        <ele>64</ele>
        <time>2017-06-18T08:43:10Z</time>
      </trkpt>
      <trkpt lat="48.57184" lon="-2.03762">
        <ele>64</ele>
        <time>2017-06-18T08:43:15Z</time>
      </trkpt>
      <trkpt lat="48.57195" lon="-2.0373">
        <ele>64</ele>
        <time>2017-06-18T08:43:20Z</time>
      </trkpt>
      <trkpt lat="48.5721" lon="-2.03692">
        <ele>63</ele>
        <time>2017-06-18T08:43:24Z</time>
      </trkpt>
      <trkpt lat="48.57231" lon="-2.03654">
        <ele>62</ele>
        <time>2017-06-18T08:43:30Z</time>
      </trkpt>
      <trkpt lat="48.57256" lon="-2.03616">
        <ele>61</ele>
        <time>2017-06-18T08:43:34Z</time>
      </trkpt>
      <trkpt lat="48.57281" lon="-2.03572">
        <ele>58</ele>
        <time>2017-06-18T08:43:40Z</time>
      </trkpt>
      <trkpt lat="48.57302" lon="-2.0352">
        <ele>57</ele>
        <time>2017-06-18T08:43:44Z</time>
      </trkpt>
      <trkpt lat="48.57316" lon="-2.03462">
        <ele>56</ele>
        <time>2017-06-18T08:43:50Z</time>
      </trkpt>
      <trkpt lat="48.57329" lon="-2.03397">
        <ele>53</ele>
        <time>2017-06-18T08:43:54Z</time>
      </trkpt>
      <trkpt lat="48.57354" lon="-2.03286">
        <ele>52</ele>
        <time>2017-06-18T08:44:03Z</time>
      </trkpt>
      <trkpt lat="48.5736" lon="-2.03259">
        <ele>52</ele>
        <time>2017-06-18T08:44:05Z</time>
      </trkpt>
      <trkpt lat="48.57388" lon="-2.03211">
        <ele>50</ele>
        <time>2017-06-18T08:44:09Z</time>
      </trkpt>
      <trkpt lat="48.57429" lon="-2.03186">
        <ele>48</ele>
        <time>2017-06-18T08:44:14Z</time>
      </trkpt>
      <trkpt lat="48.57469" lon="-2.03168">
        <ele>48</ele>
        <time>2017-06-18T08:44:20Z</time>
      </trkpt>
      <trkpt lat="48.57509" lon="-2.03123">
        <ele>49</ele>
        <time>2017-06-18T08:44:27Z</time>
      </trkpt>
      <trkpt lat="48.57515" lon="-2.03098">
        <ele>49</ele>
        <time>2017-06-18T08:44:29Z</time>
      </trkpt>
      <trkpt lat="48.57517" lon="-2.03062">
        <ele>49</ele>
        <time>2017-06-18T08:44:35Z</time>
      </trkpt>
      <trkpt lat="48.57524" lon="-2.0301">
        <ele>51</ele>
        <time>2017-06-18T08:44:42Z</time>
      </trkpt>
      <trkpt lat="48.57528" lon="-2.02991">
        <ele>52</ele>
        <time>2017-06-18T08:44:45Z</time>
      </trkpt>
      <trkpt lat="48.57536" lon="-2.02963">
        <ele>54</ele>
        <time>2017-06-18T08:44:50Z</time>
      </trkpt>
      <trkpt lat="48.57546" lon="-2.02939">
        <ele>53</ele>
        <time>2017-06-18T08:44:55Z</time>
      </trkpt>
      <trkpt lat="48.57559" lon="-2.02912">
        <ele>54</ele>
        <time>2017-06-18T08:45:00Z</time>
      </trkpt>
      <trkpt lat="48.57572" lon="-2.02884">
        <ele>54</ele>
        <time>2017-06-18T08:45:04Z</time>
      </trkpt>
      <trkpt lat="48.57587" lon="-2.02858">
        <ele>54</ele>
        <time>2017-06-18T08:45:10Z</time>
      </trkpt>
      <trkpt lat="48.57598" lon="-2.02831">
        <ele>53</ele>
        <time>2017-06-18T08:45:14Z</time>
      </trkpt>
      <trkpt lat="48.57617" lon="-2.02796">
        <ele>54</ele>
        <time>2017-06-18T08:45:21Z</time>
      </trkpt>
      <trkpt lat="48.57624" lon="-2.02782">
        <ele>54</ele>
        <time>2017-06-18T08:45:25Z</time>
      </trkpt>
      <trkpt lat="48.57634" lon="-2.02755">
        <ele>54</ele>
        <time>2017-06-18T08:45:30Z</time>
      </trkpt>
      <trkpt lat="48.57645" lon="-2.02729">
        <ele>54</ele>
        <time>2017-06-18T08:45:34Z</time>
      </trkpt>
      <trkpt lat="48.57656" lon="-2.02704">
        <ele>55</ele>
        <time>2017-06-18T08:45:39Z</time>
      </trkpt>
      <trkpt lat="48.57667" lon="-2.02681">
        <ele>56</ele>
        <time>2017-06-18T08:45:45Z</time>
      </trkpt>
      <trkpt lat="48.57676" lon="-2.02661">
        <ele>57</ele>
        <time>2017-06-18T08:45:50Z</time>
      </trkpt>
      <trkpt lat="48.57686" lon="-2.02642">
        <ele>57</ele>
        <time>2017-06-18T08:45:54Z</time>
      </trkpt>
      <trkpt lat="48.57697" lon="-2.02623">
        <ele>58</ele>
        <time>2017-06-18T08:46:00Z</time>
      </trkpt>
      <trkpt lat="48.57711" lon="-2.02606">
        <ele>59</ele>
        <time>2017-06-18T08:46:05Z</time>
      </trkpt>
      <trkpt lat="48.57728" lon="-2.02594">
        <ele>59</ele>
        <time>2017-06-18T08:46:10Z</time>
      </trkpt>
      <trkpt lat="48.57744" lon="-2.02586">
        <ele>60</ele>
        <time>2017-06-18T08:46:15Z</time>
      </trkpt>
      <trkpt lat="48.57765" lon="-2.02574">
        <ele>60</ele>
        <time>2017-06-18T08:46:21Z</time>
      </trkpt>
      <trkpt lat="48.57778" lon="-2.02563">
        <ele>61</ele>
        <time>2017-06-18T08:46:25Z</time>
      </trkpt>
      <trkpt lat="48.57796" lon="-2.02548">
        <ele>61</ele>
        <time>2017-06-18T08:46:30Z</time>
      </trkpt>
      <trkpt lat="48.57813" lon="-2.02529">
        <ele>60</ele>
        <time>2017-06-18T08:46:35Z</time>
      </trkpt>
      <trkpt lat="48.57817" lon="-2.02479">
        <ele>59</ele>
        <time>2017-06-18T08:46:41Z</time>
      </trkpt>
      <trkpt lat="48.57817" lon="-2.02443">
        <ele>57</ele>
        <time>2017-06-18T08:46:45Z</time>
      </trkpt>
      <trkpt lat="48.57814" lon="-2.0239">
        <ele>55</ele>
        <time>2017-06-18T08:46:50Z</time>
      </trkpt>
      <trkpt lat="48.57814" lon="-2.02327">
        <ele>54</ele>
        <time>2017-06-18T08:46:55Z</time>
      </trkpt>
      <trkpt lat="48.57815" lon="-2.02227">
        <ele>49</ele>
        <time>2017-06-18T08:47:02Z</time>
      </trkpt>
      <trkpt lat="48.57816" lon="-2.02126">
        <ele>47</ele>
        <time>2017-06-18T08:47:08Z</time>
      </trkpt>
      <trkpt lat="48.57807" lon="-2.02073">
        <ele>43</ele>
        <time>2017-06-18T08:47:12Z</time>
      </trkpt>
      <trkpt lat="48.57804" lon="-2.02031">
        <ele>39</ele>
        <time>2017-06-18T08:47:15Z</time>
      </trkpt>
      <trkpt lat="48.578" lon="-2.01969">
        <ele>39</ele>
        <time>2017-06-18T08:47:19Z</time>
      </trkpt>
      <trkpt lat="48.57782" lon="-2.01889">
        <ele>35</ele>
        <time>2017-06-18T08:47:24Z</time>
      </trkpt>
      <trkpt lat="48.57763" lon="-2.01782">
        <ele>33</ele>
        <time>2017-06-18T08:47:31Z</time>
      </trkpt>
      <trkpt lat="48.57746" lon="-2.01683">
        <ele>28</ele>
        <time>2017-06-18T08:47:38Z</time>
      </trkpt>
      <trkpt lat="48.57748" lon="-2.01654">
        <ele>27</ele>
        <time>2017-06-18T08:47:40Z</time>
      </trkpt>
      <trkpt lat="48.5776" lon="-2.01606">
        <ele>28</ele>
        <time>2017-06-18T08:47:45Z</time>
      </trkpt>
      <trkpt lat="48.57768" lon="-2.01554">
        <ele>30</ele>
        <time>2017-06-18T08:47:49Z</time>
      </trkpt>
      <trkpt lat="48.57768" lon="-2.01513">
        <ele>30</ele>
        <time>2017-06-18T08:47:55Z</time>
      </trkpt>
      <trkpt lat="48.57767" lon="-2.01482">
        <ele>33</ele>
        <time>2017-06-18T08:48:00Z</time>
      </trkpt>
      <trkpt lat="48.57768" lon="-2.01455">
        <ele>34</ele>
        <time>2017-06-18T08:48:05Z</time>
      </trkpt>
      <trkpt lat="48.57765" lon="-2.01407">
        <ele>37</ele>
        <time>2017-06-18T08:48:13Z</time>
      </trkpt>
      <trkpt lat="48.57766" lon="-2.01366">
        <ele>37</ele>
        <time>2017-06-18T08:48:18Z</time>
      </trkpt>
      <trkpt lat="48.57767" lon="-2.01351">
        <ele>38</ele>
        <time>2017-06-18T08:48:21Z</time>
      </trkpt>
      <trkpt lat="48.57765" lon="-2.01347">
        <ele>36</ele>
        <time>2017-06-18T08:48:25Z</time>
      </trkpt>
      <trkpt lat="48.57765" lon="-2.01348">
        <ele>36</ele>
        <time>2017-06-18T08:48:29Z</time>
      </trkpt>
      <trkpt lat="48.57764" lon="-2.01347">
        <ele>36</ele>
        <time>2017-06-18T08:48:33Z</time>
      </trkpt>
      <trkpt lat="48.57763" lon="-2.01343">
        <ele>35</ele>
        <time>2017-06-18T08:48:35Z</time>
      </trkpt>
      <trkpt lat="48.57762" lon="-2.01328">
        <ele>35</ele>
        <time>2017-06-18T08:48:40Z</time>
      </trkpt>
      <trkpt lat="48.5776" lon="-2.01303">
        <ele>36</ele>
        <time>2017-06-18T08:48:46Z</time>
      </trkpt>
      <trkpt lat="48.57758" lon="-2.01273">
        <ele>35</ele>
        <time>2017-06-18T08:48:50Z</time>
      </trkpt>
      <trkpt lat="48.57757" lon="-2.01234">
        <ele>36</ele>
        <time>2017-06-18T08:48:57Z</time>
      </trkpt>
      <trkpt lat="48.57757" lon="-2.0122">
        <ele>37</ele>
        <time>2017-06-18T08:49:00Z</time>
      </trkpt>
      <trkpt lat="48.57758" lon="-2.01189">
        <ele>38</ele>
        <time>2017-06-18T08:49:07Z</time>
      </trkpt>
      <trkpt lat="48.57758" lon="-2.01191">
        <ele>38</ele>
        <time>2017-06-18T08:49:11Z</time>
      </trkpt>
      <trkpt lat="48.57759" lon="-2.01191">
        <ele>38</ele>
        <time>2017-06-18T08:49:15Z</time>
      </trkpt>
      <trkpt lat="48.57759" lon="-2.01191">
        <ele>38</ele>
        <time>2017-06-18T08:49:19Z</time>
      </trkpt>
      <trkpt lat="48.57759" lon="-2.0119">
        <ele>37</ele>
        <time>2017-06-18T08:49:22Z</time>
      </trkpt>
      <trkpt lat="48.57758" lon="-2.01191">
        <ele>37</ele>
        <time>2017-06-18T08:49:24Z</time>
      </trkpt>
      <trkpt lat="48.57758" lon="-2.0119">
        <ele>37</ele>
        <time>2017-06-18T08:49:28Z</time>
      </trkpt>
      <trkpt lat="48.57758" lon="-2.01192">
        <ele>36</ele>
        <time>2017-06-18T08:49:31Z</time>
      </trkpt>
      <trkpt lat="48.57758" lon="-2.01192">
        <ele>36</ele>
        <time>2017-06-18T08:49:34Z</time>
      </trkpt>
      <trkpt lat="48.57759" lon="-2.01191">
        <ele>36</ele>
        <time>2017-06-18T08:49:37Z</time>
      </trkpt>
      <trkpt lat="48.57757" lon="-2.0118">
        <ele>36</ele>
        <time>2017-06-18T08:49:39Z</time>
      </trkpt>
      <trkpt lat="48.57751" lon="-2.0114">
        <ele>37</ele>
        <time>2017-06-18T08:49:44Z</time>
      </trkpt>
      <trkpt lat="48.57748" lon="-2.01094">
        <ele>38</ele>
        <time>2017-06-18T08:49:49Z</time>
      </trkpt>
      <trkpt lat="48.57753" lon="-2.01044">
        <ele>38</ele>
        <time>2017-06-18T08:49:54Z</time>
      </trkpt>
      <trkpt lat="48.57781" lon="-2.00995">
        <ele>37</ele>
        <time>2017-06-18T08:50:01Z</time>
      </trkpt>
      <trkpt lat="48.57799" lon="-2.0096">
        <ele>35</ele>
        <time>2017-06-18T08:50:05Z</time>
      </trkpt>
      <trkpt lat="48.5782" lon="-2.00904">
        <ele>31</ele>
        <time>2017-06-18T08:50:10Z</time>
      </trkpt>
      <trkpt lat="48.57837" lon="-2.00852">
        <ele>29</ele>
        <time>2017-06-18T08:50:15Z</time>
      </trkpt>
      <trkpt lat="48.57856" lon="-2.00822">
        <ele>25</ele>
        <time>2017-06-18T08:50:20Z</time>
      </trkpt>
      <trkpt lat="48.57873" lon="-2.00812">
        <ele>25</ele>
        <time>2017-06-18T08:50:24Z</time>
      </trkpt>
      <trkpt lat="48.57882" lon="-2.00799">
        <ele>25</ele>
        <time>2017-06-18T08:50:30Z</time>
      </trkpt>
      <trkpt lat="48.57887" lon="-2.00778">
        <ele>24</ele>
        <time>2017-06-18T08:50:35Z</time>
      </trkpt>
      <trkpt lat="48.57891" lon="-2.00769">
        <ele>25</ele>
        <time>2017-06-18T08:50:40Z</time>
      </trkpt>
      <trkpt lat="48.57896" lon="-2.00734">
        <ele>23</ele>
        <time>2017-06-18T08:50:45Z</time>
      </trkpt>
      <trkpt lat="48.57903" lon="-2.00693">
        <ele>24</ele>
        <time>2017-06-18T08:50:50Z</time>
      </trkpt>
      <trkpt lat="48.57915" lon="-2.00627">
        <ele>22</ele>
        <time>2017-06-18T08:50:59Z</time>
      </trkpt>
      <trkpt lat="48.57917" lon="-2.00622">
        <ele>22</ele>
        <time>2017-06-18T08:51:00Z</time>
      </trkpt>
      <trkpt lat="48.57924" lon="-2.00595">
        <ele>22</ele>
        <time>2017-06-18T08:51:05Z</time>
      </trkpt>
      <trkpt lat="48.57935" lon="-2.0056">
        <ele>21</ele>
        <time>2017-06-18T08:51:10Z</time>
      </trkpt>
      <trkpt lat="48.57949" lon="-2.00523">
        <ele>20</ele>
        <time>2017-06-18T08:51:15Z</time>
      </trkpt>
      <trkpt lat="48.57959" lon="-2.00487">
        <ele>21</ele>
        <time>2017-06-18T08:51:20Z</time>
      </trkpt>
      <trkpt lat="48.5797" lon="-2.00455">
        <ele>21</ele>
        <time>2017-06-18T08:51:25Z</time>
      </trkpt>
      <trkpt lat="48.57983" lon="-2.0042">
        <ele>22</ele>
        <time>2017-06-18T08:51:31Z</time>
      </trkpt>
      <trkpt lat="48.57991" lon="-2.004">
        <ele>23</ele>
        <time>2017-06-18T08:51:35Z</time>
      </trkpt>
      <trkpt lat="48.58001" lon="-2.00388">
        <ele>25</ele>
        <time>2017-06-18T08:51:40Z</time>
      </trkpt>
      <trkpt lat="48.5802" lon="-2.00403">
        <ele>28</ele>
        <time>2017-06-18T08:51:46Z</time>
      </trkpt>
      <trkpt lat="48.58035" lon="-2.00418">
        <ele>28</ele>
        <time>2017-06-18T08:51:50Z</time>
      </trkpt>
      <trkpt lat="48.58055" lon="-2.0044">
        <ele>31</ele>
        <time>2017-06-18T08:51:56Z</time>
      </trkpt>
      <trkpt lat="48.58072" lon="-2.00456">
        <ele>32</ele>
        <time>2017-06-18T08:52:00Z</time>
      </trkpt>
      <trkpt lat="48.58116" lon="-2.0047">
        <ele>32</ele>
        <time>2017-06-18T08:52:08Z</time>
      </trkpt>
      <trkpt lat="48.58121" lon="-2.00471">
        <ele>31</ele>
        <time>2017-06-18T08:52:10Z</time>
      </trkpt>
      <trkpt lat="48.5815" lon="-2.00474">
        <ele>30</ele>
        <time>2017-06-18T08:52:14Z</time>
      </trkpt>
      <trkpt lat="48.582" lon="-2.00485">
        <ele>31</ele>
        <time>2017-06-18T08:52:22Z</time>
      </trkpt>
      <trkpt lat="48.5822" lon="-2.0051">
        <ele>30</ele>
        <time>2017-06-18T08:52:27Z</time>
      </trkpt>
      <trkpt lat="48.58226" lon="-2.0052">
        <ele>31</ele>
        <time>2017-06-18T08:52:30Z</time>
      </trkpt>
      <trkpt lat="48.58251" lon="-2.00554">
        <ele>31</ele>
        <time>2017-06-18T08:52:38Z</time>
      </trkpt>
      <trkpt lat="48.58254" lon="-2.00557">
        <ele>30</ele>
        <time>2017-06-18T08:52:40Z</time>
      </trkpt>
      <trkpt lat="48.58269" lon="-2.00576">
        <ele>30</ele>
        <time>2017-06-18T08:52:46Z</time>
      </trkpt>
      <trkpt lat="48.58281" lon="-2.00584">
        <ele>30</ele>
        <time>2017-06-18T08:52:50Z</time>
      </trkpt>
      <trkpt lat="48.58297" lon="-2.00592">
        <ele>29</ele>
        <time>2017-06-18T08:52:55Z</time>
      </trkpt>
      <trkpt lat="48.58312" lon="-2.006">
        <ele>29</ele>
        <time>2017-06-18T08:53:00Z</time>
      </trkpt>
      <trkpt lat="48.58326" lon="-2.0061">
        <ele>30</ele>
        <time>2017-06-18T08:53:05Z</time>
      </trkpt>
      <trkpt lat="48.58345" lon="-2.00625">
        <ele>31</ele>
        <time>2017-06-18T08:53:11Z</time>
      </trkpt>
      <trkpt lat="48.58362" lon="-2.00641">
        <ele>33</ele>
        <time>2017-06-18T08:53:16Z</time>
      </trkpt>
      <trkpt lat="48.58381" lon="-2.00657">
        <ele>35</ele>
        <time>2017-06-18T08:53:23Z</time>
      </trkpt>
      <trkpt lat="48.58384" lon="-2.0066">
        <ele>34</ele>
        <time>2017-06-18T08:53:24Z</time>
      </trkpt>
      <trkpt lat="48.5839" lon="-2.00667">
        <ele>35</ele>
        <time>2017-06-18T08:53:29Z</time>
      </trkpt>
      <trkpt lat="48.58386" lon="-2.00689">
        <ele>33</ele>
        <time>2017-06-18T08:53:34Z</time>
      </trkpt>
      <trkpt lat="48.58381" lon="-2.00728">
        <ele>32</ele>
        <time>2017-06-18T08:53:39Z</time>
      </trkpt>
      <trkpt lat="48.58369" lon="-2.00782">
        <ele>31</ele>
        <time>2017-06-18T08:53:45Z</time>
      </trkpt>
      <trkpt lat="48.5836" lon="-2.00827">
        <ele>31</ele>
        <time>2017-06-18T08:53:50Z</time>
      </trkpt>
      <trkpt lat="48.58347" lon="-2.00894">
        <ele>32</ele>
        <time>2017-06-18T08:53:58Z</time>
      </trkpt>
      <trkpt lat="48.58344" lon="-2.0092">
        <ele>31</ele>
        <time>2017-06-18T08:54:01Z</time>
      </trkpt>
      <trkpt lat="48.5834" lon="-2.00957">
        <ele>33</ele>
        <time>2017-06-18T08:54:06Z</time>
      </trkpt>
      <trkpt lat="48.58336" lon="-2.00993">
        <ele>34</ele>
        <time>2017-06-18T08:54:10Z</time>
      </trkpt>
      <trkpt lat="48.58329" lon="-2.01042">
        <ele>34</ele>
        <time>2017-06-18T08:54:15Z</time>
      </trkpt>
      <trkpt lat="48.58328" lon="-2.01075">
        <ele>35</ele>
        <time>2017-06-18T08:54:19Z</time>
      </trkpt>
      <trkpt lat="48.58331" lon="-2.01116">
        <ele>36</ele>
        <time>2017-06-18T08:54:24Z</time>
      </trkpt>
      <trkpt lat="48.58334" lon="-2.01166">
        <ele>37</ele>
        <time>2017-06-18T08:54:31Z</time>
      </trkpt>
      <trkpt lat="48.58336" lon="-2.01192">
        <ele>36</ele>
        <time>2017-06-18T08:54:35Z</time>
      </trkpt>
      <trkpt lat="48.58336" lon="-2.01219">
        <ele>35</ele>
        <time>2017-06-18T08:54:39Z</time>
      </trkpt>
      <trkpt lat="48.5834" lon="-2.01252">
        <ele>37</ele>
        <time>2017-06-18T08:54:44Z</time>
      </trkpt>
      <trkpt lat="48.58344" lon="-2.01284">
        <ele>38</ele>
        <time>2017-06-18T08:54:49Z</time>
      </trkpt>
      <trkpt lat="48.58346" lon="-2.01318">
        <ele>40</ele>
        <time>2017-06-18T08:54:54Z</time>
      </trkpt>
      <trkpt lat="48.5835" lon="-2.01351">
        <ele>38</ele>
        <time>2017-06-18T08:54:59Z</time>
      </trkpt>
      <trkpt lat="48.58352" lon="-2.01386">
        <ele>38</ele>
        <time>2017-06-18T08:55:05Z</time>
      </trkpt>
      <trkpt lat="48.58351" lon="-2.01414">
        <ele>39</ele>
        <time>2017-06-18T08:55:11Z</time>
      </trkpt>
      <trkpt lat="48.58348" lon="-2.01433">
        <ele>40</ele>
        <time>2017-06-18T08:55:14Z</time>
      </trkpt>
      <trkpt lat="48.58348" lon="-2.01465">
        <ele>36</ele>
        <time>2017-06-18T08:55:22Z</time>
      </trkpt>
      <trkpt lat="48.58348" lon="-2.01474">
        <ele>38</ele>
        <time>2017-06-18T08:55:24Z</time>
      </trkpt>
      <trkpt lat="48.5835" lon="-2.01494">
        <ele>39</ele>
        <time>2017-06-18T08:55:29Z</time>
      </trkpt>
      <trkpt lat="48.58351" lon="-2.01514">
        <ele>40</ele>
        <time>2017-06-18T08:55:34Z</time>
      </trkpt>
      <trkpt lat="48.58354" lon="-2.01541">
        <ele>41</ele>
        <time>2017-06-18T08:55:42Z</time>
      </trkpt>
      <trkpt lat="48.58359" lon="-2.01551">
        <ele>44</ele>
        <time>2017-06-18T08:55:45Z</time>
      </trkpt>
      <trkpt lat="48.58371" lon="-2.01562">
        <ele>43</ele>
        <time>2017-06-18T08:55:49Z</time>
      </trkpt>
      <trkpt lat="48.58387" lon="-2.01569">
        <ele>42</ele>
        <time>2017-06-18T08:55:56Z</time>
      </trkpt>
      <trkpt lat="48.58405" lon="-2.01577">
        <ele>44</ele>
        <time>2017-06-18T08:56:02Z</time>
      </trkpt>
      <trkpt lat="48.58415" lon="-2.01582">
        <ele>47</ele>
        <time>2017-06-18T08:56:05Z</time>
      </trkpt>
      <trkpt lat="48.58439" lon="-2.01595">
        <ele>46</ele>
        <time>2017-06-18T08:56:13Z</time>
      </trkpt>
      <trkpt lat="48.5845" lon="-2.016">
        <ele>46</ele>
        <time>2017-06-18T08:56:17Z</time>
      </trkpt>
      <trkpt lat="48.58458" lon="-2.01604">
        <ele>46</ele>
        <time>2017-06-18T08:56:19Z</time>
      </trkpt>
      <trkpt lat="48.58473" lon="-2.01612">
        <ele>46</ele>
        <time>2017-06-18T08:56:25Z</time>
      </trkpt>
      <trkpt lat="48.58485" lon="-2.01618">
        <ele>46</ele>
        <time>2017-06-18T08:56:30Z</time>
      </trkpt>
      <trkpt lat="48.58502" lon="-2.01627">
        <ele>47</ele>
        <time>2017-06-18T08:56:35Z</time>
      </trkpt>
      <trkpt lat="48.58518" lon="-2.01636">
        <ele>47</ele>
        <time>2017-06-18T08:56:39Z</time>
      </trkpt>
      <trkpt lat="48.58535" lon="-2.01644">
        <ele>48</ele>
        <time>2017-06-18T08:56:44Z</time>
      </trkpt>
      <trkpt lat="48.58551" lon="-2.01653">
        <ele>46</ele>
        <time>2017-06-18T08:56:49Z</time>
      </trkpt>
      <trkpt lat="48.58569" lon="-2.01662">
        <ele>46</ele>
        <time>2017-06-18T08:56:55Z</time>
      </trkpt>
      <trkpt lat="48.58586" lon="-2.0167">
        <ele>47</ele>
        <time>2017-06-18T08:57:00Z</time>
      </trkpt>
      <trkpt lat="48.58608" lon="-2.01681">
        <ele>46</ele>
        <time>2017-06-18T08:57:05Z</time>
      </trkpt>
      <trkpt lat="48.5863" lon="-2.01691">
        <ele>46</ele>
        <time>2017-06-18T08:57:10Z</time>
      </trkpt>
      <trkpt lat="48.58651" lon="-2.01702">
        <ele>45</ele>
        <time>2017-06-18T08:57:15Z</time>
      </trkpt>
      <trkpt lat="48.58673" lon="-2.01715">
        <ele>45</ele>
        <time>2017-06-18T08:57:20Z</time>
      </trkpt>
      <trkpt lat="48.58695" lon="-2.01725">
        <ele>46</ele>
        <time>2017-06-18T08:57:25Z</time>
      </trkpt>
      <trkpt lat="48.58719" lon="-2.01737">
        <ele>45</ele>
        <time>2017-06-18T08:57:30Z</time>
      </trkpt>
      <trkpt lat="48.58743" lon="-2.01748">
        <ele>45</ele>
        <time>2017-06-18T08:57:34Z</time>
      </trkpt>
      <trkpt lat="48.58767" lon="-2.01761">
        <ele>45</ele>
        <time>2017-06-18T08:57:40Z</time>
      </trkpt>
      <trkpt lat="48.58791" lon="-2.01773">
        <ele>46</ele>
        <time>2017-06-18T08:57:45Z</time>
      </trkpt>
      <trkpt lat="48.58816" lon="-2.01786">
        <ele>45</ele>
        <time>2017-06-18T08:57:50Z</time>
      </trkpt>
      <trkpt lat="48.58851" lon="-2.01801">
        <ele>46</ele>
        <time>2017-06-18T08:57:58Z</time>
      </trkpt>
      <trkpt lat="48.58864" lon="-2.01807">
        <ele>46</ele>
        <time>2017-06-18T08:58:00Z</time>
      </trkpt>
      <trkpt lat="48.58885" lon="-2.0182">
        <ele>45</ele>
        <time>2017-06-18T08:58:05Z</time>
      </trkpt>
      <trkpt lat="48.58906" lon="-2.01831">
        <ele>43</ele>
        <time>2017-06-18T08:58:09Z</time>
      </trkpt>
      <trkpt lat="48.58933" lon="-2.01845">
        <ele>43</ele>
        <time>2017-06-18T08:58:14Z</time>
      </trkpt>
      <trkpt lat="48.58964" lon="-2.0186">
        <ele>44</ele>
        <time>2017-06-18T08:58:20Z</time>
      </trkpt>
      <trkpt lat="48.58995" lon="-2.01875">
        <ele>43</ele>
        <time>2017-06-18T08:58:24Z</time>
      </trkpt>
      <trkpt lat="48.59028" lon="-2.01891">
        <ele>41</ele>
        <time>2017-06-18T08:58:30Z</time>
      </trkpt>
      <trkpt lat="48.5906" lon="-2.01908">
        <ele>41</ele>
        <time>2017-06-18T08:58:34Z</time>
      </trkpt>
      <trkpt lat="48.59092" lon="-2.01924">
        <ele>41</ele>
        <time>2017-06-18T08:58:39Z</time>
      </trkpt>
      <trkpt lat="48.59124" lon="-2.01939">
        <ele>40</ele>
        <time>2017-06-18T08:58:44Z</time>
      </trkpt>
      <trkpt lat="48.59153" lon="-2.01954">
        <ele>39</ele>
        <time>2017-06-18T08:58:50Z</time>
      </trkpt>
      <trkpt lat="48.59181" lon="-2.01969">
        <ele>38</ele>
        <time>2017-06-18T08:58:55Z</time>
      </trkpt>
      <trkpt lat="48.59202" lon="-2.0198">
        <ele>38</ele>
        <time>2017-06-18T08:59:00Z</time>
      </trkpt>
      <trkpt lat="48.59205" lon="-2.01999">
        <ele>40</ele>
        <time>2017-06-18T08:59:05Z</time>
      </trkpt>
      <trkpt lat="48.59199" lon="-2.02029">
        <ele>39</ele>
        <time>2017-06-18T08:59:10Z</time>
      </trkpt>
      <trkpt lat="48.59189" lon="-2.02073">
        <ele>39</ele>
        <time>2017-06-18T08:59:15Z</time>
      </trkpt>
      <trkpt lat="48.59184" lon="-2.02099">
        <ele>38</ele>
        <time>2017-06-18T08:59:19Z</time>
      </trkpt>
      <trkpt lat="48.59177" lon="-2.02162">
        <ele>38</ele>
        <time>2017-06-18T08:59:27Z</time>
      </trkpt>
      <trkpt lat="48.59176" lon="-2.0218">
        <ele>38</ele>
        <time>2017-06-18T08:59:29Z</time>
      </trkpt>
      <trkpt lat="48.59169" lon="-2.02241">
        <ele>38</ele>
        <time>2017-06-18T08:59:35Z</time>
      </trkpt>
      <trkpt lat="48.59157" lon="-2.02283">
        <ele>36</ele>
        <time>2017-06-18T08:59:39Z</time>
      </trkpt>
      <trkpt lat="48.59135" lon="-2.02347">
        <ele>34</ele>
        <time>2017-06-18T08:59:45Z</time>
      </trkpt>
      <trkpt lat="48.59117" lon="-2.02392">
        <ele>34</ele>
        <time>2017-06-18T08:59:49Z</time>
      </trkpt>
      <trkpt lat="48.59092" lon="-2.02436">
        <ele>34</ele>
        <time>2017-06-18T08:59:54Z</time>
      </trkpt>
      <trkpt lat="48.59068" lon="-2.02466">
        <ele>35</ele>
        <time>2017-06-18T08:59:59Z</time>
      </trkpt>
      <trkpt lat="48.59043" lon="-2.02492">
        <ele>34</ele>
        <time>2017-06-18T09:00:05Z</time>
      </trkpt>
      <trkpt lat="48.59017" lon="-2.02521">
        <ele>36</ele>
        <time>2017-06-18T09:00:11Z</time>
      </trkpt>
      <trkpt lat="48.59001" lon="-2.02537">
        <ele>36</ele>
        <time>2017-06-18T09:00:15Z</time>
      </trkpt>
      <trkpt lat="48.58987" lon="-2.02553">
        <ele>37</ele>
        <time>2017-06-18T09:00:19Z</time>
      </trkpt>
      <trkpt lat="48.58977" lon="-2.02568">
        <ele>38</ele>
        <time>2017-06-18T09:00:24Z</time>
      </trkpt>
      <trkpt lat="48.58968" lon="-2.02578">
        <ele>39</ele>
        <time>2017-06-18T09:00:29Z</time>
      </trkpt>
      <trkpt lat="48.5896" lon="-2.0259">
        <ele>39</ele>
        <time>2017-06-18T09:00:35Z</time>
      </trkpt>
      <trkpt lat="48.58943" lon="-2.02606">
        <ele>39</ele>
        <time>2017-06-18T09:00:41Z</time>
      </trkpt>
      <trkpt lat="48.58929" lon="-2.02618">
        <ele>39</ele>
        <time>2017-06-18T09:00:44Z</time>
      </trkpt>
      <trkpt lat="48.58913" lon="-2.02634">
        <ele>41</ele>
        <time>2017-06-18T09:00:49Z</time>
      </trkpt>
      <trkpt lat="48.58897" lon="-2.02651">
        <ele>42</ele>
        <time>2017-06-18T09:00:54Z</time>
      </trkpt>
      <trkpt lat="48.58881" lon="-2.0267">
        <ele>43</ele>
        <time>2017-06-18T09:00:59Z</time>
      </trkpt>
      <trkpt lat="48.58866" lon="-2.02691">
        <ele>44</ele>
        <time>2017-06-18T09:01:04Z</time>
      </trkpt>
      <trkpt lat="48.58854" lon="-2.02717">
        <ele>44</ele>
        <time>2017-06-18T09:01:10Z</time>
      </trkpt>
      <trkpt lat="48.58842" lon="-2.02751">
        <ele>42</ele>
        <time>2017-06-18T09:01:14Z</time>
      </trkpt>
      <trkpt lat="48.58829" lon="-2.02795">
        <ele>40</ele>
        <time>2017-06-18T09:01:20Z</time>
      </trkpt>
      <trkpt lat="48.58809" lon="-2.0284">
        <ele>37</ele>
        <time>2017-06-18T09:01:25Z</time>
      </trkpt>
      <trkpt lat="48.58803" lon="-2.02893">
        <ele>38</ele>
        <time>2017-06-18T09:01:30Z</time>
      </trkpt>
      <trkpt lat="48.58802" lon="-2.02946">
        <ele>38</ele>
        <time>2017-06-18T09:01:35Z</time>
      </trkpt>
      <trkpt lat="48.58797" lon="-2.02995">
        <ele>39</ele>
        <time>2017-06-18T09:01:40Z</time>
      </trkpt>
      <trkpt lat="48.58794" lon="-2.0304">
        <ele>40</ele>
        <time>2017-06-18T09:01:44Z</time>
      </trkpt>
      <trkpt lat="48.58788" lon="-2.03079">
        <ele>40</ele>
        <time>2017-06-18T09:01:50Z</time>
      </trkpt>
      <trkpt lat="48.58764" lon="-2.03096">
        <ele>40</ele>
        <time>2017-06-18T09:01:55Z</time>
      </trkpt>
      <trkpt lat="48.58737" lon="-2.03094">
        <ele>40</ele>
        <time>2017-06-18T09:02:00Z</time>
      </trkpt>
      <trkpt lat="48.58716" lon="-2.03119">
        <ele>40</ele>
        <time>2017-06-18T09:02:05Z</time>
      </trkpt>
      <trkpt lat="48.58709" lon="-2.03159">
        <ele>40</ele>
        <time>2017-06-18T09:02:10Z</time>
      </trkpt>
      <trkpt lat="48.58702" lon="-2.03198">
        <ele>42</ele>
        <time>2017-06-18T09:02:15Z</time>
      </trkpt>
      <trkpt lat="48.58695" lon="-2.0324">
        <ele>41</ele>
        <time>2017-06-18T09:02:20Z</time>
      </trkpt>
      <trkpt lat="48.58688" lon="-2.03283">
        <ele>42</ele>
        <time>2017-06-18T09:02:25Z</time>
      </trkpt>
      <trkpt lat="48.58681" lon="-2.03328">
        <ele>40</ele>
        <time>2017-06-18T09:02:30Z</time>
      </trkpt>
      <trkpt lat="48.58669" lon="-2.03415">
        <ele>35</ele>
        <time>2017-06-18T09:02:38Z</time>
      </trkpt>
      <trkpt lat="48.58663" lon="-2.0345">
        <ele>34</ele>
        <time>2017-06-18T09:02:41Z</time>
      </trkpt>
      <trkpt lat="48.58631" lon="-2.03526">
        <ele>33</ele>
        <time>2017-06-18T09:02:47Z</time>
      </trkpt>
      <trkpt lat="48.58621" lon="-2.03546">
        <ele>33</ele>
        <time>2017-06-18T09:02:49Z</time>
      </trkpt>
      <trkpt lat="48.58605" lon="-2.03619">
        <ele>33</ele>
        <time>2017-06-18T09:02:57Z</time>
      </trkpt>
      <trkpt lat="48.586" lon="-2.03645">
        <ele>34</ele>
        <time>2017-06-18T09:02:59Z</time>
      </trkpt>
      <trkpt lat="48.58592" lon="-2.03676">
        <ele>35</ele>
        <time>2017-06-18T09:03:04Z</time>
      </trkpt>
      <trkpt lat="48.58584" lon="-2.03705">
        <ele>38</ele>
        <time>2017-06-18T09:03:10Z</time>
      </trkpt>
      <trkpt lat="48.58573" lon="-2.03735">
        <ele>36</ele>
        <time>2017-06-18T09:03:15Z</time>
      </trkpt>
      <trkpt lat="48.58569" lon="-2.03759">
        <ele>34</ele>
        <time>2017-06-18T09:03:20Z</time>
      </trkpt>
      <trkpt lat="48.58572" lon="-2.03796">
        <ele>37</ele>
        <time>2017-06-18T09:03:26Z</time>
      </trkpt>
      <trkpt lat="48.58579" lon="-2.03838">
        <ele>41</ele>
        <time>2017-06-18T09:03:33Z</time>
      </trkpt>
      <trkpt lat="48.5858" lon="-2.0385">
        <ele>41</ele>
        <time>2017-06-18T09:03:35Z</time>
      </trkpt>
      <trkpt lat="48.58586" lon="-2.03877">
        <ele>44</ele>
        <time>2017-06-18T09:03:39Z</time>
      </trkpt>
      <trkpt lat="48.58591" lon="-2.03905">
        <ele>45</ele>
        <time>2017-06-18T09:03:45Z</time>
      </trkpt>
      <trkpt lat="48.58593" lon="-2.03921">
        <ele>45</ele>
        <time>2017-06-18T09:03:49Z</time>
      </trkpt>
      <trkpt lat="48.58594" lon="-2.03942">
        <ele>46</ele>
        <time>2017-06-18T09:03:54Z</time>
      </trkpt>
      <trkpt lat="48.58596" lon="-2.03964">
        <ele>47</ele>
        <time>2017-06-18T09:04:00Z</time>
      </trkpt>
      <trkpt lat="48.58597" lon="-2.0399">
        <ele>48</ele>
        <time>2017-06-18T09:04:04Z</time>
      </trkpt>
      <trkpt lat="48.58599" lon="-2.04017">
        <ele>48</ele>
        <time>2017-06-18T09:04:10Z</time>
      </trkpt>
      <trkpt lat="48.58601" lon="-2.04048">
        <ele>48</ele>
        <time>2017-06-18T09:04:15Z</time>
      </trkpt>
      <trkpt lat="48.58604" lon="-2.04078">
        <ele>48</ele>
        <time>2017-06-18T09:04:20Z</time>
      </trkpt>
      <trkpt lat="48.58608" lon="-2.04107">
        <ele>48</ele>
        <time>2017-06-18T09:04:25Z</time>
      </trkpt>
      <trkpt lat="48.58614" lon="-2.0413">
        <ele>48</ele>
        <time>2017-06-18T09:04:30Z</time>
      </trkpt>
      <trkpt lat="48.58618" lon="-2.0415">
        <ele>48</ele>
        <time>2017-06-18T09:04:34Z</time>
      </trkpt>
      <trkpt lat="48.58621" lon="-2.04152">
        <ele>48</ele>
        <time>2017-06-18T09:04:39Z</time>
      </trkpt>
      <trkpt lat="48.58621" lon="-2.04151">
        <ele>48</ele>
        <time>2017-06-18T09:04:44Z</time>
      </trkpt>
      <trkpt lat="48.58621" lon="-2.0415">
        <ele>48</ele>
        <time>2017-06-18T09:04:47Z</time>
      </trkpt>
      <trkpt lat="48.58621" lon="-2.0415">
        <ele>48</ele>
        <time>2017-06-18T09:04:50Z</time>
      </trkpt>
      <trkpt lat="48.58621" lon="-2.0415">
        <ele>48</ele>
        <time>2017-06-18T09:04:53Z</time>
      </trkpt>
      <trkpt lat="48.58621" lon="-2.0415">
        <ele>48</ele>
        <time>2017-06-18T09:04:57Z</time>
      </trkpt>
      <trkpt lat="48.58621" lon="-2.0415">
        <ele>48</ele>
        <time>2017-06-18T09:04:59Z</time>
      </trkpt>
      <trkpt lat="48.58621" lon="-2.0415">
        <ele>48</ele>
        <time>2017-06-18T09:05:02Z</time>
      </trkpt>
      <trkpt lat="48.58622" lon="-2.04151">
        <ele>48</ele>
        <time>2017-06-18T09:05:05Z</time>
      </trkpt>
      <trkpt lat="48.58628" lon="-2.04153">
        <ele>48</ele>
        <time>2017-06-18T09:05:08Z</time>
      </trkpt>
      <trkpt lat="48.58645" lon="-2.04144">
        <ele>47</ele>
        <time>2017-06-18T09:05:14Z</time>
      </trkpt>
      <trkpt lat="48.58667" lon="-2.04128">
        <ele>47</ele>
        <time>2017-06-18T09:05:18Z</time>
      </trkpt>
      <trkpt lat="48.58691" lon="-2.04118">
        <ele>47</ele>
        <time>2017-06-18T09:05:24Z</time>
      </trkpt>
      <trkpt lat="48.58717" lon="-2.04107">
        <ele>47</ele>
        <time>2017-06-18T09:05:29Z</time>
      </trkpt>
      <trkpt lat="48.58742" lon="-2.04097">
        <ele>47</ele>
        <time>2017-06-18T09:05:33Z</time>
      </trkpt>
      <trkpt lat="48.5877" lon="-2.04084">
        <ele>47</ele>
        <time>2017-06-18T09:05:38Z</time>
      </trkpt>
      <trkpt lat="48.58798" lon="-2.04067">
        <ele>47</ele>
        <time>2017-06-18T09:05:43Z</time>
      </trkpt>
      <trkpt lat="48.58822" lon="-2.04039">
        <ele>47</ele>
        <time>2017-06-18T09:05:48Z</time>
      </trkpt>
      <trkpt lat="48.58844" lon="-2.0401">
        <ele>46</ele>
        <time>2017-06-18T09:05:53Z</time>
      </trkpt>
      <trkpt lat="48.58865" lon="-2.0398">
        <ele>46</ele>
        <time>2017-06-18T09:05:58Z</time>
      </trkpt>
      <trkpt lat="48.58886" lon="-2.03949">
        <ele>45</ele>
        <time>2017-06-18T09:06:03Z</time>
      </trkpt>
      <trkpt lat="48.589" lon="-2.03909">
        <ele>44</ele>
        <time>2017-06-18T09:06:08Z</time>
      </trkpt>
      <trkpt lat="48.58904" lon="-2.03862">
        <ele>43</ele>
        <time>2017-06-18T09:06:13Z</time>
      </trkpt>
      <trkpt lat="48.5891" lon="-2.03805">
        <ele>41</ele>
        <time>2017-06-18T09:06:20Z</time>
      </trkpt>
      <trkpt lat="48.58921" lon="-2.03771">
        <ele>41</ele>
        <time>2017-06-18T09:06:24Z</time>
      </trkpt>
      <trkpt lat="48.58944" lon="-2.03733">
        <ele>40</ele>
        <time>2017-06-18T09:06:28Z</time>
      </trkpt>
      <trkpt lat="48.58972" lon="-2.03699">
        <ele>39</ele>
        <time>2017-06-18T09:06:33Z</time>
      </trkpt>
      <trkpt lat="48.59009" lon="-2.0365">
        <ele>36</ele>
        <time>2017-06-18T09:06:40Z</time>
      </trkpt>
      <trkpt lat="48.59034" lon="-2.03593">
        <ele>34</ele>
        <time>2017-06-18T09:06:45Z</time>
      </trkpt>
      <trkpt lat="48.59057" lon="-2.0355">
        <ele>33</ele>
        <time>2017-06-18T09:06:48Z</time>
      </trkpt>
      <trkpt lat="48.59116" lon="-2.03471">
        <ele>31</ele>
        <time>2017-06-18T09:06:56Z</time>
      </trkpt>
      <trkpt lat="48.59127" lon="-2.03455">
        <ele>31</ele>
        <time>2017-06-18T09:06:59Z</time>
      </trkpt>
      <trkpt lat="48.59174" lon="-2.03434">
        <ele>24</ele>
        <time>2017-06-18T09:07:03Z</time>
      </trkpt>
      <trkpt lat="48.59227" lon="-2.03408">
        <ele>24</ele>
        <time>2017-06-18T09:07:08Z</time>
      </trkpt>
      <trkpt lat="48.59269" lon="-2.0339">
        <ele>23</ele>
        <time>2017-06-18T09:07:17Z</time>
      </trkpt>
      <trkpt lat="48.59271" lon="-2.0339">
        <ele>24</ele>
        <time>2017-06-18T09:07:19Z</time>
      </trkpt>
      <trkpt lat="48.59268" lon="-2.0341">
        <ele>17</ele>
        <time>2017-06-18T09:07:25Z</time>
      </trkpt>
      <trkpt lat="48.59269" lon="-2.0341">
        <ele>20</ele>
        <time>2017-06-18T09:07:28Z</time>
      </trkpt>
    </trkseg>
  </trk>
  <trk>
    <name><![CDATA[Sequence 4]]></name>
    <trkseg>
      <trkpt lat="48.59269" lon="-2.03442">
        <ele>26</ele>
        <time>2017-06-18T09:07:51Z</time>
      </trkpt>
      <trkpt lat="48.59271" lon="-2.03482">
        <ele>24</ele>
        <time>2017-06-18T09:07:56Z</time>
      </trkpt>
      <trkpt lat="48.59293" lon="-2.03505">
        <ele>20</ele>
        <time>2017-06-18T09:08:01Z</time>
      </trkpt>
      <trkpt lat="48.59314" lon="-2.03527">
        <ele>21</ele>
        <time>2017-06-18T09:08:06Z</time>
      </trkpt>
      <trkpt lat="48.59328" lon="-2.03539">
        <ele>16</ele>
        <time>2017-06-18T09:08:11Z</time>
      </trkpt>
      <trkpt lat="48.5935" lon="-2.03561">
        <ele>10</ele>
        <time>2017-06-18T09:08:16Z</time>
      </trkpt>
      <trkpt lat="48.59377" lon="-2.03587">
        <ele>20</ele>
        <time>2017-06-18T09:08:25Z</time>
      </trkpt>
      <trkpt lat="48.59379" lon="-2.03587">
        <ele>20</ele>
        <time>2017-06-18T09:08:26Z</time>
      </trkpt>
      <trkpt lat="48.59392" lon="-2.03599">
        <ele>16</ele>
        <time>2017-06-18T09:08:31Z</time>
      </trkpt>
      <trkpt lat="48.59407" lon="-2.03611">
        <ele>9</ele>
        <time>2017-06-18T09:08:36Z</time>
      </trkpt>
      <trkpt lat="48.59435" lon="-2.03638">
        <ele>13</ele>
        <time>2017-06-18T09:08:43Z</time>
      </trkpt>
      <trkpt lat="48.59445" lon="-2.0365">
        <ele>13</ele>
        <time>2017-06-18T09:08:46Z</time>
      </trkpt>
      <trkpt lat="48.59465" lon="-2.0367">
        <ele>7</ele>
        <time>2017-06-18T09:08:51Z</time>
      </trkpt>
      <trkpt lat="48.59493" lon="-2.03694">
        <ele>14</ele>
        <time>2017-06-18T09:08:57Z</time>
      </trkpt>
      <trkpt lat="48.5951" lon="-2.03729">
        <ele>13</ele>
        <time>2017-06-18T09:09:05Z</time>
      </trkpt>
      <trkpt lat="48.59517" lon="-2.03738">
        <ele>15</ele>
        <time>2017-06-18T09:09:07Z</time>
      </trkpt>
      <trkpt lat="48.59533" lon="-2.03757">
        <ele>14</ele>
        <time>2017-06-18T09:09:11Z</time>
      </trkpt>
      <trkpt lat="48.59547" lon="-2.03772">
        <ele>14</ele>
        <time>2017-06-18T09:09:17Z</time>
      </trkpt>
      <trkpt lat="48.59577" lon="-2.0378">
        <ele>18</ele>
        <time>2017-06-18T09:09:23Z</time>
      </trkpt>
      <trkpt lat="48.59591" lon="-2.0379">
        <ele>16</ele>
        <time>2017-06-18T09:09:30Z</time>
      </trkpt>
      <trkpt lat="48.59587" lon="-2.03798">
        <ele>13</ele>
        <time>2017-06-18T09:09:33Z</time>
      </trkpt>
      <trkpt lat="48.59578" lon="-2.03811">
        <ele>12</ele>
        <time>2017-06-18T09:09:37Z</time>
      </trkpt>
      <trkpt lat="48.59577" lon="-2.0384">
        <ele>11</ele>
        <time>2017-06-18T09:09:44Z</time>
      </trkpt>
      <trkpt lat="48.59574" lon="-2.03855">
        <ele>12</ele>
        <time>2017-06-18T09:09:48Z</time>
      </trkpt>
      <trkpt lat="48.59572" lon="-2.03878">
        <ele>13</ele>
        <time>2017-06-18T09:09:52Z</time>
      </trkpt>
      <trkpt lat="48.59571" lon="-2.03903">
        <ele>14</ele>
        <time>2017-06-18T09:09:55Z</time>
      </trkpt>
      <trkpt lat="48.59567" lon="-2.03938">
        <ele>16</ele>
        <time>2017-06-18T09:10:02Z</time>
      </trkpt>
      <trkpt lat="48.59574" lon="-2.03942">
        <ele>17</ele>
        <time>2017-06-18T09:10:06Z</time>
      </trkpt>
      <trkpt lat="48.59583" lon="-2.03944">
        <ele>20</ele>
        <time>2017-06-18T09:10:10Z</time>
      </trkpt>
      <trkpt lat="48.59595" lon="-2.03949">
        <ele>23</ele>
        <time>2017-06-18T09:10:15Z</time>
      </trkpt>
      <trkpt lat="48.59602" lon="-2.03952">
        <ele>23</ele>
        <time>2017-06-18T09:10:21Z</time>
      </trkpt>
      <trkpt lat="48.5961" lon="-2.0394">
        <ele>21</ele>
        <time>2017-06-18T09:10:26Z</time>
      </trkpt>
      <trkpt lat="48.59625" lon="-2.0392">
        <ele>19</ele>
        <time>2017-06-18T09:10:30Z</time>
      </trkpt>
      <trkpt lat="48.59653" lon="-2.03895">
        <ele>20</ele>
        <time>2017-06-18T09:10:37Z</time>
      </trkpt>
      <trkpt lat="48.59675" lon="-2.03878">
        <ele>18</ele>
        <time>2017-06-18T09:10:41Z</time>
      </trkpt>
      <trkpt lat="48.59713" lon="-2.03866">
        <ele>14</ele>
        <time>2017-06-18T09:10:47Z</time>
      </trkpt>
      <trkpt lat="48.59736" lon="-2.03869">
        <ele>15</ele>
        <time>2017-06-18T09:10:50Z</time>
      </trkpt>
      <trkpt lat="48.59765" lon="-2.03882">
        <ele>16</ele>
        <time>2017-06-18T09:10:57Z</time>
      </trkpt>
      <trkpt lat="48.59795" lon="-2.03889">
        <ele>17</ele>
        <time>2017-06-18T09:11:03Z</time>
      </trkpt>
      <trkpt lat="48.59829" lon="-2.03888">
        <ele>17</ele>
        <time>2017-06-18T09:11:10Z</time>
      </trkpt>
      <trkpt lat="48.59834" lon="-2.03888">
        <ele>17</ele>
        <time>2017-06-18T09:11:10Z</time>
      </trkpt>
      <trkpt lat="48.59859" lon="-2.0388">
        <ele>19</ele>
        <time>2017-06-18T09:11:15Z</time>
      </trkpt>
      <trkpt lat="48.59891" lon="-2.03875">
        <ele>21</ele>
        <time>2017-06-18T09:11:22Z</time>
      </trkpt>
      <trkpt lat="48.5991" lon="-2.03871">
        <ele>20</ele>
        <time>2017-06-18T09:11:26Z</time>
      </trkpt>
      <trkpt lat="48.59935" lon="-2.03866">
        <ele>22</ele>
        <time>2017-06-18T09:11:30Z</time>
      </trkpt>
      <trkpt lat="48.59958" lon="-2.0387">
        <ele>22</ele>
        <time>2017-06-18T09:11:38Z</time>
      </trkpt>
      <trkpt lat="48.59957" lon="-2.03877">
        <ele>22</ele>
        <time>2017-06-18T09:11:40Z</time>
      </trkpt>
      <trkpt lat="48.59958" lon="-2.03896">
        <ele>23</ele>
        <time>2017-06-18T09:11:46Z</time>
      </trkpt>
      <trkpt lat="48.59958" lon="-2.03918">
        <ele>24</ele>
        <time>2017-06-18T09:11:52Z</time>
      </trkpt>
      <trkpt lat="48.59957" lon="-2.03931">
        <ele>26</ele>
        <time>2017-06-18T09:11:55Z</time>
      </trkpt>
      <trkpt lat="48.59956" lon="-2.03947">
        <ele>25</ele>
        <time>2017-06-18T09:12:01Z</time>
      </trkpt>
      <trkpt lat="48.59953" lon="-2.03968">
        <ele>26</ele>
        <time>2017-06-18T09:12:06Z</time>
      </trkpt>
      <trkpt lat="48.59951" lon="-2.03983">
        <ele>26</ele>
        <time>2017-06-18T09:12:10Z</time>
      </trkpt>
      <trkpt lat="48.59948" lon="-2.04">
        <ele>27</ele>
        <time>2017-06-18T09:12:15Z</time>
      </trkpt>
      <trkpt lat="48.59946" lon="-2.04019">
        <ele>28</ele>
        <time>2017-06-18T09:12:21Z</time>
      </trkpt>
      <trkpt lat="48.59944" lon="-2.04038">
        <ele>30</ele>
        <time>2017-06-18T09:12:25Z</time>
      </trkpt>
      <trkpt lat="48.59941" lon="-2.04056">
        <ele>30</ele>
        <time>2017-06-18T09:12:31Z</time>
      </trkpt>
      <trkpt lat="48.5994" lon="-2.04077">
        <ele>31</ele>
        <time>2017-06-18T09:12:37Z</time>
      </trkpt>
      <trkpt lat="48.59939" lon="-2.04098">
        <ele>30</ele>
        <time>2017-06-18T09:12:43Z</time>
      </trkpt>
      <trkpt lat="48.59938" lon="-2.0411">
        <ele>29</ele>
        <time>2017-06-18T09:12:46Z</time>
      </trkpt>
      <trkpt lat="48.5994" lon="-2.04122">
        <ele>29</ele>
        <time>2017-06-18T09:12:51Z</time>
      </trkpt>
      <trkpt lat="48.5994" lon="-2.04141">
        <ele>30</ele>
        <time>2017-06-18T09:12:56Z</time>
      </trkpt>
      <trkpt lat="48.59941" lon="-2.04157">
        <ele>30</ele>
        <time>2017-06-18T09:13:00Z</time>
      </trkpt>
      <trkpt lat="48.59942" lon="-2.04186">
        <ele>31</ele>
        <time>2017-06-18T09:13:07Z</time>
      </trkpt>
      <trkpt lat="48.59943" lon="-2.04198">
        <ele>32</ele>
        <time>2017-06-18T09:13:11Z</time>
      </trkpt>
      <trkpt lat="48.59944" lon="-2.04229">
        <ele>31</ele>
        <time>2017-06-18T09:13:19Z</time>
      </trkpt>
      <trkpt lat="48.59943" lon="-2.04236">
        <ele>31</ele>
        <time>2017-06-18T09:13:21Z</time>
      </trkpt>
      <trkpt lat="48.59935" lon="-2.04249">
        <ele>31</ele>
        <time>2017-06-18T09:13:25Z</time>
      </trkpt>
      <trkpt lat="48.59927" lon="-2.04256">
        <ele>35</ele>
        <time>2017-06-18T09:13:31Z</time>
      </trkpt>
      <trkpt lat="48.59914" lon="-2.04267">
        <ele>35</ele>
        <time>2017-06-18T09:13:36Z</time>
      </trkpt>
      <trkpt lat="48.59906" lon="-2.04276">
        <ele>36</ele>
        <time>2017-06-18T09:13:40Z</time>
      </trkpt>
      <trkpt lat="48.59896" lon="-2.04286">
        <ele>35</ele>
        <time>2017-06-18T09:13:45Z</time>
      </trkpt>
      <trkpt lat="48.59883" lon="-2.04302">
        <ele>37</ele>
        <time>2017-06-18T09:13:53Z</time>
      </trkpt>
      <trkpt lat="48.59884" lon="-2.04302">
        <ele>36</ele>
        <time>2017-06-18T09:13:56Z</time>
      </trkpt>
      <trkpt lat="48.59884" lon="-2.04302">
        <ele>36</ele>
        <time>2017-06-18T09:13:59Z</time>
      </trkpt>
      <trkpt lat="48.59884" lon="-2.04302">
        <ele>36</ele>
        <time>2017-06-18T09:14:01Z</time>
      </trkpt>
      <trkpt lat="48.59884" lon="-2.04301">
        <ele>36</ele>
        <time>2017-06-18T09:14:04Z</time>
      </trkpt>
      <trkpt lat="48.59884" lon="-2.04301">
        <ele>36</ele>
        <time>2017-06-18T09:14:07Z</time>
      </trkpt>
      <trkpt lat="48.59884" lon="-2.04301">
        <ele>36</ele>
        <time>2017-06-18T09:14:10Z</time>
      </trkpt>
      <trkpt lat="48.59884" lon="-2.04301">
        <ele>36</ele>
        <time>2017-06-18T09:14:13Z</time>
      </trkpt>
      <trkpt lat="48.59884" lon="-2.04301">
        <ele>36</ele>
        <time>2017-06-18T09:14:16Z</time>
      </trkpt>
      <trkpt lat="48.59882" lon="-2.04304">
        <ele>39</ele>
        <time>2017-06-18T09:14:19Z</time>
      </trkpt>
      <trkpt lat="48.5988" lon="-2.04317">
        <ele>35</ele>
        <time>2017-06-18T09:14:24Z</time>
      </trkpt>
      <trkpt lat="48.59884" lon="-2.04339">
        <ele>36</ele>
        <time>2017-06-18T09:14:30Z</time>
      </trkpt>
      <trkpt lat="48.59891" lon="-2.04371">
        <ele>36</ele>
        <time>2017-06-18T09:14:36Z</time>
      </trkpt>
      <trkpt lat="48.59893" lon="-2.04389">
        <ele>36</ele>
        <time>2017-06-18T09:14:39Z</time>
      </trkpt>
      <trkpt lat="48.59899" lon="-2.04416">
        <ele>35</ele>
        <time>2017-06-18T09:14:48Z</time>
      </trkpt>
      <trkpt lat="48.599" lon="-2.04422">
        <ele>38</ele>
        <time>2017-06-18T09:14:52Z</time>
      </trkpt>
      <trkpt lat="48.59897" lon="-2.04414">
        <ele>39</ele>
        <time>2017-06-18T09:14:54Z</time>
      </trkpt>
      <trkpt lat="48.59896" lon="-2.04408">
        <ele>40</ele>
        <time>2017-06-18T09:14:59Z</time>
      </trkpt>
      <trkpt lat="48.59896" lon="-2.04407">
        <ele>39</ele>
        <time>2017-06-18T09:15:05Z</time>
      </trkpt>
      <trkpt lat="48.59893" lon="-2.04391">
        <ele>37</ele>
        <time>2017-06-18T09:15:10Z</time>
      </trkpt>
      <trkpt lat="48.59891" lon="-2.0438">
        <ele>38</ele>
        <time>2017-06-18T09:15:12Z</time>
      </trkpt>
      <trkpt lat="48.59885" lon="-2.04349">
        <ele>37</ele>
        <time>2017-06-18T09:15:17Z</time>
      </trkpt>
      <trkpt lat="48.59879" lon="-2.04321">
        <ele>37</ele>
        <time>2017-06-18T09:15:23Z</time>
      </trkpt>
      <trkpt lat="48.59875" lon="-2.04306">
        <ele>36</ele>
        <time>2017-06-18T09:15:28Z</time>
      </trkpt>
      <trkpt lat="48.59883" lon="-2.04321">
        <ele>36</ele>
        <time>2017-06-18T09:15:32Z</time>
      </trkpt>
      <trkpt lat="48.59889" lon="-2.04351">
        <ele>34</ele>
        <time>2017-06-18T09:15:37Z</time>
      </trkpt>
      <trkpt lat="48.59897" lon="-2.04391">
        <ele>35</ele>
        <time>2017-06-18T09:15:42Z</time>
      </trkpt>
      <trkpt lat="48.59908" lon="-2.04462">
        <ele>36</ele>
        <time>2017-06-18T09:15:52Z</time>
      </trkpt>
      <trkpt lat="48.59909" lon="-2.04469">
        <ele>36</ele>
        <time>2017-06-18T09:15:53Z</time>
      </trkpt>
      <trkpt lat="48.59912" lon="-2.04487">
        <ele>37</ele>
        <time>2017-06-18T09:15:57Z</time>
      </trkpt>
      <trkpt lat="48.59918" lon="-2.04523">
        <ele>37</ele>
        <time>2017-06-18T09:16:02Z</time>
      </trkpt>
      <trkpt lat="48.59927" lon="-2.04566">
        <ele>36</ele>
        <time>2017-06-18T09:16:08Z</time>
      </trkpt>
      <trkpt lat="48.59936" lon="-2.04613">
        <ele>35</ele>
        <time>2017-06-18T09:16:13Z</time>
      </trkpt>
      <trkpt lat="48.59949" lon="-2.0468">
        <ele>33</ele>
        <time>2017-06-18T09:16:19Z</time>
      </trkpt>
      <trkpt lat="48.59959" lon="-2.04725">
        <ele>32</ele>
        <time>2017-06-18T09:16:23Z</time>
      </trkpt>
      <trkpt lat="48.59974" lon="-2.048">
        <ele>28</ele>
        <time>2017-06-18T09:16:29Z</time>
      </trkpt>
      <trkpt lat="48.59981" lon="-2.04825">
        <ele>27</ele>
        <time>2017-06-18T09:16:33Z</time>
      </trkpt>
      <trkpt lat="48.59985" lon="-2.0484">
        <ele>24</ele>
        <time>2017-06-18T09:16:38Z</time>
      </trkpt>
      <trkpt lat="48.59993" lon="-2.04834">
        <ele>24</ele>
        <time>2017-06-18T09:16:43Z</time>
      </trkpt>
      <trkpt lat="48.60002" lon="-2.04833">
        <ele>29</ele>
        <time>2017-06-18T09:16:49Z</time>
      </trkpt>
      <trkpt lat="48.6002" lon="-2.04829">
        <ele>28</ele>
        <time>2017-06-18T09:16:56Z</time>
      </trkpt>
      <trkpt lat="48.6002" lon="-2.04829">
        <ele>28</ele>
        <time>2017-06-18T09:16:58Z</time>
      </trkpt>
      <trkpt lat="48.60034" lon="-2.04824">
        <ele>25</ele>
        <time>2017-06-18T09:17:04Z</time>
      </trkpt>
      <trkpt lat="48.60042" lon="-2.04817">
        <ele>22</ele>
        <time>2017-06-18T09:17:05Z</time>
      </trkpt>
      <trkpt lat="48.60064" lon="-2.04819">
        <ele>22</ele>
        <time>2017-06-18T09:17:12Z</time>
      </trkpt>
      <trkpt lat="48.6007" lon="-2.0482">
        <ele>24</ele>
        <time>2017-06-18T09:17:18Z</time>
      </trkpt>
      <trkpt lat="48.6007" lon="-2.0482">
        <ele>25</ele>
        <time>2017-06-18T09:17:20Z</time>
      </trkpt>
      <trkpt lat="48.60072" lon="-2.0482">
        <ele>26</ele>
        <time>2017-06-18T09:17:26Z</time>
      </trkpt>
      <trkpt lat="48.60074" lon="-2.04821">
        <ele>29</ele>
        <time>2017-06-18T09:17:28Z</time>
      </trkpt>
      <trkpt lat="48.60079" lon="-2.04823">
        <ele>27</ele>
        <time>2017-06-18T09:17:34Z</time>
      </trkpt>
      <trkpt lat="48.60081" lon="-2.04827">
        <ele>27</ele>
        <time>2017-06-18T09:17:40Z</time>
      </trkpt>
      <trkpt lat="48.60084" lon="-2.04836">
        <ele>27</ele>
        <time>2017-06-18T09:17:43Z</time>
      </trkpt>
      <trkpt lat="48.60095" lon="-2.04857">
        <ele>24</ele>
        <time>2017-06-18T09:17:53Z</time>
      </trkpt>
      <trkpt lat="48.60098" lon="-2.04863">
        <ele>23</ele>
        <time>2017-06-18T09:17:57Z</time>
      </trkpt>
      <trkpt lat="48.60101" lon="-2.04871">
        <ele>23</ele>
        <time>2017-06-18T09:18:00Z</time>
      </trkpt>
      <trkpt lat="48.60108" lon="-2.04886">
        <ele>24</ele>
        <time>2017-06-18T09:18:04Z</time>
      </trkpt>
      <trkpt lat="48.60113" lon="-2.04898">
        <ele>29</ele>
        <time>2017-06-18T09:18:08Z</time>
      </trkpt>
      <trkpt lat="48.60119" lon="-2.04913">
        <ele>30</ele>
        <time>2017-06-18T09:18:14Z</time>
      </trkpt>
      <trkpt lat="48.60123" lon="-2.04926">
        <ele>28</ele>
        <time>2017-06-18T09:18:19Z</time>
      </trkpt>
      <trkpt lat="48.60126" lon="-2.04935">
        <ele>29</ele>
        <time>2017-06-18T09:18:24Z</time>
      </trkpt>
      <trkpt lat="48.60131" lon="-2.04944">
        <ele>30</ele>
        <time>2017-06-18T09:18:29Z</time>
      </trkpt>
      <trkpt lat="48.60136" lon="-2.04954">
        <ele>31</ele>
        <time>2017-06-18T09:18:34Z</time>
      </trkpt>
      <trkpt lat="48.6014" lon="-2.04965">
        <ele>32</ele>
        <time>2017-06-18T09:18:39Z</time>
      </trkpt>
      <trkpt lat="48.60145" lon="-2.04977">
        <ele>33</ele>
        <time>2017-06-18T09:18:43Z</time>
      </trkpt>
      <trkpt lat="48.60149" lon="-2.04988">
        <ele>32</ele>
        <time>2017-06-18T09:18:49Z</time>
      </trkpt>
      <trkpt lat="48.60156" lon="-2.04999">
        <ele>34</ele>
        <time>2017-06-18T09:18:53Z</time>
      </trkpt>
      <trkpt lat="48.60161" lon="-2.05008">
        <ele>34</ele>
        <time>2017-06-18T09:18:58Z</time>
      </trkpt>
      <trkpt lat="48.60166" lon="-2.05017">
        <ele>34</ele>
        <time>2017-06-18T09:19:03Z</time>
      </trkpt>
      <trkpt lat="48.60171" lon="-2.05024">
        <ele>36</ele>
        <time>2017-06-18T09:19:08Z</time>
      </trkpt>
      <trkpt lat="48.60174" lon="-2.05035">
        <ele>41</ele>
        <time>2017-06-18T09:19:13Z</time>
      </trkpt>
      <trkpt lat="48.60177" lon="-2.05046">
        <ele>42</ele>
        <time>2017-06-18T09:19:19Z</time>
      </trkpt>
      <trkpt lat="48.6018" lon="-2.05058">
        <ele>42</ele>
        <time>2017-06-18T09:19:24Z</time>
      </trkpt>
      <trkpt lat="48.60183" lon="-2.0507">
        <ele>41</ele>
        <time>2017-06-18T09:19:29Z</time>
      </trkpt>
      <trkpt lat="48.60186" lon="-2.05081">
        <ele>42</ele>
        <time>2017-06-18T09:19:34Z</time>
      </trkpt>
      <trkpt lat="48.60193" lon="-2.05089">
        <ele>43</ele>
        <time>2017-06-18T09:19:39Z</time>
      </trkpt>
      <trkpt lat="48.60203" lon="-2.05097">
        <ele>46</ele>
        <time>2017-06-18T09:19:45Z</time>
      </trkpt>
      <trkpt lat="48.60212" lon="-2.051">
        <ele>46</ele>
        <time>2017-06-18T09:19:48Z</time>
      </trkpt>
      <trkpt lat="48.60227" lon="-2.051">
        <ele>47</ele>
        <time>2017-06-18T09:19:54Z</time>
      </trkpt>
      <trkpt lat="48.60246" lon="-2.05093">
        <ele>46</ele>
        <time>2017-06-18T09:20:00Z</time>
      </trkpt>
      <trkpt lat="48.60259" lon="-2.05084">
        <ele>45</ele>
        <time>2017-06-18T09:20:04Z</time>
      </trkpt>
      <trkpt lat="48.60278" lon="-2.05061">
        <ele>46</ele>
        <time>2017-06-18T09:20:10Z</time>
      </trkpt>
      <trkpt lat="48.60292" lon="-2.05043">
        <ele>46</ele>
        <time>2017-06-18T09:20:14Z</time>
      </trkpt>
      <trkpt lat="48.60311" lon="-2.05021">
        <ele>47</ele>
        <time>2017-06-18T09:20:18Z</time>
      </trkpt>
      <trkpt lat="48.60329" lon="-2.05005">
        <ele>46</ele>
        <time>2017-06-18T09:20:24Z</time>
      </trkpt>
      <trkpt lat="48.60348" lon="-2.04992">
        <ele>46</ele>
        <time>2017-06-18T09:20:29Z</time>
      </trkpt>
      <trkpt lat="48.60366" lon="-2.0498">
        <ele>45</ele>
        <time>2017-06-18T09:20:33Z</time>
      </trkpt>
      <trkpt lat="48.60385" lon="-2.04968">
        <ele>46</ele>
        <time>2017-06-18T09:20:39Z</time>
      </trkpt>
      <trkpt lat="48.60404" lon="-2.04959">
        <ele>46</ele>
        <time>2017-06-18T09:20:44Z</time>
      </trkpt>
      <trkpt lat="48.60422" lon="-2.04948">
        <ele>45</ele>
        <time>2017-06-18T09:20:49Z</time>
      </trkpt>
      <trkpt lat="48.60428" lon="-2.04957">
        <ele>44</ele>
        <time>2017-06-18T09:20:54Z</time>
      </trkpt>
      <trkpt lat="48.60434" lon="-2.04978">
        <ele>47</ele>
        <time>2017-06-18T09:20:58Z</time>
      </trkpt>
      <trkpt lat="48.60439" lon="-2.05002">
        <ele>48</ele>
        <time>2017-06-18T09:21:03Z</time>
      </trkpt>
      <trkpt lat="48.60454" lon="-2.05048">
        <ele>49</ele>
        <time>2017-06-18T09:21:10Z</time>
      </trkpt>
      <trkpt lat="48.60464" lon="-2.0508">
        <ele>48</ele>
        <time>2017-06-18T09:21:14Z</time>
      </trkpt>
      <trkpt lat="48.60473" lon="-2.05114">
        <ele>46</ele>
        <time>2017-06-18T09:21:18Z</time>
      </trkpt>
      <trkpt lat="48.60487" lon="-2.05147">
        <ele>42</ele>
        <time>2017-06-18T09:21:23Z</time>
      </trkpt>
      <trkpt lat="48.60499" lon="-2.05181">
        <ele>40</ele>
        <time>2017-06-18T09:21:28Z</time>
      </trkpt>
      <trkpt lat="48.60535" lon="-2.05221">
        <ele>39</ele>
        <time>2017-06-18T09:21:34Z</time>
      </trkpt>
      <trkpt lat="48.60566" lon="-2.05288">
        <ele>33</ele>
        <time>2017-06-18T09:21:41Z</time>
      </trkpt>
      <trkpt lat="48.60575" lon="-2.05304">
        <ele>34</ele>
        <time>2017-06-18T09:21:44Z</time>
      </trkpt>
      <trkpt lat="48.60587" lon="-2.05348">
        <ele>37</ele>
        <time>2017-06-18T09:21:51Z</time>
      </trkpt>
      <trkpt lat="48.60588" lon="-2.0536">
        <ele>39</ele>
        <time>2017-06-18T09:21:53Z</time>
      </trkpt>
      <trkpt lat="48.60589" lon="-2.05392">
        <ele>40</ele>
        <time>2017-06-18T09:22:00Z</time>
      </trkpt>
      <trkpt lat="48.60587" lon="-2.05422">
        <ele>41</ele>
        <time>2017-06-18T09:22:06Z</time>
      </trkpt>
      <trkpt lat="48.60586" lon="-2.05441">
        <ele>41</ele>
        <time>2017-06-18T09:22:09Z</time>
      </trkpt>
      <trkpt lat="48.60582" lon="-2.05473">
        <ele>41</ele>
        <time>2017-06-18T09:22:14Z</time>
      </trkpt>
      <trkpt lat="48.60579" lon="-2.05518">
        <ele>41</ele>
        <time>2017-06-18T09:22:20Z</time>
      </trkpt>
      <trkpt lat="48.60578" lon="-2.05537">
        <ele>41</ele>
        <time>2017-06-18T09:22:23Z</time>
      </trkpt>
      <trkpt lat="48.6058" lon="-2.05569">
        <ele>42</ele>
        <time>2017-06-18T09:22:28Z</time>
      </trkpt>
      <trkpt lat="48.60581" lon="-2.05608">
        <ele>42</ele>
        <time>2017-06-18T09:22:35Z</time>
      </trkpt>
      <trkpt lat="48.60577" lon="-2.05626">
        <ele>40</ele>
        <time>2017-06-18T09:22:38Z</time>
      </trkpt>
      <trkpt lat="48.60576" lon="-2.05628">
        <ele>41</ele>
        <time>2017-06-18T09:22:43Z</time>
      </trkpt>
      <trkpt lat="48.60576" lon="-2.05631">
        <ele>41</ele>
        <time>2017-06-18T09:22:47Z</time>
      </trkpt>
      <trkpt lat="48.60583" lon="-2.05636">
        <ele>43</ele>
        <time>2017-06-18T09:22:52Z</time>
      </trkpt>
      <trkpt lat="48.60595" lon="-2.05643">
        <ele>44</ele>
        <time>2017-06-18T09:22:57Z</time>
      </trkpt>
      <trkpt lat="48.60613" lon="-2.05649">
        <ele>42</ele>
        <time>2017-06-18T09:23:01Z</time>
      </trkpt>
      <trkpt lat="48.6063" lon="-2.05659">
        <ele>43</ele>
        <time>2017-06-18T09:23:07Z</time>
      </trkpt>
      <trkpt lat="48.60643" lon="-2.0567">
        <ele>43</ele>
        <time>2017-06-18T09:23:12Z</time>
      </trkpt>
      <trkpt lat="48.60642" lon="-2.05676">
        <ele>43</ele>
        <time>2017-06-18T09:23:17Z</time>
      </trkpt>
      <trkpt lat="48.60638" lon="-2.05684">
        <ele>43</ele>
        <time>2017-06-18T09:23:22Z</time>
      </trkpt>
      <trkpt lat="48.60614" lon="-2.05687">
        <ele>42</ele>
        <time>2017-06-18T09:23:27Z</time>
      </trkpt>
      <trkpt lat="48.60585" lon="-2.05686">
        <ele>41</ele>
        <time>2017-06-18T09:23:32Z</time>
      </trkpt>
      <trkpt lat="48.60534" lon="-2.05689">
        <ele>38</ele>
        <time>2017-06-18T09:23:39Z</time>
      </trkpt>
      <trkpt lat="48.60504" lon="-2.05687">
        <ele>35</ele>
        <time>2017-06-18T09:23:43Z</time>
      </trkpt>
      <trkpt lat="48.6048" lon="-2.05687">
        <ele>34</ele>
        <time>2017-06-18T09:23:47Z</time>
      </trkpt>
      <trkpt lat="48.60441" lon="-2.05686">
        <ele>33</ele>
        <time>2017-06-18T09:23:51Z</time>
      </trkpt>
      <trkpt lat="48.604" lon="-2.05688">
        <ele>31</ele>
        <time>2017-06-18T09:23:57Z</time>
      </trkpt>
      <trkpt lat="48.60364" lon="-2.05693">
        <ele>30</ele>
        <time>2017-06-18T09:24:02Z</time>
      </trkpt>
      <trkpt lat="48.60353" lon="-2.05739">
        <ele>30</ele>
        <time>2017-06-18T09:24:07Z</time>
      </trkpt>
      <trkpt lat="48.60342" lon="-2.05834">
        <ele>31</ele>
        <time>2017-06-18T09:24:15Z</time>
      </trkpt>
      <trkpt lat="48.60339" lon="-2.05852">
        <ele>32</ele>
        <time>2017-06-18T09:24:17Z</time>
      </trkpt>
      <trkpt lat="48.60339" lon="-2.05887">
        <ele>34</ele>
        <time>2017-06-18T09:24:22Z</time>
      </trkpt>
      <trkpt lat="48.60341" lon="-2.05921">
        <ele>35</ele>
        <time>2017-06-18T09:24:26Z</time>
      </trkpt>
      <trkpt lat="48.60346" lon="-2.05952">
        <ele>36</ele>
        <time>2017-06-18T09:24:33Z</time>
      </trkpt>
      <trkpt lat="48.60352" lon="-2.05974">
        <ele>38</ele>
        <time>2017-06-18T09:24:37Z</time>
      </trkpt>
      <trkpt lat="48.60358" lon="-2.05994">
        <ele>38</ele>
        <time>2017-06-18T09:24:42Z</time>
      </trkpt>
      <trkpt lat="48.60368" lon="-2.06019">
        <ele>39</ele>
        <time>2017-06-18T09:24:46Z</time>
      </trkpt>
      <trkpt lat="48.60379" lon="-2.06052">
        <ele>42</ele>
        <time>2017-06-18T09:24:54Z</time>
      </trkpt>
      <trkpt lat="48.60383" lon="-2.06065">
        <ele>44</ele>
        <time>2017-06-18T09:24:57Z</time>
      </trkpt>
      <trkpt lat="48.60395" lon="-2.06097">
        <ele>46</ele>
        <time>2017-06-18T09:25:03Z</time>
      </trkpt>
      <trkpt lat="48.60399" lon="-2.06115">
        <ele>45</ele>
        <time>2017-06-18T09:25:08Z</time>
      </trkpt>
      <trkpt lat="48.60405" lon="-2.06135">
        <ele>48</ele>
        <time>2017-06-18T09:25:12Z</time>
      </trkpt>
      <trkpt lat="48.60413" lon="-2.0617">
        <ele>45</ele>
        <time>2017-06-18T09:25:18Z</time>
      </trkpt>
      <trkpt lat="48.60417" lon="-2.06184">
        <ele>45</ele>
        <time>2017-06-18T09:25:21Z</time>
      </trkpt>
      <trkpt lat="48.60424" lon="-2.06208">
        <ele>46</ele>
        <time>2017-06-18T09:25:27Z</time>
      </trkpt>
      <trkpt lat="48.6043" lon="-2.06228">
        <ele>45</ele>
        <time>2017-06-18T09:25:32Z</time>
      </trkpt>
      <trkpt lat="48.60436" lon="-2.06245">
        <ele>47</ele>
        <time>2017-06-18T09:25:37Z</time>
      </trkpt>
      <trkpt lat="48.60441" lon="-2.06259">
        <ele>48</ele>
        <time>2017-06-18T09:25:42Z</time>
      </trkpt>
      <trkpt lat="48.60446" lon="-2.06277">
        <ele>49</ele>
        <time>2017-06-18T09:25:47Z</time>
      </trkpt>
      <trkpt lat="48.60451" lon="-2.06296">
        <ele>49</ele>
        <time>2017-06-18T09:25:52Z</time>
      </trkpt>
      <trkpt lat="48.60455" lon="-2.06313">
        <ele>48</ele>
        <time>2017-06-18T09:25:57Z</time>
      </trkpt>
      <trkpt lat="48.60459" lon="-2.06332">
        <ele>49</ele>
        <time>2017-06-18T09:26:02Z</time>
      </trkpt>
      <trkpt lat="48.60465" lon="-2.06354">
        <ele>47</ele>
        <time>2017-06-18T09:26:06Z</time>
      </trkpt>
      <trkpt lat="48.6047" lon="-2.06378">
        <ele>47</ele>
        <time>2017-06-18T09:26:12Z</time>
      </trkpt>
      <trkpt lat="48.60474" lon="-2.06402">
        <ele>47</ele>
        <time>2017-06-18T09:26:17Z</time>
      </trkpt>
      <trkpt lat="48.60476" lon="-2.06426">
        <ele>47</ele>
        <time>2017-06-18T09:26:22Z</time>
      </trkpt>
      <trkpt lat="48.6048" lon="-2.06453">
        <ele>47</ele>
        <time>2017-06-18T09:26:27Z</time>
      </trkpt>
      <trkpt lat="48.60485" lon="-2.06479">
        <ele>47</ele>
        <time>2017-06-18T09:26:32Z</time>
      </trkpt>
      <trkpt lat="48.60488" lon="-2.06498">
        <ele>48</ele>
        <time>2017-06-18T09:26:37Z</time>
      </trkpt>
      <trkpt lat="48.60492" lon="-2.06519">
        <ele>48</ele>
        <time>2017-06-18T09:26:41Z</time>
      </trkpt>
      <trkpt lat="48.60495" lon="-2.06544">
        <ele>48</ele>
        <time>2017-06-18T09:26:47Z</time>
      </trkpt>
      <trkpt lat="48.605" lon="-2.06562">
        <ele>49</ele>
        <time>2017-06-18T09:26:51Z</time>
      </trkpt>
      <trkpt lat="48.60505" lon="-2.06587">
        <ele>48</ele>
        <time>2017-06-18T09:26:57Z</time>
      </trkpt>
      <trkpt lat="48.60512" lon="-2.06623">
        <ele>51</ele>
        <time>2017-06-18T09:27:04Z</time>
      </trkpt>
      <trkpt lat="48.60518" lon="-2.06642">
        <ele>53</ele>
        <time>2017-06-18T09:27:07Z</time>
      </trkpt>
      <trkpt lat="48.60523" lon="-2.06662">
        <ele>55</ele>
        <time>2017-06-18T09:27:11Z</time>
      </trkpt>
      <trkpt lat="48.60529" lon="-2.06692">
        <ele>53</ele>
        <time>2017-06-18T09:27:17Z</time>
      </trkpt>
      <trkpt lat="48.60537" lon="-2.06725">
        <ele>53</ele>
        <time>2017-06-18T09:27:25Z</time>
      </trkpt>
      <trkpt lat="48.60543" lon="-2.06741">
        <ele>51</ele>
        <time>2017-06-18T09:27:28Z</time>
      </trkpt>
      <trkpt lat="48.60548" lon="-2.06762">
        <ele>50</ele>
        <time>2017-06-18T09:27:32Z</time>
      </trkpt>
      <trkpt lat="48.60567" lon="-2.06778">
        <ele>52</ele>
        <time>2017-06-18T09:27:39Z</time>
      </trkpt>
      <trkpt lat="48.60576" lon="-2.06756">
        <ele>52</ele>
        <time>2017-06-18T09:27:43Z</time>
      </trkpt>
      <trkpt lat="48.60581" lon="-2.06735">
        <ele>52</ele>
        <time>2017-06-18T09:27:46Z</time>
      </trkpt>
      <trkpt lat="48.60594" lon="-2.06701">
        <ele>53</ele>
        <time>2017-06-18T09:27:51Z</time>
      </trkpt>
      <trkpt lat="48.60619" lon="-2.06672">
        <ele>51</ele>
        <time>2017-06-18T09:27:58Z</time>
      </trkpt>
      <trkpt lat="48.60648" lon="-2.06657">
        <ele>52</ele>
        <time>2017-06-18T09:28:03Z</time>
      </trkpt>
      <trkpt lat="48.60682" lon="-2.0664">
        <ele>51</ele>
        <time>2017-06-18T09:28:10Z</time>
      </trkpt>
      <trkpt lat="48.60686" lon="-2.06635">
        <ele>52</ele>
        <time>2017-06-18T09:28:11Z</time>
      </trkpt>
      <trkpt lat="48.60709" lon="-2.06625">
        <ele>50</ele>
        <time>2017-06-18T09:28:16Z</time>
      </trkpt>
      <trkpt lat="48.60728" lon="-2.06608">
        <ele>50</ele>
        <time>2017-06-18T09:28:21Z</time>
      </trkpt>
      <trkpt lat="48.60746" lon="-2.06567">
        <ele>50</ele>
        <time>2017-06-18T09:28:27Z</time>
      </trkpt>
      <trkpt lat="48.60761" lon="-2.06547">
        <ele>51</ele>
        <time>2017-06-18T09:28:31Z</time>
      </trkpt>
      <trkpt lat="48.60785" lon="-2.06542">
        <ele>50</ele>
        <time>2017-06-18T09:28:37Z</time>
      </trkpt>
      <trkpt lat="48.60808" lon="-2.06529">
        <ele>50</ele>
        <time>2017-06-18T09:28:41Z</time>
      </trkpt>
      <trkpt lat="48.60828" lon="-2.06511">
        <ele>50</ele>
        <time>2017-06-18T09:28:47Z</time>
      </trkpt>
      <trkpt lat="48.60842" lon="-2.06496">
        <ele>52</ele>
        <time>2017-06-18T09:28:52Z</time>
      </trkpt>
      <trkpt lat="48.60863" lon="-2.065">
        <ele>52</ele>
        <time>2017-06-18T09:29:00Z</time>
      </trkpt>
      <trkpt lat="48.60866" lon="-2.06504">
        <ele>54</ele>
        <time>2017-06-18T09:29:01Z</time>
      </trkpt>
      <trkpt lat="48.60892" lon="-2.06491">
        <ele>53</ele>
        <time>2017-06-18T09:29:11Z</time>
      </trkpt>
      <trkpt lat="48.60897" lon="-2.0649">
        <ele>53</ele>
        <time>2017-06-18T09:29:12Z</time>
      </trkpt>
      <trkpt lat="48.60906" lon="-2.06487">
        <ele>58</ele>
        <time>2017-06-18T09:29:17Z</time>
      </trkpt>
      <trkpt lat="48.60926" lon="-2.06483">
        <ele>61</ele>
        <time>2017-06-18T09:29:22Z</time>
      </trkpt>
      <trkpt lat="48.60954" lon="-2.06483">
        <ele>66</ele>
        <time>2017-06-18T09:29:27Z</time>
      </trkpt>
      <trkpt lat="48.60991" lon="-2.06474">
        <ele>63</ele>
        <time>2017-06-18T09:29:35Z</time>
      </trkpt>
      <trkpt lat="48.61004" lon="-2.06473">
        <ele>64</ele>
        <time>2017-06-18T09:29:36Z</time>
      </trkpt>
      <trkpt lat="48.6103" lon="-2.0646">
        <ele>62</ele>
        <time>2017-06-18T09:29:43Z</time>
      </trkpt>
      <trkpt lat="48.61073" lon="-2.06459">
        <ele>62</ele>
        <time>2017-06-18T09:29:51Z</time>
      </trkpt>
      <trkpt lat="48.61083" lon="-2.06458">
        <ele>63</ele>
        <time>2017-06-18T09:29:53Z</time>
      </trkpt>
      <trkpt lat="48.61099" lon="-2.06449">
        <ele>64</ele>
        <time>2017-06-18T09:29:57Z</time>
      </trkpt>
      <trkpt lat="48.6114" lon="-2.06439">
        <ele>70</ele>
        <time>2017-06-18T09:30:05Z</time>
      </trkpt>
      <trkpt lat="48.61162" lon="-2.06428">
        <ele>65</ele>
        <time>2017-06-18T09:30:10Z</time>
      </trkpt>
      <trkpt lat="48.61173" lon="-2.06431">
        <ele>62</ele>
        <time>2017-06-18T09:30:12Z</time>
      </trkpt>
      <trkpt lat="48.61213" lon="-2.06461">
        <ele>55</ele>
        <time>2017-06-18T09:30:21Z</time>
      </trkpt>
      <trkpt lat="48.61218" lon="-2.06464">
        <ele>55</ele>
        <time>2017-06-18T09:30:21Z</time>
      </trkpt>
      <trkpt lat="48.61245" lon="-2.06494">
        <ele>54</ele>
        <time>2017-06-18T09:30:28Z</time>
      </trkpt>
      <trkpt lat="48.61265" lon="-2.06513">
        <ele>51</ele>
        <time>2017-06-18T09:30:32Z</time>
      </trkpt>
      <trkpt lat="48.61284" lon="-2.06533">
        <ele>51</ele>
        <time>2017-06-18T09:30:38Z</time>
      </trkpt>
      <trkpt lat="48.61318" lon="-2.06563">
        <ele>52</ele>
        <time>2017-06-18T09:30:48Z</time>
      </trkpt>
      <trkpt lat="48.61333" lon="-2.06559">
        <ele>53</ele>
        <time>2017-06-18T09:30:52Z</time>
      </trkpt>
      <trkpt lat="48.6135" lon="-2.06551">
        <ele>52</ele>
        <time>2017-06-18T09:30:57Z</time>
      </trkpt>
      <trkpt lat="48.61372" lon="-2.06541">
        <ele>53</ele>
        <time>2017-06-18T09:31:03Z</time>
      </trkpt>
      <trkpt lat="48.61378" lon="-2.06539">
        <ele>51</ele>
        <time>2017-06-18T09:31:06Z</time>
      </trkpt>
      <trkpt lat="48.61405" lon="-2.06528">
        <ele>52</ele>
        <time>2017-06-18T09:31:13Z</time>
      </trkpt>
      <trkpt lat="48.61417" lon="-2.06522">
        <ele>50</ele>
        <time>2017-06-18T09:31:16Z</time>
      </trkpt>
      <trkpt lat="48.61451" lon="-2.06506">
        <ele>45</ele>
        <time>2017-06-18T09:31:25Z</time>
      </trkpt>
      <trkpt lat="48.61456" lon="-2.06504">
        <ele>45</ele>
        <time>2017-06-18T09:31:26Z</time>
      </trkpt>
      <trkpt lat="48.6149" lon="-2.06496">
        <ele>48</ele>
        <time>2017-06-18T09:31:32Z</time>
      </trkpt>
      <trkpt lat="48.61512" lon="-2.06486">
        <ele>50</ele>
        <time>2017-06-18T09:31:36Z</time>
      </trkpt>
      <trkpt lat="48.61536" lon="-2.06474">
        <ele>49</ele>
        <time>2017-06-18T09:31:41Z</time>
      </trkpt>
      <trkpt lat="48.61563" lon="-2.06467">
        <ele>50</ele>
        <time>2017-06-18T09:31:45Z</time>
      </trkpt>
      <trkpt lat="48.61606" lon="-2.0645">
        <ele>48</ele>
        <time>2017-06-18T09:31:53Z</time>
      </trkpt>
      <trkpt lat="48.61621" lon="-2.06442">
        <ele>49</ele>
        <time>2017-06-18T09:31:55Z</time>
      </trkpt>
      <trkpt lat="48.61652" lon="-2.06433">
        <ele>50</ele>
        <time>2017-06-18T09:32:00Z</time>
      </trkpt>
      <trkpt lat="48.61705" lon="-2.06413">
        <ele>47</ele>
        <time>2017-06-18T09:32:10Z</time>
      </trkpt>
      <trkpt lat="48.6171" lon="-2.06411">
        <ele>47</ele>
        <time>2017-06-18T09:32:11Z</time>
      </trkpt>
      <trkpt lat="48.61737" lon="-2.06398">
        <ele>49</ele>
        <time>2017-06-18T09:32:15Z</time>
      </trkpt>
      <trkpt lat="48.61782" lon="-2.06381">
        <ele>48</ele>
        <time>2017-06-18T09:32:23Z</time>
      </trkpt>
      <trkpt lat="48.6181" lon="-2.06369">
        <ele>48</ele>
        <time>2017-06-18T09:32:27Z</time>
      </trkpt>
      <trkpt lat="48.61841" lon="-2.06356">
        <ele>49</ele>
        <time>2017-06-18T09:32:32Z</time>
      </trkpt>
      <trkpt lat="48.6186" lon="-2.0635">
        <ele>47</ele>
        <time>2017-06-18T09:32:35Z</time>
      </trkpt>
      <trkpt lat="48.61899" lon="-2.06336">
        <ele>44</ele>
        <time>2017-06-18T09:32:42Z</time>
      </trkpt>
      <trkpt lat="48.61952" lon="-2.06312">
        <ele>46</ele>
        <time>2017-06-18T09:32:50Z</time>
      </trkpt>
      <trkpt lat="48.61969" lon="-2.06305">
        <ele>48</ele>
        <time>2017-06-18T09:32:53Z</time>
      </trkpt>
      <trkpt lat="48.61985" lon="-2.06303">
        <ele>47</ele>
        <time>2017-06-18T09:32:57Z</time>
      </trkpt>
      <trkpt lat="48.62012" lon="-2.06295">
        <ele>45</ele>
        <time>2017-06-18T09:33:02Z</time>
      </trkpt>
      <trkpt lat="48.62036" lon="-2.06293">
        <ele>42</ele>
        <time>2017-06-18T09:33:06Z</time>
      </trkpt>
      <trkpt lat="48.62071" lon="-2.06274">
        <ele>44</ele>
        <time>2017-06-18T09:33:12Z</time>
      </trkpt>
      <trkpt lat="48.6212" lon="-2.06254">
        <ele>46</ele>
        <time>2017-06-18T09:33:19Z</time>
      </trkpt>
      <trkpt lat="48.62142" lon="-2.06246">
        <ele>46</ele>
        <time>2017-06-18T09:33:22Z</time>
      </trkpt>
      <trkpt lat="48.62177" lon="-2.06231">
        <ele>44</ele>
        <time>2017-06-18T09:33:27Z</time>
      </trkpt>
      <trkpt lat="48.622" lon="-2.06221">
        <ele>42</ele>
        <time>2017-06-18T09:33:31Z</time>
      </trkpt>
      <trkpt lat="48.62228" lon="-2.06211">
        <ele>42</ele>
        <time>2017-06-18T09:33:36Z</time>
      </trkpt>
      <trkpt lat="48.62268" lon="-2.06194">
        <ele>42</ele>
        <time>2017-06-18T09:33:42Z</time>
      </trkpt>
      <trkpt lat="48.62285" lon="-2.06189">
        <ele>43</ele>
        <time>2017-06-18T09:33:45Z</time>
      </trkpt>
      <trkpt lat="48.62306" lon="-2.0618">
        <ele>40</ele>
        <time>2017-06-18T09:33:50Z</time>
      </trkpt>
      <trkpt lat="48.62313" lon="-2.06177">
        <ele>40</ele>
        <time>2017-06-18T09:33:58Z</time>
      </trkpt>
      <trkpt lat="48.62315" lon="-2.06178">
        <ele>40</ele>
        <time>2017-06-18T09:34:01Z</time>
      </trkpt>
      <trkpt lat="48.62322" lon="-2.06179">
        <ele>41</ele>
        <time>2017-06-18T09:34:06Z</time>
      </trkpt>
      <trkpt lat="48.62329" lon="-2.06181">
        <ele>39</ele>
        <time>2017-06-18T09:34:11Z</time>
      </trkpt>
      <trkpt lat="48.62333" lon="-2.06206">
        <ele>38</ele>
        <time>2017-06-18T09:34:15Z</time>
      </trkpt>
      <trkpt lat="48.62336" lon="-2.06242">
        <ele>38</ele>
        <time>2017-06-18T09:34:21Z</time>
      </trkpt>
      <trkpt lat="48.62341" lon="-2.0627">
        <ele>38</ele>
        <time>2017-06-18T09:34:25Z</time>
      </trkpt>
      <trkpt lat="48.62348" lon="-2.06298">
        <ele>36</ele>
        <time>2017-06-18T09:34:31Z</time>
      </trkpt>
      <trkpt lat="48.62355" lon="-2.06312">
        <ele>37</ele>
        <time>2017-06-18T09:34:36Z</time>
      </trkpt>
      <trkpt lat="48.6238" lon="-2.06299">
        <ele>37</ele>
        <time>2017-06-18T09:34:41Z</time>
      </trkpt>
      <trkpt lat="48.62405" lon="-2.06292">
        <ele>39</ele>
        <time>2017-06-18T09:34:47Z</time>
      </trkpt>
      <trkpt lat="48.62432" lon="-2.06285">
        <ele>40</ele>
        <time>2017-06-18T09:34:52Z</time>
      </trkpt>
      <trkpt lat="48.62452" lon="-2.06277">
        <ele>40</ele>
        <time>2017-06-18T09:34:56Z</time>
      </trkpt>
      <trkpt lat="48.62477" lon="-2.06268">
        <ele>40</ele>
        <time>2017-06-18T09:35:01Z</time>
      </trkpt>
      <trkpt lat="48.62503" lon="-2.0626">
        <ele>40</ele>
        <time>2017-06-18T09:35:06Z</time>
      </trkpt>
      <trkpt lat="48.62526" lon="-2.06253">
        <ele>38</ele>
        <time>2017-06-18T09:35:11Z</time>
      </trkpt>
      <trkpt lat="48.6255" lon="-2.06244">
        <ele>39</ele>
        <time>2017-06-18T09:35:15Z</time>
      </trkpt>
      <trkpt lat="48.62574" lon="-2.0623">
        <ele>40</ele>
        <time>2017-06-18T09:35:21Z</time>
      </trkpt>
      <trkpt lat="48.62598" lon="-2.06214">
        <ele>40</ele>
        <time>2017-06-18T09:35:26Z</time>
      </trkpt>
      <trkpt lat="48.62624" lon="-2.06197">
        <ele>39</ele>
        <time>2017-06-18T09:35:30Z</time>
      </trkpt>
      <trkpt lat="48.62645" lon="-2.06181">
        <ele>41</ele>
        <time>2017-06-18T09:35:36Z</time>
      </trkpt>
      <trkpt lat="48.62663" lon="-2.06183">
        <ele>41</ele>
        <time>2017-06-18T09:35:42Z</time>
      </trkpt>
      <trkpt lat="48.62689" lon="-2.06198">
        <ele>40</ele>
        <time>2017-06-18T09:35:47Z</time>
      </trkpt>
      <trkpt lat="48.62712" lon="-2.06212">
        <ele>39</ele>
        <time>2017-06-18T09:35:51Z</time>
      </trkpt>
      <trkpt lat="48.62738" lon="-2.06234">
        <ele>39</ele>
        <time>2017-06-18T09:35:56Z</time>
      </trkpt>
      <trkpt lat="48.62758" lon="-2.06259">
        <ele>41</ele>
        <time>2017-06-18T09:36:01Z</time>
      </trkpt>
      <trkpt lat="48.62783" lon="-2.06287">
        <ele>38</ele>
        <time>2017-06-18T09:36:06Z</time>
      </trkpt>
      <trkpt lat="48.62823" lon="-2.06349">
        <ele>38</ele>
        <time>2017-06-18T09:36:15Z</time>
      </trkpt>
      <trkpt lat="48.62828" lon="-2.06358">
        <ele>38</ele>
        <time>2017-06-18T09:36:16Z</time>
      </trkpt>
      <trkpt lat="48.62851" lon="-2.06394">
        <ele>38</ele>
        <time>2017-06-18T09:36:21Z</time>
      </trkpt>
      <trkpt lat="48.62875" lon="-2.06423">
        <ele>38</ele>
        <time>2017-06-18T09:36:25Z</time>
      </trkpt>
      <trkpt lat="48.62903" lon="-2.06443">
        <ele>39</ele>
        <time>2017-06-18T09:36:30Z</time>
      </trkpt>
      <trkpt lat="48.62936" lon="-2.06468">
        <ele>38</ele>
        <time>2017-06-18T09:36:36Z</time>
      </trkpt>
      <trkpt lat="48.62963" lon="-2.06487">
        <ele>40</ele>
        <time>2017-06-18T09:36:42Z</time>
      </trkpt>
      <trkpt lat="48.62997" lon="-2.0651">
        <ele>40</ele>
        <time>2017-06-18T09:36:49Z</time>
      </trkpt>
      <trkpt lat="48.63007" lon="-2.06518">
        <ele>41</ele>
        <time>2017-06-18T09:36:51Z</time>
      </trkpt>
      <trkpt lat="48.63033" lon="-2.06531">
        <ele>42</ele>
        <time>2017-06-18T09:36:56Z</time>
      </trkpt>
      <trkpt lat="48.63053" lon="-2.06513">
        <ele>40</ele>
        <time>2017-06-18T09:37:00Z</time>
      </trkpt>
      <trkpt lat="48.63069" lon="-2.06529">
        <ele>38</ele>
        <time>2017-06-18T09:37:06Z</time>
      </trkpt>
      <trkpt lat="48.63074" lon="-2.06556">
        <ele>38</ele>
        <time>2017-06-18T09:37:11Z</time>
      </trkpt>
      <trkpt lat="48.63074" lon="-2.0659">
        <ele>40</ele>
        <time>2017-06-18T09:37:15Z</time>
      </trkpt>
      <trkpt lat="48.63073" lon="-2.06626">
        <ele>40</ele>
        <time>2017-06-18T09:37:21Z</time>
      </trkpt>
      <trkpt lat="48.63077" lon="-2.06657">
        <ele>40</ele>
        <time>2017-06-18T09:37:26Z</time>
      </trkpt>
      <trkpt lat="48.63078" lon="-2.06687">
        <ele>42</ele>
        <time>2017-06-18T09:37:30Z</time>
      </trkpt>
      <trkpt lat="48.63078" lon="-2.06712">
        <ele>41</ele>
        <time>2017-06-18T09:37:35Z</time>
      </trkpt>
      <trkpt lat="48.63077" lon="-2.06725">
        <ele>40</ele>
        <time>2017-06-18T09:37:41Z</time>
      </trkpt>
      <trkpt lat="48.63076" lon="-2.06723">
        <ele>40</ele>
        <time>2017-06-18T09:37:45Z</time>
      </trkpt>
      <trkpt lat="48.63077" lon="-2.06724">
        <ele>40</ele>
        <time>2017-06-18T09:37:48Z</time>
      </trkpt>
      <trkpt lat="48.63077" lon="-2.06724">
        <ele>41</ele>
        <time>2017-06-18T09:37:51Z</time>
      </trkpt>
      <trkpt lat="48.63077" lon="-2.06724">
        <ele>41</ele>
        <time>2017-06-18T09:37:55Z</time>
      </trkpt>
      <trkpt lat="48.63077" lon="-2.06724">
        <ele>41</ele>
        <time>2017-06-18T09:37:58Z</time>
      </trkpt>
      <trkpt lat="48.63077" lon="-2.06726">
        <ele>40</ele>
        <time>2017-06-18T09:38:01Z</time>
      </trkpt>
      <trkpt lat="48.63079" lon="-2.06749">
        <ele>39</ele>
        <time>2017-06-18T09:38:06Z</time>
      </trkpt>
      <trkpt lat="48.63079" lon="-2.06781">
        <ele>39</ele>
        <time>2017-06-18T09:38:11Z</time>
      </trkpt>
      <trkpt lat="48.63083" lon="-2.06818">
        <ele>38</ele>
        <time>2017-06-18T09:38:15Z</time>
      </trkpt>
      <trkpt lat="48.63089" lon="-2.06885">
        <ele>34</ele>
        <time>2017-06-18T09:38:23Z</time>
      </trkpt>
      <trkpt lat="48.63089" lon="-2.06905">
        <ele>33</ele>
        <time>2017-06-18T09:38:26Z</time>
      </trkpt>
      <trkpt lat="48.63091" lon="-2.06957">
        <ele>32</ele>
        <time>2017-06-18T09:38:31Z</time>
      </trkpt>
      <trkpt lat="48.63093" lon="-2.07004">
        <ele>32</ele>
        <time>2017-06-18T09:38:35Z</time>
      </trkpt>
      <trkpt lat="48.63095" lon="-2.0707">
        <ele>30</ele>
        <time>2017-06-18T09:38:45Z</time>
      </trkpt>
      <trkpt lat="48.63095" lon="-2.07088">
        <ele>28</ele>
        <time>2017-06-18T09:38:47Z</time>
      </trkpt>
      <trkpt lat="48.63098" lon="-2.0712">
        <ele>28</ele>
        <time>2017-06-18T09:38:51Z</time>
      </trkpt>
      <trkpt lat="48.63099" lon="-2.07152">
        <ele>29</ele>
        <time>2017-06-18T09:38:55Z</time>
      </trkpt>
      <trkpt lat="48.63098" lon="-2.072">
        <ele>27</ele>
        <time>2017-06-18T09:39:01Z</time>
      </trkpt>
      <trkpt lat="48.63093" lon="-2.07236">
        <ele>30</ele>
        <time>2017-06-18T09:39:07Z</time>
      </trkpt>
      <trkpt lat="48.63086" lon="-2.07266">
        <ele>30</ele>
        <time>2017-06-18T09:39:11Z</time>
      </trkpt>
      <trkpt lat="48.63074" lon="-2.07301">
        <ele>30</ele>
        <time>2017-06-18T09:39:16Z</time>
      </trkpt>
      <trkpt lat="48.6306" lon="-2.07334">
        <ele>31</ele>
        <time>2017-06-18T09:39:21Z</time>
      </trkpt>
      <trkpt lat="48.63047" lon="-2.07367">
        <ele>31</ele>
        <time>2017-06-18T09:39:26Z</time>
      </trkpt>
      <trkpt lat="48.63037" lon="-2.07398">
        <ele>31</ele>
        <time>2017-06-18T09:39:30Z</time>
      </trkpt>
      <trkpt lat="48.63018" lon="-2.07445">
        <ele>27</ele>
        <time>2017-06-18T09:39:37Z</time>
      </trkpt>
      <trkpt lat="48.62997" lon="-2.07498">
        <ele>27</ele>
        <time>2017-06-18T09:39:44Z</time>
      </trkpt>
      <trkpt lat="48.62989" lon="-2.07522">
        <ele>28</ele>
        <time>2017-06-18T09:39:47Z</time>
      </trkpt>
      <trkpt lat="48.62979" lon="-2.07547">
        <ele>27</ele>
        <time>2017-06-18T09:39:50Z</time>
      </trkpt>
      <trkpt lat="48.62976" lon="-2.07558">
        <ele>27</ele>
        <time>2017-06-18T09:39:57Z</time>
      </trkpt>
      <trkpt lat="48.62962" lon="-2.07557">
        <ele>27</ele>
        <time>2017-06-18T09:40:00Z</time>
      </trkpt>
      <trkpt lat="48.62925" lon="-2.07541">
        <ele>29</ele>
        <time>2017-06-18T09:40:08Z</time>
      </trkpt>
      <trkpt lat="48.62902" lon="-2.07525">
        <ele>29</ele>
        <time>2017-06-18T09:40:12Z</time>
      </trkpt>
      <trkpt lat="48.6287" lon="-2.07501">
        <ele>31</ele>
        <time>2017-06-18T09:40:17Z</time>
      </trkpt>
      <trkpt lat="48.62856" lon="-2.0749">
        <ele>32</ele>
        <time>2017-06-18T09:40:20Z</time>
      </trkpt>
      <trkpt lat="48.62832" lon="-2.0747">
        <ele>31</ele>
        <time>2017-06-18T09:40:25Z</time>
      </trkpt>
      <trkpt lat="48.62809" lon="-2.07448">
        <ele>33</ele>
        <time>2017-06-18T09:40:31Z</time>
      </trkpt>
      <trkpt lat="48.62786" lon="-2.07426">
        <ele>32</ele>
        <time>2017-06-18T09:40:35Z</time>
      </trkpt>
      <trkpt lat="48.62762" lon="-2.07404">
        <ele>32</ele>
        <time>2017-06-18T09:40:40Z</time>
      </trkpt>
      <trkpt lat="48.62739" lon="-2.07377">
        <ele>34</ele>
        <time>2017-06-18T09:40:46Z</time>
      </trkpt>
      <trkpt lat="48.62721" lon="-2.07371">
        <ele>35</ele>
        <time>2017-06-18T09:40:50Z</time>
      </trkpt>
      <trkpt lat="48.627" lon="-2.07378">
        <ele>34</ele>
        <time>2017-06-18T09:40:55Z</time>
      </trkpt>
      <trkpt lat="48.62696" lon="-2.07406">
        <ele>35</ele>
        <time>2017-06-18T09:41:01Z</time>
      </trkpt>
      <trkpt lat="48.62692" lon="-2.07438">
        <ele>35</ele>
        <time>2017-06-18T09:41:06Z</time>
      </trkpt>
      <trkpt lat="48.62688" lon="-2.07472">
        <ele>35</ele>
        <time>2017-06-18T09:41:10Z</time>
      </trkpt>
      <trkpt lat="48.62682" lon="-2.07506">
        <ele>36</ele>
        <time>2017-06-18T09:41:15Z</time>
      </trkpt>
      <trkpt lat="48.62677" lon="-2.07538">
        <ele>37</ele>
        <time>2017-06-18T09:41:21Z</time>
      </trkpt>
      <trkpt lat="48.62675" lon="-2.0757">
        <ele>37</ele>
        <time>2017-06-18T09:41:26Z</time>
      </trkpt>
      <trkpt lat="48.62669" lon="-2.07603">
        <ele>36</ele>
        <time>2017-06-18T09:41:31Z</time>
      </trkpt>
      <trkpt lat="48.62664" lon="-2.07638">
        <ele>36</ele>
        <time>2017-06-18T09:41:35Z</time>
      </trkpt>
      <trkpt lat="48.62659" lon="-2.07677">
        <ele>34</ele>
        <time>2017-06-18T09:41:41Z</time>
      </trkpt>
      <trkpt lat="48.62652" lon="-2.07719">
        <ele>33</ele>
        <time>2017-06-18T09:41:46Z</time>
      </trkpt>
      <trkpt lat="48.62644" lon="-2.07767">
        <ele>32</ele>
        <time>2017-06-18T09:41:51Z</time>
      </trkpt>
      <trkpt lat="48.62632" lon="-2.0781">
        <ele>33</ele>
        <time>2017-06-18T09:41:56Z</time>
      </trkpt>
      <trkpt lat="48.62621" lon="-2.07849">
        <ele>34</ele>
        <time>2017-06-18T09:42:01Z</time>
      </trkpt>
      <trkpt lat="48.62611" lon="-2.07883">
        <ele>35</ele>
        <time>2017-06-18T09:42:05Z</time>
      </trkpt>
      <trkpt lat="48.62602" lon="-2.07913">
        <ele>37</ele>
        <time>2017-06-18T09:42:10Z</time>
      </trkpt>
      <trkpt lat="48.62596" lon="-2.07938">
        <ele>37</ele>
        <time>2017-06-18T09:42:15Z</time>
      </trkpt>
      <trkpt lat="48.6259" lon="-2.07967">
        <ele>37</ele>
        <time>2017-06-18T09:42:20Z</time>
      </trkpt>
      <trkpt lat="48.62581" lon="-2.08005">
        <ele>38</ele>
        <time>2017-06-18T09:42:25Z</time>
      </trkpt>
      <trkpt lat="48.62573" lon="-2.08042">
        <ele>38</ele>
        <time>2017-06-18T09:42:31Z</time>
      </trkpt>
      <trkpt lat="48.62565" lon="-2.08077">
        <ele>39</ele>
        <time>2017-06-18T09:42:36Z</time>
      </trkpt>
      <trkpt lat="48.62556" lon="-2.08112">
        <ele>39</ele>
        <time>2017-06-18T09:42:41Z</time>
      </trkpt>
      <trkpt lat="48.62547" lon="-2.08143">
        <ele>39</ele>
        <time>2017-06-18T09:42:46Z</time>
      </trkpt>
      <trkpt lat="48.62542" lon="-2.08159">
        <ele>38</ele>
        <time>2017-06-18T09:42:51Z</time>
      </trkpt>
      <trkpt lat="48.62539" lon="-2.0817">
        <ele>40</ele>
        <time>2017-06-18T09:42:55Z</time>
      </trkpt>
      <trkpt lat="48.62529" lon="-2.08184">
        <ele>40</ele>
        <time>2017-06-18T09:43:00Z</time>
      </trkpt>
      <trkpt lat="48.6252" lon="-2.08206">
        <ele>40</ele>
        <time>2017-06-18T09:43:06Z</time>
      </trkpt>
      <trkpt lat="48.62509" lon="-2.08229">
        <ele>41</ele>
        <time>2017-06-18T09:43:10Z</time>
      </trkpt>
      <trkpt lat="48.62499" lon="-2.08251">
        <ele>42</ele>
        <time>2017-06-18T09:43:15Z</time>
      </trkpt>
      <trkpt lat="48.6249" lon="-2.08272">
        <ele>44</ele>
        <time>2017-06-18T09:43:20Z</time>
      </trkpt>
      <trkpt lat="48.62479" lon="-2.08294">
        <ele>44</ele>
        <time>2017-06-18T09:43:26Z</time>
      </trkpt>
      <trkpt lat="48.62469" lon="-2.08316">
        <ele>45</ele>
        <time>2017-06-18T09:43:30Z</time>
      </trkpt>
      <trkpt lat="48.62459" lon="-2.08337">
        <ele>45</ele>
        <time>2017-06-18T09:43:35Z</time>
      </trkpt>
      <trkpt lat="48.62449" lon="-2.0836">
        <ele>45</ele>
        <time>2017-06-18T09:43:41Z</time>
      </trkpt>
      <trkpt lat="48.62432" lon="-2.08396">
        <ele>43</ele>
        <time>2017-06-18T09:43:46Z</time>
      </trkpt>
      <trkpt lat="48.62406" lon="-2.08454">
        <ele>41</ele>
        <time>2017-06-18T09:43:52Z</time>
      </trkpt>
      <trkpt lat="48.62385" lon="-2.08498">
        <ele>38</ele>
        <time>2017-06-18T09:43:55Z</time>
      </trkpt>
      <trkpt lat="48.62361" lon="-2.08539">
        <ele>35</ele>
        <time>2017-06-18T09:44:01Z</time>
      </trkpt>
      <trkpt lat="48.62328" lon="-2.08592">
        <ele>33</ele>
        <time>2017-06-18T09:44:06Z</time>
      </trkpt>
      <trkpt lat="48.62297" lon="-2.0864">
        <ele>31</ele>
        <time>2017-06-18T09:44:11Z</time>
      </trkpt>
      <trkpt lat="48.62278" lon="-2.08682">
        <ele>31</ele>
        <time>2017-06-18T09:44:15Z</time>
      </trkpt>
      <trkpt lat="48.62263" lon="-2.08732">
        <ele>30</ele>
        <time>2017-06-18T09:44:21Z</time>
      </trkpt>
      <trkpt lat="48.62245" lon="-2.08769">
        <ele>32</ele>
        <time>2017-06-18T09:44:26Z</time>
      </trkpt>
      <trkpt lat="48.62212" lon="-2.08816">
        <ele>32</ele>
        <time>2017-06-18T09:44:33Z</time>
      </trkpt>
      <trkpt lat="48.62198" lon="-2.08839">
        <ele>33</ele>
        <time>2017-06-18T09:44:35Z</time>
      </trkpt>
      <trkpt lat="48.62178" lon="-2.08878">
        <ele>33</ele>
        <time>2017-06-18T09:44:41Z</time>
      </trkpt>
      <trkpt lat="48.62161" lon="-2.08918">
        <ele>33</ele>
        <time>2017-06-18T09:44:46Z</time>
      </trkpt>
      <trkpt lat="48.62146" lon="-2.08957">
        <ele>33</ele>
        <time>2017-06-18T09:44:51Z</time>
      </trkpt>
      <trkpt lat="48.62128" lon="-2.08999">
        <ele>33</ele>
        <time>2017-06-18T09:44:55Z</time>
      </trkpt>
      <trkpt lat="48.62114" lon="-2.09034">
        <ele>34</ele>
        <time>2017-06-18T09:45:01Z</time>
      </trkpt>
      <trkpt lat="48.62104" lon="-2.0906">
        <ele>36</ele>
        <time>2017-06-18T09:45:06Z</time>
      </trkpt>
      <trkpt lat="48.62099" lon="-2.09071">
        <ele>37</ele>
        <time>2017-06-18T09:45:10Z</time>
      </trkpt>
      <trkpt lat="48.621" lon="-2.0907">
        <ele>37</ele>
        <time>2017-06-18T09:45:16Z</time>
      </trkpt>
      <trkpt lat="48.621" lon="-2.09069">
        <ele>37</ele>
        <time>2017-06-18T09:45:19Z</time>
      </trkpt>
      <trkpt lat="48.621" lon="-2.0907">
        <ele>37</ele>
        <time>2017-06-18T09:45:21Z</time>
      </trkpt>
      <trkpt lat="48.621" lon="-2.0907">
        <ele>37</ele>
        <time>2017-06-18T09:45:25Z</time>
      </trkpt>
      <trkpt lat="48.62099" lon="-2.0907">
        <ele>37</ele>
        <time>2017-06-18T09:45:28Z</time>
      </trkpt>
      <trkpt lat="48.62097" lon="-2.09075">
        <ele>37</ele>
        <time>2017-06-18T09:45:30Z</time>
      </trkpt>
      <trkpt lat="48.62084" lon="-2.09099">
        <ele>35</ele>
        <time>2017-06-18T09:45:36Z</time>
      </trkpt>
      <trkpt lat="48.62062" lon="-2.09147">
        <ele>33</ele>
        <time>2017-06-18T09:45:41Z</time>
      </trkpt>
      <trkpt lat="48.62038" lon="-2.09198">
        <ele>30</ele>
        <time>2017-06-18T09:45:46Z</time>
      </trkpt>
      <trkpt lat="48.62006" lon="-2.09263">
        <ele>30</ele>
        <time>2017-06-18T09:45:51Z</time>
      </trkpt>
      <trkpt lat="48.61974" lon="-2.09331">
        <ele>27</ele>
        <time>2017-06-18T09:45:58Z</time>
      </trkpt>
      <trkpt lat="48.61967" lon="-2.09347">
        <ele>26</ele>
        <time>2017-06-18T09:46:01Z</time>
      </trkpt>
      <trkpt lat="48.6193" lon="-2.09405">
        <ele>30</ele>
        <time>2017-06-18T09:46:10Z</time>
      </trkpt>
      <trkpt lat="48.61921" lon="-2.09415">
        <ele>30</ele>
        <time>2017-06-18T09:46:11Z</time>
      </trkpt>
      <trkpt lat="48.61895" lon="-2.09444">
        <ele>29</ele>
        <time>2017-06-18T09:46:18Z</time>
      </trkpt>
      <trkpt lat="48.61876" lon="-2.09462">
        <ele>31</ele>
        <time>2017-06-18T09:46:22Z</time>
      </trkpt>
      <trkpt lat="48.61853" lon="-2.09488">
        <ele>35</ele>
        <time>2017-06-18T09:46:29Z</time>
      </trkpt>
      <trkpt lat="48.6185" lon="-2.09492">
        <ele>35</ele>
        <time>2017-06-18T09:46:31Z</time>
      </trkpt>
      <trkpt lat="48.61832" lon="-2.09516">
        <ele>36</ele>
        <time>2017-06-18T09:46:35Z</time>
      </trkpt>
      <trkpt lat="48.61826" lon="-2.09545">
        <ele>35</ele>
        <time>2017-06-18T09:46:40Z</time>
      </trkpt>
      <trkpt lat="48.61835" lon="-2.09588">
        <ele>39</ele>
        <time>2017-06-18T09:46:50Z</time>
      </trkpt>
      <trkpt lat="48.61835" lon="-2.09591">
        <ele>39</ele>
        <time>2017-06-18T09:46:51Z</time>
      </trkpt>
    </trkseg>
  </trk>
</gpx>